Darstellungsparameter: Aktuell verwendete Einstellungen:
Skalierung der Graphiken ... ?
xyx+y,   Skalierungsfaktor:      Skalierung: Modus: x, Faktor: 1
Darstellungszeitraum ... ?
Vom - - bis: - -   Zeitraum: 26.12.2014 - 15.01.2015
Min/Max/Avg-Anzeige ... ?
Zeige MMA aktuell
Zeige MMA Monat
Zeige MMA alles
Zeige --A aktuell
Zeige --A Monat
Zeige --A alles
Keine MMA-Anzeige
MMA:
Average (ber die Originaldaten)
MMA-Basis: 26.12.2014 - 15.01.2015
Quicknavigation für Darstellung... ?
Tage:      1T, 2T, 3T, 5T -1T -2T -3T -5T +1T +2T +3T +5T
Wochen: 1W, 2W, 3W -1W -2W -3W +1W +2W +3W
Monate: 1M, 3M, 6M -1M -3M -6M +1M +3M +6M
Jahre:    1J, 3J, 5J, 10J -1J -3J -5J -10J +1J +3J +5J +10J
Nutze für die Darstellung ... ?
Originaldaten oder Mittelwerte auf ...
Stundenbasis Tagesbasis Wochenbasis
Monatsbasis Jahresbasis      Datenbasis: Original-Daten
Darstellen als:
Statistik (Auto) Statistik J:M      Darstellung:
Zur Graphik,    zurück zur Übersicht aller Sensoren.
 
Tabellarische Datenbersicht: ?
 
Sensor: Nr:Datum:Temp:Abs-Feuchte:Windchill:Wind:
Aussen-T/F 1 26-12-2014 00:00:00 1.9 C 5.35 g/m*3 1.9 C 1.6 km/h
2 26-12-2014 00:05:00 2.1 C 5.43 g/m*3 2.1 C 1.6 km/h
3 26-12-2014 00:10:00 2.1 C 5.43 g/m*3 2.1 C 0 km/h
4 26-12-2014 00:15:00 2.1 C 5.43 g/m*3 2.1 C 0 km/h
5 26-12-2014 00:20:00 2.1 C 5.43 g/m*3 2.1 C 1.6 km/h
6 26-12-2014 00:25:00 2.1 C 5.43 g/m*3 2.1 C 0 km/h
7 26-12-2014 00:30:00 2.1 C 5.43 g/m*3 2.1 C 0 km/h
8 26-12-2014 00:35:00 2.1 C 5.43 g/m*3 2.1 C 1.6 km/h
9 26-12-2014 00:40:00 2.1 C 5.43 g/m*3 2.1 C 0 km/h
10 26-12-2014 00:45:00 2.2 C 5.46 g/m*3 2.2 C 0 km/h
11 26-12-2014 00:50:00 2.2 C 5.46 g/m*3 2.2 C 0 km/h
12 26-12-2014 00:55:00 2.2 C 5.46 g/m*3 2.2 C 0 km/h
13 26-12-2014 01:00:00 2.2 C 5.46 g/m*3 2.2 C 0 km/h
14 26-12-2014 01:05:00 2.2 C 5.46 g/m*3 2.2 C 0 km/h
15 26-12-2014 01:10:00 2.2 C 5.46 g/m*3 2.2 C 0 km/h
16 26-12-2014 01:15:00 2.2 C 5.46 g/m*3 2.2 C 0 km/h
17 26-12-2014 01:20:00 2.3 C 5.5 g/m*3 2.3 C 0 km/h
18 26-12-2014 01:25:00 2.3 C 5.5 g/m*3 0.47 C 6.4 km/h
19 26-12-2014 01:30:00 2.3 C 5.5 g/m*3 2.3 C 3.2 km/h
20 26-12-2014 01:35:00 2.2 C 5.46 g/m*3 2.2 C 4.8 km/h
21 26-12-2014 01:40:00 2.2 C 5.46 g/m*3 2.2 C 4.8 km/h
22 26-12-2014 01:45:00 2.2 C 5.46 g/m*3 2.2 C 1.6 km/h
23 26-12-2014 05:40:00 3.2 C 6.03 g/m*3 3.2 C 1.6 km/h
24 26-12-2014 05:45:00 3.2 C 6.03 g/m*3 3.2 C 3.2 km/h
25 26-12-2014 05:50:00 3.2 C 6.03 g/m*3 3.2 C 4.8 km/h
Sensor: Nr:Datum:Temp:Abs-Feuchte:Windchill:Wind:
Aussen-T/F 26 26-12-2014 10:30:00 3.2 C 6.03 g/m*3 3.2 C 4.8 km/h
27 26-12-2014 10:35:00 3.2 C 6.03 g/m*3 3.2 C 4.8 km/h
28 26-12-2014 14:05:00 3.5 C 5.84 g/m*3 3.5 C 0 km/h
29 26-12-2014 14:10:00 3.6 C 5.88 g/m*3 3.6 C 0 km/h
30 26-12-2014 14:15:00 3.6 C 5.88 g/m*3 3.6 C 0 km/h
31 26-12-2014 14:20:00 3.6 C 5.88 g/m*3 3.6 C 0 km/h
32 26-12-2014 14:40:00 3.7 C 5.92 g/m*3 3.7 C 0 km/h
33 26-12-2014 14:45:00 3.7 C 5.98 g/m*3 3.7 C 0 km/h
34 26-12-2014 14:50:00 3.8 C 6.02 g/m*3 3.8 C 0 km/h
35 26-12-2014 14:55:00 3.8 C 6.02 g/m*3 3.8 C 0 km/h
36 26-12-2014 15:00:00 3.8 C 6.02 g/m*3 3.8 C 0 km/h
37 26-12-2014 15:05:00 3.8 C 6.02 g/m*3 3.8 C 1.6 km/h
38 26-12-2014 15:10:00 3.8 C 6.02 g/m*3 3.8 C 1.6 km/h
39 26-12-2014 15:15:00 3.7 C 5.98 g/m*3 3.7 C 1.6 km/h
40 26-12-2014 15:20:00 3.7 C 5.98 g/m*3 3.7 C 0 km/h
41 26-12-2014 15:25:00 3.7 C 5.98 g/m*3 3.7 C 0 km/h
42 26-12-2014 15:30:00 3.7 C 5.98 g/m*3 3.7 C 0 km/h
43 26-12-2014 15:35:00 3.7 C 5.98 g/m*3 3.7 C 0 km/h
44 26-12-2014 15:40:00 3.7 C 5.98 g/m*3 3.7 C 0 km/h
45 26-12-2014 15:45:00 3.7 C 5.98 g/m*3 3.7 C 0 km/h
46 26-12-2014 15:50:00 3.7 C 5.98 g/m*3 3.7 C 0 km/h
47 26-12-2014 15:55:00 3.6 C 5.94 g/m*3 3.6 C 0 km/h
48 26-12-2014 16:00:00 3.5 C 5.9 g/m*3 3.5 C 0 km/h
49 26-12-2014 16:05:00 3.4 C 5.86 g/m*3 3.4 C 0 km/h
50 26-12-2014 16:10:00 3.3 C 5.82 g/m*3 3.3 C 0 km/h
Sensor: Nr:Datum:Temp:Abs-Feuchte:Windchill:Wind:
Aussen-T/F 51 26-12-2014 16:15:00 3.2 C 5.79 g/m*3 3.2 C 0 km/h
52 26-12-2014 16:20:00 3.1 C 5.75 g/m*3 3.1 C 0 km/h
53 26-12-2014 16:25:00 3.1 C 5.75 g/m*3 3.1 C 0 km/h
54 26-12-2014 16:30:00 3 C 5.71 g/m*3 3 C 0 km/h
55 26-12-2014 16:35:00 2.9 C 5.67 g/m*3 2.9 C 1.6 km/h
56 26-12-2014 16:40:00 2.9 C 5.67 g/m*3 2.9 C 1.6 km/h
57 26-12-2014 16:45:00 2.9 C 5.67 g/m*3 2.9 C 0 km/h
58 26-12-2014 16:50:00 2.8 C 5.63 g/m*3 2.8 C 0 km/h
59 26-12-2014 16:55:00 2.8 C 5.69 g/m*3 2.8 C 0 km/h
60 26-12-2014 17:00:00 2.9 C 5.73 g/m*3 2.9 C 0 km/h
61 26-12-2014 17:05:00 2.9 C 5.73 g/m*3 2.9 C 0 km/h
62 26-12-2014 17:10:00 2.9 C 5.73 g/m*3 2.9 C 0 km/h
63 26-12-2014 17:15:00 2.9 C 5.73 g/m*3 2.9 C 0 km/h
64 26-12-2014 17:20:00 2.9 C 5.73 g/m*3 2.9 C 1.6 km/h
65 26-12-2014 17:25:00 3.1 C 5.81 g/m*3 3.1 C 1.6 km/h
66 26-12-2014 17:30:00 3.1 C 5.81 g/m*3 3.1 C 0 km/h
67 26-12-2014 17:35:00 2.9 C 5.73 g/m*3 2.9 C 0 km/h
68 26-12-2014 17:40:00 2.7 C 5.65 g/m*3 2.7 C 0 km/h
69 26-12-2014 17:45:00 2.4 C 5.48 g/m*3 2.4 C 0 km/h
70 26-12-2014 17:50:00 2.3 C 5.44 g/m*3 2.3 C 0 km/h
71 26-12-2014 17:55:00 2.1 C 5.37 g/m*3 2.1 C 0 km/h
72 26-12-2014 18:00:00 2 C 5.33 g/m*3 2 C 0 km/h
73 26-12-2014 18:05:00 1.9 C 5.35 g/m*3 1.9 C 0 km/h
74 26-12-2014 18:10:00 1.8 C 5.32 g/m*3 1.8 C 0 km/h
75 26-12-2014 18:15:00 1.7 C 5.23 g/m*3 1.7 C 0 km/h
Sensor: Nr:Datum:Temp:Abs-Feuchte:Windchill:Wind:
Aussen-T/F 76 26-12-2014 18:20:00 1.7 C 5.28 g/m*3 1.7 C 0 km/h
77 26-12-2014 18:25:00 1.6 C 5.25 g/m*3 1.6 C 0 km/h
78 26-12-2014 18:30:00 1.6 C 5.25 g/m*3 1.6 C 0 km/h
79 26-12-2014 18:35:00 1.6 C 5.25 g/m*3 1.6 C 0 km/h
80 26-12-2014 18:40:00 1.6 C 5.25 g/m*3 1.6 C 0 km/h
81 26-12-2014 18:45:00 1.5 C 5.21 g/m*3 1.5 C 0 km/h
82 26-12-2014 18:50:00 1.5 C 5.21 g/m*3 1.5 C 0 km/h
83 26-12-2014 18:55:00 1.6 C 5.25 g/m*3 1.6 C 0 km/h
84 26-12-2014 19:00:00 1.6 C 5.25 g/m*3 1.6 C 0 km/h
85 26-12-2014 19:05:00 1.5 C 5.21 g/m*3 1.5 C 0 km/h
86 26-12-2014 19:10:00 1.4 C 5.17 g/m*3 1.4 C 0 km/h
87 26-12-2014 19:15:00 1.3 C 5.14 g/m*3 1.3 C 0 km/h
88 26-12-2014 19:20:00 1.3 C 5.14 g/m*3 1.3 C 0 km/h
89 26-12-2014 19:25:00 1.3 C 5.14 g/m*3 1.3 C 0 km/h
90 26-12-2014 19:30:00 1.3 C 5.14 g/m*3 1.3 C 1.6 km/h
91 26-12-2014 19:35:00 1.3 C 5.14 g/m*3 1.3 C 0 km/h
92 26-12-2014 19:40:00 1.4 C 5.17 g/m*3 1.4 C 0 km/h
93 26-12-2014 19:45:00 1.4 C 5.17 g/m*3 1.4 C 1.6 km/h
94 26-12-2014 19:50:00 1.3 C 5.14 g/m*3 1.3 C 0 km/h
95 26-12-2014 19:55:00 1.3 C 5.14 g/m*3 1.3 C 0 km/h
96 26-12-2014 20:00:00 1.3 C 5.14 g/m*3 1.3 C 0 km/h
97 26-12-2014 20:05:00 1.3 C 5.14 g/m*3 1.3 C 0 km/h
98 26-12-2014 20:10:00 1.3 C 5.14 g/m*3 1.3 C 0 km/h
99 26-12-2014 20:15:00 1.4 C 5.17 g/m*3 1.4 C 1.6 km/h
100 26-12-2014 20:20:00 1.6 C 5.3 g/m*3 1.6 C 0 km/h
Sensor: Nr:Datum:Temp:Abs-Feuchte:Windchill:Wind:
Aussen-T/F 101 26-12-2014 20:25:00 1.6 C 5.3 g/m*3 1.6 C 0 km/h
102 26-12-2014 20:30:00 1.6 C 5.3 g/m*3 1.6 C 1.6 km/h
103 26-12-2014 20:35:00 1.6 C 5.3 g/m*3 1.6 C 1.6 km/h
104 26-12-2014 20:40:00 1.6 C 5.3 g/m*3 1.6 C 3.2 km/h
105 26-12-2014 20:45:00 1.6 C 5.3 g/m*3 1.6 C 1.6 km/h
106 26-12-2014 20:50:00 1.5 C 5.26 g/m*3 1.5 C 1.6 km/h
107 26-12-2014 20:55:00 1.5 C 5.26 g/m*3 1.5 C 1.6 km/h
108 26-12-2014 21:00:00 1.6 C 5.3 g/m*3 1.6 C 1.6 km/h
109 26-12-2014 21:05:00 1.6 C 5.3 g/m*3 1.6 C 1.6 km/h
110 26-12-2014 21:10:00 1.7 C 5.34 g/m*3 1.7 C 1.6 km/h
111 26-12-2014 21:15:00 1.7 C 5.34 g/m*3 1.7 C 3.2 km/h
112 26-12-2014 21:20:00 1.7 C 5.34 g/m*3 1.7 C 1.6 km/h
113 26-12-2014 21:25:00 1.8 C 5.37 g/m*3 1.8 C 3.2 km/h
114 26-12-2014 21:30:00 1.8 C 5.37 g/m*3 1.8 C 1.6 km/h
115 26-12-2014 21:35:00 2 C 5.45 g/m*3 2 C 3.2 km/h
116 26-12-2014 21:40:00 2.1 C 5.48 g/m*3 2.1 C 1.6 km/h
117 26-12-2014 21:45:00 2.2 C 5.52 g/m*3 2.2 C 3.2 km/h
118 26-12-2014 21:50:00 2.2 C 5.52 g/m*3 2.2 C 0 km/h
119 26-12-2014 21:55:00 2.2 C 5.52 g/m*3 2.2 C 0 km/h
120 26-12-2014 22:00:00 2.2 C 5.52 g/m*3 2.2 C 0 km/h
121 26-12-2014 22:05:00 2.2 C 5.52 g/m*3 2.2 C 1.6 km/h
122 26-12-2014 22:10:00 2.2 C 5.52 g/m*3 2.2 C 0 km/h
123 26-12-2014 22:15:00 2.1 C 5.48 g/m*3 2.1 C 3.2 km/h
124 26-12-2014 22:20:00 2.1 C 5.48 g/m*3 2.1 C 1.6 km/h
125 26-12-2014 22:25:00 2.1 C 5.48 g/m*3 2.1 C 0 km/h
Sensor: Nr:Datum:Temp:Abs-Feuchte:Windchill:Wind:
Aussen-T/F 126 26-12-2014 22:30:00 2.1 C 5.48 g/m*3 2.1 C 0 km/h
127 26-12-2014 22:35:00 2.1 C 5.48 g/m*3 2.1 C 0 km/h
128 26-12-2014 22:40:00 2 C 5.45 g/m*3 2 C 0 km/h
129 26-12-2014 22:45:00 2 C 5.45 g/m*3 2 C 0 km/h
130 26-12-2014 22:50:00 1.9 C 5.41 g/m*3 1.9 C 0 km/h
131 26-12-2014 22:55:00 1.9 C 5.41 g/m*3 1.9 C 0 km/h
132 26-12-2014 23:00:00 1.9 C 5.41 g/m*3 1.9 C 0 km/h
133 26-12-2014 23:05:00 1.9 C 5.41 g/m*3 1.9 C 0 km/h
134 26-12-2014 23:10:00 1.8 C 5.37 g/m*3 1.8 C 0 km/h
135 26-12-2014 23:15:00 1.8 C 5.37 g/m*3 1.8 C 0 km/h
136 26-12-2014 23:20:00 1.8 C 5.37 g/m*3 1.8 C 0 km/h
137 26-12-2014 23:25:00 1.8 C 5.37 g/m*3 1.8 C 0 km/h
138 26-12-2014 23:30:00 1.8 C 5.37 g/m*3 1.8 C 0 km/h
139 26-12-2014 23:35:00 1.8 C 5.37 g/m*3 1.8 C 0 km/h
140 26-12-2014 23:40:00 1.7 C 5.34 g/m*3 1.7 C 0 km/h
141 26-12-2014 23:45:00 1.7 C 5.34 g/m*3 1.7 C 0 km/h
142 26-12-2014 23:50:00 1.8 C 5.37 g/m*3 1.8 C 3.2 km/h
143 26-12-2014 23:55:00 1.8 C 5.37 g/m*3 1.8 C 0 km/h
144 27-12-2014 00:00:00 1.8 C 5.37 g/m*3 1.8 C 3.2 km/h
145 27-12-2014 00:05:00 1.8 C 5.37 g/m*3 1.8 C 0 km/h
146 27-12-2014 00:10:00 1.8 C 5.37 g/m*3 1.8 C 0 km/h
147 27-12-2014 00:15:00 1.8 C 5.37 g/m*3 1.8 C 0 km/h
148 27-12-2014 00:20:00 1.8 C 5.37 g/m*3 1.8 C 1.6 km/h
149 27-12-2014 00:25:00 1.8 C 5.37 g/m*3 1.8 C 0 km/h
150 27-12-2014 00:30:00 1.8 C 5.32 g/m*3 1.8 C 0 km/h
Sensor: Nr:Datum:Temp:Abs-Feuchte:Windchill:Wind:
Aussen-T/F 151 27-12-2014 00:35:00 1.8 C 5.32 g/m*3 1.8 C 0 km/h
152 27-12-2014 00:40:00 1.8 C 5.32 g/m*3 1.8 C 0 km/h
153 27-12-2014 00:45:00 1.8 C 5.32 g/m*3 1.8 C 1.6 km/h
154 27-12-2014 00:50:00 1.8 C 5.37 g/m*3 1.8 C 0 km/h
155 27-12-2014 00:55:00 1.8 C 5.32 g/m*3 1.8 C 1.6 km/h
156 27-12-2014 01:00:00 1.7 C 5.28 g/m*3 1.7 C 0 km/h
157 27-12-2014 01:05:00 1.7 C 5.28 g/m*3 1.7 C 0 km/h
158 27-12-2014 01:10:00 1.7 C 5.28 g/m*3 1.7 C 3.2 km/h
159 27-12-2014 01:15:00 1.7 C 5.28 g/m*3 1.7 C 1.6 km/h
160 27-12-2014 01:20:00 1.7 C 5.28 g/m*3 1.7 C 0 km/h
161 27-12-2014 01:25:00 1.7 C 5.28 g/m*3 1.7 C 3.2 km/h
162 27-12-2014 01:30:00 1.7 C 5.28 g/m*3 1.7 C 3.2 km/h
163 27-12-2014 01:35:00 1.7 C 5.34 g/m*3 1.7 C 3.2 km/h
164 27-12-2014 01:40:00 1.7 C 5.34 g/m*3 1.7 C 1.6 km/h
165 27-12-2014 01:45:00 1.7 C 5.34 g/m*3 1.7 C 0 km/h
166 27-12-2014 01:50:00 1.7 C 5.28 g/m*3 1.7 C 1.6 km/h
167 27-12-2014 01:55:00 1.8 C 5.37 g/m*3 1.8 C 3.2 km/h
168 27-12-2014 02:00:00 1.8 C 5.37 g/m*3 1.8 C 3.2 km/h
169 27-12-2014 02:05:00 1.8 C 5.32 g/m*3 1.8 C 0 km/h
170 27-12-2014 02:10:00 1.8 C 5.37 g/m*3 1.8 C 1.6 km/h
171 27-12-2014 02:15:00 1.8 C 5.37 g/m*3 1.8 C 0 km/h
172 27-12-2014 02:20:00 1.8 C 5.37 g/m*3 1.8 C 0 km/h
173 27-12-2014 02:25:00 1.8 C 5.37 g/m*3 1.8 C 3.2 km/h
174 27-12-2014 02:30:00 1.9 C 5.41 g/m*3 1.9 C 1.6 km/h
175 27-12-2014 02:35:00 1.9 C 5.41 g/m*3 1.9 C 1.6 km/h
Sensor: Nr:Datum:Temp:Abs-Feuchte:Windchill:Wind:
Aussen-T/F 176 27-12-2014 02:40:00 1.9 C 5.41 g/m*3 1.9 C 4.8 km/h
177 27-12-2014 02:45:00 1.9 C 5.35 g/m*3 1.9 C 4.8 km/h
178 27-12-2014 02:50:00 1.9 C 5.35 g/m*3 1.9 C 1.6 km/h
179 27-12-2014 02:55:00 1.9 C 5.35 g/m*3 1.9 C 0 km/h
180 27-12-2014 03:00:00 1.9 C 5.35 g/m*3 1.9 C 1.6 km/h
181 27-12-2014 03:05:00 1.9 C 5.35 g/m*3 1.9 C 0 km/h
182 27-12-2014 03:10:00 2 C 5.39 g/m*3 2 C 0 km/h
183 27-12-2014 03:15:00 1.9 C 5.35 g/m*3 1.9 C 3.2 km/h
184 27-12-2014 03:20:00 1.9 C 5.35 g/m*3 1.9 C 3.2 km/h
185 27-12-2014 03:25:00 1.9 C 5.35 g/m*3 1.9 C 1.6 km/h
186 27-12-2014 03:30:00 2 C 5.39 g/m*3 2 C 1.6 km/h
187 27-12-2014 03:35:00 2 C 5.39 g/m*3 2 C 0 km/h
188 27-12-2014 03:40:00 2.1 C 5.43 g/m*3 2.1 C 0 km/h
189 27-12-2014 03:45:00 2.1 C 5.43 g/m*3 2.1 C 0 km/h
190 27-12-2014 03:50:00 2.1 C 5.43 g/m*3 2.1 C 1.6 km/h
191 27-12-2014 03:55:00 2.1 C 5.43 g/m*3 2.1 C 1.6 km/h
192 27-12-2014 04:00:00 2.2 C 5.46 g/m*3 2.2 C 3.2 km/h
193 27-12-2014 04:05:00 2.2 C 5.46 g/m*3 2.2 C 1.6 km/h
194 27-12-2014 04:10:00 2.2 C 5.46 g/m*3 2.2 C 0 km/h
195 27-12-2014 04:15:00 2.2 C 5.46 g/m*3 2.2 C 4.8 km/h
196 27-12-2014 04:20:00 2.3 C 5.5 g/m*3 2.3 C 4.8 km/h
197 27-12-2014 04:25:00 2.3 C 5.5 g/m*3 2.3 C 3.2 km/h
198 27-12-2014 04:30:00 2.3 C 5.5 g/m*3 2.3 C 1.6 km/h
199 27-12-2014 05:45:00 1.8 C 5.21 g/m*3 1.8 C 3.2 km/h
200 27-12-2014 05:50:00 1.8 C 5.21 g/m*3 -0.1 C 6.4 km/h
Sensor: Nr:Datum:Temp:Abs-Feuchte:Windchill:Wind:
Aussen-T/F 201 27-12-2014 05:55:00 1.8 C 5.21 g/m*3 -2.11 C 14.5 km/h
202 27-12-2014 06:00:00 1.8 C 5.21 g/m*3 1.8 C 4.8 km/h
203 27-12-2014 06:05:00 1.8 C 5.21 g/m*3 1.8 C 4.8 km/h
204 27-12-2014 06:10:00 1.8 C 5.21 g/m*3 1.8 C 4.8 km/h
205 27-12-2014 06:15:00 1.8 C 5.21 g/m*3 1.8 C 4.8 km/h
206 27-12-2014 06:20:00 1.8 C 5.21 g/m*3 1.8 C 3.2 km/h
207 27-12-2014 06:25:00 1.8 C 5.21 g/m*3 -1.09 C 9.7 km/h
208 27-12-2014 06:30:00 1.8 C 5.21 g/m*3 -0.1 C 6.4 km/h
209 27-12-2014 06:50:00 1.7 C 5.17 g/m*3 -0.22 C 6.4 km/h
210 27-12-2014 06:55:00 1.6 C 5.14 g/m*3 -0.89 C 8.1 km/h
211 27-12-2014 07:00:00 1.6 C 5.14 g/m*3 -0.89 C 8.1 km/h
212 27-12-2014 07:05:00 1.6 C 5.14 g/m*3 -1.33 C 9.7 km/h
213 27-12-2014 07:10:00 1.6 C 5.14 g/m*3 -0.89 C 8.1 km/h
214 27-12-2014 07:30:00 1.4 C 5.07 g/m*3 -0.56 C 6.4 km/h
215 27-12-2014 07:35:00 1.3 C 5.03 g/m*3 -1.69 C 9.7 km/h
216 27-12-2014 07:40:00 1.3 C 5.03 g/m*3 -1.69 C 9.7 km/h
217 27-12-2014 07:45:00 1.3 C 5.03 g/m*3 -2.07 C 11.3 km/h
218 27-12-2014 07:50:00 1.3 C 5.03 g/m*3 -0.68 C 6.4 km/h
219 27-12-2014 07:55:00 1.3 C 5.03 g/m*3 -2.41 C 12.9 km/h
220 27-12-2014 08:00:00 1.3 C 5.03 g/m*3 -2.41 C 12.9 km/h
221 27-12-2014 08:05:00 1.3 C 5.03 g/m*3 -2.07 C 11.3 km/h
222 27-12-2014 08:10:00 1.3 C 5.03 g/m*3 -2.41 C 12.9 km/h
223 27-12-2014 09:05:00 1.3 C 4.98 g/m*3 -1.69 C 9.7 km/h
224 27-12-2014 09:10:00 1.3 C 5.03 g/m*3 -1.24 C 8.1 km/h
225 27-12-2014 09:15:00 1.2 C 5 g/m*3 -2.19 C 11.3 km/h
Sensor: Nr:Datum:Temp:Abs-Feuchte:Windchill:Wind:
Aussen-T/F 226 27-12-2014 09:20:00 1.2 C 5 g/m*3 -1.36 C 8.1 km/h
227 27-12-2014 09:25:00 1.1 C 4.96 g/m*3 -0.91 C 6.4 km/h
228 27-12-2014 09:30:00 1.2 C 5 g/m*3 -0.8 C 6.4 km/h
229 27-12-2014 09:35:00 1.2 C 5.05 g/m*3 -1.8 C 9.7 km/h
230 27-12-2014 09:40:00 1.2 C 5 g/m*3 -1.36 C 8.1 km/h
231 27-12-2014 09:45:00 1.2 C 5 g/m*3 -1.8 C 9.7 km/h
232 27-12-2014 09:50:00 1.2 C 5 g/m*3 -1.36 C 8.1 km/h
233 27-12-2014 09:55:00 1.3 C 5.03 g/m*3 1.3 C 4.8 km/h
234 27-12-2014 10:00:00 1.3 C 5.03 g/m*3 1.3 C 4.8 km/h
235 27-12-2014 10:05:00 1.3 C 5.03 g/m*3 -1.24 C 8.1 km/h
236 27-12-2014 10:10:00 1.3 C 5.03 g/m*3 -1.24 C 8.1 km/h
237 27-12-2014 10:15:00 1.3 C 5.03 g/m*3 -0.68 C 6.4 km/h
238 27-12-2014 10:20:00 1.3 C 5.03 g/m*3 1.3 C 4.8 km/h
239 27-12-2014 10:25:00 1.3 C 5.03 g/m*3 1.3 C 4.8 km/h
240 27-12-2014 10:30:00 1.3 C 5.09 g/m*3 -1.24 C 8.1 km/h
241 27-12-2014 10:35:00 1.3 C 5.09 g/m*3 -0.68 C 6.4 km/h
242 27-12-2014 10:40:00 1.4 C 5.12 g/m*3 -0.56 C 6.4 km/h
243 27-12-2014 10:45:00 1.4 C 5.12 g/m*3 -1.12 C 8.1 km/h
244 27-12-2014 10:50:00 1.4 C 5.12 g/m*3 1.4 C 4.8 km/h
245 27-12-2014 10:55:00 1.5 C 5.16 g/m*3 -1.45 C 9.7 km/h
246 27-12-2014 11:00:00 1.5 C 5.16 g/m*3 -0.45 C 6.4 km/h
247 27-12-2014 11:05:00 1.5 C 5.16 g/m*3 -1.01 C 8.1 km/h
248 27-12-2014 11:10:00 1.6 C 5.19 g/m*3 -0.33 C 6.4 km/h
249 27-12-2014 11:15:00 1.6 C 5.14 g/m*3 -0.33 C 6.4 km/h
250 27-12-2014 11:20:00 1.6 C 5.14 g/m*3 -0.89 C 8.1 km/h
Sensor: Nr:Datum:Temp:Abs-Feuchte:Windchill:Wind:
Aussen-T/F 251 27-12-2014 11:25:00 1.6 C 5.14 g/m*3 -1.33 C 9.7 km/h
252 27-12-2014 12:05:00 1.3 C 5.09 g/m*3 1.3 C 4.8 km/h
253 27-12-2014 12:10:00 1.3 C 5.09 g/m*3 -1.24 C 8.1 km/h
254 27-12-2014 12:15:00 1.3 C 5.09 g/m*3 1.3 C 3.2 km/h
255 27-12-2014 12:20:00 1.3 C 5.09 g/m*3 -1.69 C 9.7 km/h
256 27-12-2014 12:25:00 1.3 C 5.09 g/m*3 -0.68 C 6.4 km/h
257 27-12-2014 12:30:00 1.3 C 5.09 g/m*3 -1.24 C 8.1 km/h
258 27-12-2014 12:35:00 1.3 C 5.09 g/m*3 1.3 C 4.8 km/h
259 27-12-2014 12:40:00 1.3 C 5.09 g/m*3 1.3 C 4.8 km/h
260 27-12-2014 12:45:00 1.3 C 5.09 g/m*3 -1.24 C 8.1 km/h
261 27-12-2014 12:50:00 1.5 C 5.16 g/m*3 -1.01 C 8.1 km/h
262 27-12-2014 12:55:00 1.6 C 5.19 g/m*3 1.6 C 4.8 km/h
263 27-12-2014 13:00:00 1.6 C 5.19 g/m*3 1.6 C 4.8 km/h
264 27-12-2014 13:40:00 1.9 C 5.24 g/m*3 -0.54 C 8.1 km/h
265 27-12-2014 13:45:00 1.9 C 5.24 g/m*3 0.01 C 6.4 km/h
266 27-12-2014 13:50:00 1.9 C 5.24 g/m*3 1.9 C 3.2 km/h
267 27-12-2014 13:55:00 1.9 C 5.24 g/m*3 1.9 C 4.8 km/h
268 27-12-2014 14:00:00 1.9 C 5.24 g/m*3 1.9 C 4.8 km/h
269 27-12-2014 14:20:00 2.1 C 5.31 g/m*3 2.1 C 3.2 km/h
270 27-12-2014 14:25:00 2.1 C 5.31 g/m*3 2.1 C 1.6 km/h
271 27-12-2014 14:30:00 2.1 C 5.31 g/m*3 2.1 C 1.6 km/h
272 27-12-2014 14:35:00 2.2 C 5.35 g/m*3 2.2 C 1.6 km/h
273 27-12-2014 14:40:00 2.2 C 5.35 g/m*3 2.2 C 1.6 km/h
274 27-12-2014 14:45:00 2.2 C 5.35 g/m*3 2.2 C 1.6 km/h
275 27-12-2014 14:50:00 2.2 C 5.29 g/m*3 2.2 C 3.2 km/h
Sensor: Nr:Datum:Temp:Abs-Feuchte:Windchill:Wind:
Aussen-T/F 276 27-12-2014 14:55:00 2.2 C 5.29 g/m*3 2.2 C 1.6 km/h
277 27-12-2014 15:00:00 2.2 C 5.29 g/m*3 -0.18 C 8.1 km/h
278 27-12-2014 15:05:00 2.2 C 5.29 g/m*3 2.2 C 1.6 km/h
279 27-12-2014 15:10:00 2.3 C 5.33 g/m*3 2.3 C 4.8 km/h
280 27-12-2014 15:15:00 2.3 C 5.33 g/m*3 2.3 C 3.2 km/h
281 27-12-2014 15:20:00 2.3 C 5.33 g/m*3 -0.07 C 8.1 km/h
282 27-12-2014 15:25:00 2.3 C 5.33 g/m*3 2.3 C 1.6 km/h
283 27-12-2014 15:30:00 2.3 C 5.33 g/m*3 2.3 C 3.2 km/h
284 27-12-2014 15:35:00 2.1 C 5.26 g/m*3 2.1 C 3.2 km/h
285 27-12-2014 15:40:00 2.1 C 5.26 g/m*3 0.24 C 6.4 km/h
286 27-12-2014 15:45:00 2.1 C 5.26 g/m*3 2.1 C 4.8 km/h
287 27-12-2014 15:50:00 1.9 C 5.19 g/m*3 1.9 C 4.8 km/h
288 27-12-2014 15:55:00 1.8 C 5.15 g/m*3 1.8 C 4.8 km/h
289 27-12-2014 16:00:00 1.8 C 5.21 g/m*3 -0.1 C 6.4 km/h
290 27-12-2014 16:05:00 1.8 C 5.21 g/m*3 1.8 C 4.8 km/h
291 27-12-2014 16:10:00 1.7 C 5.17 g/m*3 -0.77 C 8.1 km/h
292 27-12-2014 16:15:00 1.7 C 5.17 g/m*3 -1.59 C 11.3 km/h
293 27-12-2014 16:20:00 1.7 C 5.17 g/m*3 -0.22 C 6.4 km/h
294 27-12-2014 16:25:00 1.7 C 5.17 g/m*3 1.7 C 4.8 km/h
295 27-12-2014 16:30:00 1.7 C 5.17 g/m*3 -0.22 C 6.4 km/h
296 27-12-2014 16:35:00 1.7 C 5.17 g/m*3 1.7 C 3.2 km/h
297 27-12-2014 18:55:00 0.8 C 4.81 g/m*3 0.8 C 3.2 km/h
298 27-12-2014 19:00:00 0.8 C 4.76 g/m*3 -3.62 C 16.1 km/h
299 27-12-2014 19:05:00 0.7 C 4.73 g/m*3 0.7 C 3.2 km/h
300 27-12-2014 19:10:00 0.7 C 4.73 g/m*3 -3.15 C 12.9 km/h
Sensor: Nr:Datum:Temp:Abs-Feuchte:Windchill:Wind:
Aussen-T/F 301 27-12-2014 19:15:00 0.7 C 4.73 g/m*3 0.7 C 4.8 km/h
302 27-12-2014 19:20:00 0.6 C 4.65 g/m*3 -1.49 C 6.4 km/h
303 27-12-2014 19:25:00 0.6 C 4.65 g/m*3 0.6 C 1.6 km/h
304 27-12-2014 19:30:00 0.6 C 4.65 g/m*3 -2.06 C 8.1 km/h
305 27-12-2014 19:35:00 0.6 C 4.65 g/m*3 -2.52 C 9.7 km/h
306 27-12-2014 19:40:00 0.6 C 4.65 g/m*3 -1.49 C 6.4 km/h
307 27-12-2014 19:45:00 0.6 C 4.65 g/m*3 -1.49 C 6.4 km/h
308 27-12-2014 19:50:00 0.5 C 4.61 g/m*3 -3.39 C 12.9 km/h
309 27-12-2014 19:55:00 0.5 C 4.61 g/m*3 -2.18 C 8.1 km/h
310 27-12-2014 20:00:00 0.4 C 4.53 g/m*3 -3.16 C 11.3 km/h
311 27-12-2014 20:05:00 0.4 C 4.53 g/m*3 -3.16 C 11.3 km/h
312 27-12-2014 20:10:00 0.4 C 4.53 g/m*3 -1.72 C 6.4 km/h
313 27-12-2014 20:15:00 0.4 C 4.53 g/m*3 -2.76 C 9.7 km/h
314 27-12-2014 20:20:00 0.4 C 4.53 g/m*3 -2.76 C 9.7 km/h
315 27-12-2014 20:25:00 0.4 C 4.48 g/m*3 -2.76 C 9.7 km/h
316 27-12-2014 20:30:00 0.4 C 4.48 g/m*3 -2.3 C 8.1 km/h
317 27-12-2014 20:35:00 0.3 C 4.45 g/m*3 -3.28 C 11.3 km/h
318 27-12-2014 20:40:00 0.3 C 4.45 g/m*3 -2.42 C 8.1 km/h
319 27-12-2014 20:45:00 0.3 C 4.45 g/m*3 -2.42 C 8.1 km/h
320 27-12-2014 20:50:00 0.3 C 4.45 g/m*3 -1.84 C 6.4 km/h
321 27-12-2014 20:55:00 0.3 C 4.45 g/m*3 -1.84 C 6.4 km/h
322 27-12-2014 21:00:00 0.3 C 4.45 g/m*3 0.3 C 4.8 km/h
323 27-12-2014 21:05:00 0.3 C 4.45 g/m*3 -1.84 C 6.4 km/h
324 27-12-2014 21:10:00 0.3 C 4.45 g/m*3 -2.42 C 8.1 km/h
325 27-12-2014 21:15:00 0.3 C 4.45 g/m*3 0.3 C 1.6 km/h
Sensor: Nr:Datum:Temp:Abs-Feuchte:Windchill:Wind:
Aussen-T/F 326 27-12-2014 21:20:00 0.3 C 4.45 g/m*3 -2.42 C 8.1 km/h
327 27-12-2014 21:25:00 0.3 C 4.45 g/m*3 0.3 C 4.8 km/h
328 27-12-2014 21:30:00 0.3 C 4.4 g/m*3 -1.84 C 6.4 km/h
329 27-12-2014 21:35:00 0.3 C 4.4 g/m*3 0.3 C 3.2 km/h
330 27-12-2014 21:40:00 0.3 C 4.45 g/m*3 0.3 C 1.6 km/h
331 27-12-2014 21:45:00 0.3 C 4.4 g/m*3 -2.42 C 8.1 km/h
332 27-12-2014 21:50:00 0.3 C 4.4 g/m*3 0.3 C 4.8 km/h
333 27-12-2014 21:55:00 0.3 C 4.4 g/m*3 -2.88 C 9.7 km/h
334 27-12-2014 22:00:00 0.3 C 4.4 g/m*3 -3.28 C 11.3 km/h
335 28-12-2014 05:40:00 -2 C 3.29 g/m*3 -5.62 C 9.7 km/h
336 28-12-2014 05:45:00 -2 C 3.29 g/m*3 -5.62 C 9.7 km/h
337 28-12-2014 05:50:00 -2 C 3.33 g/m*3 -5.62 C 9.7 km/h
338 28-12-2014 05:55:00 -2 C 3.33 g/m*3 -6.43 C 12.9 km/h
339 28-12-2014 06:00:00 -2.1 C 3.31 g/m*3 -6.17 C 11.3 km/h
340 28-12-2014 06:05:00 -2.1 C 3.31 g/m*3 -6.9 C 14.5 km/h
341 28-12-2014 06:10:00 -2.2 C 3.28 g/m*3 -6.68 C 12.9 km/h
342 28-12-2014 06:15:00 -2.2 C 3.28 g/m*3 -5.86 C 9.7 km/h
343 28-12-2014 06:20:00 -2.2 C 3.24 g/m*3 -7.34 C 16.1 km/h
344 28-12-2014 06:25:00 -2.2 C 3.28 g/m*3 -6.29 C 11.3 km/h
345 28-12-2014 06:30:00 -2.2 C 3.28 g/m*3 -6.29 C 11.3 km/h
346 28-12-2014 06:35:00 -2.2 C 3.28 g/m*3 -6.29 C 11.3 km/h
347 28-12-2014 06:40:00 -2.3 C 3.26 g/m*3 -6.8 C 12.9 km/h
348 28-12-2014 06:45:00 -2.3 C 3.26 g/m*3 -7.15 C 14.5 km/h
349 28-12-2014 06:50:00 -2.3 C 3.26 g/m*3 -6.41 C 11.3 km/h
350 28-12-2014 06:55:00 -2.3 C 3.26 g/m*3 -5.98 C 9.7 km/h
Sensor: Nr:Datum:Temp:Abs-Feuchte:Windchill:Wind:
Aussen-T/F 351 28-12-2014 07:00:00 -2.3 C 3.26 g/m*3 -5.98 C 9.7 km/h
352 28-12-2014 07:05:00 -2.3 C 3.3 g/m*3 -6.8 C 12.9 km/h
353 28-12-2014 07:10:00 -2.3 C 3.3 g/m*3 -5.98 C 9.7 km/h
354 28-12-2014 07:15:00 -2.4 C 3.28 g/m*3 -6.53 C 11.3 km/h
355 28-12-2014 07:20:00 -2.4 C 3.28 g/m*3 -4.95 C 6.4 km/h
356 28-12-2014 07:25:00 -2.4 C 3.28 g/m*3 -5.59 C 8.1 km/h
357 28-12-2014 07:30:00 -2.5 C 3.26 g/m*3 -5.71 C 8.1 km/h
358 28-12-2014 07:35:00 -2.5 C 3.3 g/m*3 -7.04 C 12.9 km/h
359 28-12-2014 07:40:00 -2.6 C 3.27 g/m*3 -7.17 C 12.9 km/h
360 28-12-2014 07:45:00 -2.7 C 3.25 g/m*3 -6.9 C 11.3 km/h
361 28-12-2014 07:50:00 -2.8 C 3.23 g/m*3 -7.76 C 14.5 km/h
362 28-12-2014 07:55:00 -2.9 C 3.2 g/m*3 -6.18 C 8.1 km/h
363 28-12-2014 08:00:00 -3 C 3.18 g/m*3 -5.65 C 6.4 km/h
364 28-12-2014 08:05:00 -3 C 3.18 g/m*3 -3 C 4.8 km/h
365 28-12-2014 08:10:00 -3.2 C 3.18 g/m*3 -5.88 C 6.4 km/h
366 28-12-2014 08:15:00 -3.2 C 3.18 g/m*3 -3.2 C 3.2 km/h
367 28-12-2014 08:20:00 -3.3 C 3.15 g/m*3 -7.17 C 9.7 km/h
368 28-12-2014 08:25:00 -3.3 C 3.15 g/m*3 -5.99 C 6.4 km/h
369 28-12-2014 08:30:00 -3.4 C 3.13 g/m*3 -6.77 C 8.1 km/h
370 28-12-2014 08:35:00 -3.4 C 3.13 g/m*3 -3.4 C 4.8 km/h
371 28-12-2014 08:40:00 -3.5 C 3.11 g/m*3 -3.5 C 1.6 km/h
372 28-12-2014 08:45:00 -3.6 C 3.12 g/m*3 -3.6 C 1.6 km/h
373 28-12-2014 08:50:00 -3.7 C 3.1 g/m*3 -3.7 C 1.6 km/h
374 28-12-2014 08:55:00 -3.7 C 3.1 g/m*3 -8.1 C 11.3 km/h
375 28-12-2014 09:00:00 -3.7 C 3.1 g/m*3 -3.7 C 3.2 km/h
Sensor: Nr:Datum:Temp:Abs-Feuchte:Windchill:Wind:
Aussen-T/F 376 28-12-2014 09:05:00 -3.7 C 3.06 g/m*3 -3.7 C 3.2 km/h
377 28-12-2014 09:10:00 -3.7 C 3.1 g/m*3 -3.7 C 4.8 km/h
378 28-12-2014 09:15:00 -3.8 C 3.08 g/m*3 -3.8 C 4.8 km/h
379 28-12-2014 09:20:00 -3.8 C 3.08 g/m*3 -3.8 C 3.2 km/h
380 28-12-2014 09:25:00 -3.9 C 3.06 g/m*3 -6.69 C 6.4 km/h
381 28-12-2014 09:30:00 -3.9 C 3.02 g/m*3 -3.9 C 4.8 km/h
382 28-12-2014 09:35:00 -3.9 C 3.02 g/m*3 -3.9 C 4.8 km/h
383 28-12-2014 09:40:00 -3.8 C 3.01 g/m*3 -6.57 C 6.4 km/h
384 28-12-2014 09:45:00 -3.8 C 3.01 g/m*3 -6.57 C 6.4 km/h
385 28-12-2014 09:50:00 -3.8 C 3.01 g/m*3 -6.57 C 6.4 km/h
386 28-12-2014 09:55:00 -3.7 C 3.03 g/m*3 -7.12 C 8.1 km/h
387 28-12-2014 10:00:00 -3.7 C 2.99 g/m*3 -7.12 C 8.1 km/h
388 28-12-2014 10:05:00 -3.7 C 2.99 g/m*3 -3.7 C 3.2 km/h
389 28-12-2014 10:10:00 -3.7 C 2.99 g/m*3 -3.7 C 1.6 km/h
390 28-12-2014 10:15:00 -3.7 C 2.95 g/m*3 -7.12 C 8.1 km/h
391 28-12-2014 10:20:00 -3.7 C 2.99 g/m*3 -3.7 C 1.6 km/h
392 28-12-2014 10:25:00 -3.7 C 3.06 g/m*3 -3.7 C 0 km/h
393 28-12-2014 10:30:00 -3.8 C 3.12 g/m*3 -3.8 C 3.2 km/h
394 28-12-2014 10:35:00 -3.9 C 3.09 g/m*3 -3.9 C 3.2 km/h
395 28-12-2014 10:40:00 -3.9 C 3.02 g/m*3 -7.35 C 8.1 km/h
396 28-12-2014 10:45:00 -3.8 C 3.08 g/m*3 -3.8 C 4.8 km/h
397 28-12-2014 10:50:00 -3.9 C 3.02 g/m*3 -3.9 C 3.2 km/h
398 28-12-2014 10:55:00 -3.8 C 2.97 g/m*3 -3.8 C 3.2 km/h
399 28-12-2014 11:00:00 -3.8 C 3.08 g/m*3 -3.8 C 4.8 km/h
400 28-12-2014 11:05:00 -3.8 C 3.01 g/m*3 -6.57 C 6.4 km/h
Sensor: Nr:Datum:Temp:Abs-Feuchte:Windchill:Wind:
Aussen-T/F 401 28-12-2014 11:10:00 -3.7 C 2.84 g/m*3 -7.12 C 8.1 km/h
402 28-12-2014 11:15:00 -3.5 C 2.81 g/m*3 -6.22 C 6.4 km/h
403 28-12-2014 11:20:00 -3.4 C 2.83 g/m*3 -7.74 C 11.3 km/h
404 28-12-2014 11:25:00 -3.3 C 2.85 g/m*3 -8.02 C 12.9 km/h
405 28-12-2014 11:30:00 -3.2 C 2.79 g/m*3 -7.5 C 11.3 km/h
406 28-12-2014 11:35:00 -3.1 C 2.81 g/m*3 -7.78 C 12.9 km/h
407 28-12-2014 11:40:00 -3.1 C 2.77 g/m*3 -6.93 C 9.7 km/h
408 28-12-2014 11:45:00 -3 C 2.75 g/m*3 -6.3 C 8.1 km/h
409 28-12-2014 11:50:00 -2.9 C 2.81 g/m*3 -6.18 C 8.1 km/h
410 28-12-2014 11:55:00 -2.9 C 2.77 g/m*3 -7.89 C 14.5 km/h
411 28-12-2014 12:00:00 -2.9 C 2.77 g/m*3 -6.18 C 8.1 km/h
412 28-12-2014 12:05:00 -2.8 C 2.79 g/m*3 -6.57 C 9.7 km/h
413 28-12-2014 12:10:00 -2.8 C 2.79 g/m*3 -7.41 C 12.9 km/h
414 28-12-2014 12:15:00 -2.7 C 2.77 g/m*3 -6.45 C 9.7 km/h
415 28-12-2014 12:20:00 -2.6 C 2.67 g/m*3 -6.77 C 11.3 km/h
416 28-12-2014 12:25:00 -2.5 C 2.65 g/m*3 -6.65 C 11.3 km/h
417 28-12-2014 12:30:00 -2.4 C 2.7 g/m*3 -5.59 C 8.1 km/h
418 28-12-2014 12:35:00 -2.3 C 2.64 g/m*3 -6.41 C 11.3 km/h
419 28-12-2014 12:40:00 -2.3 C 2.6 g/m*3 -5.98 C 9.7 km/h
420 28-12-2014 12:45:00 -2.2 C 2.62 g/m*3 -6.29 C 11.3 km/h
421 28-12-2014 12:50:00 -2.2 C 2.66 g/m*3 -4.72 C 6.4 km/h
422 28-12-2014 12:55:00 -2.2 C 2.7 g/m*3 -5.86 C 9.7 km/h
423 28-12-2014 13:00:00 -2.1 C 2.72 g/m*3 -5.24 C 8.1 km/h
424 28-12-2014 13:05:00 -2.1 C 2.76 g/m*3 -5.74 C 9.7 km/h
425 28-12-2014 13:10:00 -2 C 2.78 g/m*3 -6.43 C 12.9 km/h
Sensor: Nr:Datum:Temp:Abs-Feuchte:Windchill:Wind:
Aussen-T/F 426 28-12-2014 13:15:00 -2 C 2.78 g/m*3 -5.62 C 9.7 km/h
427 28-12-2014 13:20:00 -1.9 C 2.8 g/m*3 -5.5 C 9.7 km/h
428 28-12-2014 13:25:00 -1.9 C 2.76 g/m*3 -5 C 8.1 km/h
429 28-12-2014 13:30:00 -1.9 C 2.84 g/m*3 -4.38 C 6.4 km/h
430 28-12-2014 13:35:00 -1.9 C 2.8 g/m*3 -5.5 C 9.7 km/h
431 28-12-2014 13:40:00 -1.9 C 2.89 g/m*3 -5 C 8.1 km/h
432 28-12-2014 13:45:00 -1.9 C 2.84 g/m*3 -5 C 8.1 km/h
433 28-12-2014 13:50:00 -1.9 C 2.84 g/m*3 -4.38 C 6.4 km/h
434 28-12-2014 13:55:00 -1.8 C 2.82 g/m*3 -5.38 C 9.7 km/h
435 28-12-2014 14:00:00 -1.7 C 2.84 g/m*3 -4.15 C 6.4 km/h
436 28-12-2014 14:05:00 -1.7 C 2.84 g/m*3 -1.7 C 4.8 km/h
437 28-12-2014 14:10:00 -1.6 C 2.86 g/m*3 -1.6 C 4.8 km/h
438 28-12-2014 14:15:00 -1.6 C 2.86 g/m*3 -4.03 C 6.4 km/h
439 28-12-2014 14:20:00 -1.6 C 2.9 g/m*3 -4.03 C 6.4 km/h
440 28-12-2014 14:25:00 -1.5 C 2.88 g/m*3 -4.53 C 8.1 km/h
441 28-12-2014 14:30:00 -1.5 C 2.92 g/m*3 -3.91 C 6.4 km/h
442 28-12-2014 14:35:00 -1.5 C 2.92 g/m*3 -1.5 C 1.6 km/h
443 28-12-2014 14:40:00 -1.5 C 3.14 g/m*3 -1.5 C 4.8 km/h
444 28-12-2014 14:45:00 -1.7 C 3.27 g/m*3 -1.7 C 1.6 km/h
445 28-12-2014 14:50:00 -1.8 C 3.08 g/m*3 -1.8 C 4.8 km/h
446 28-12-2014 14:55:00 -1.7 C 2.97 g/m*3 -5.69 C 11.3 km/h
447 28-12-2014 15:00:00 -1.6 C 3.03 g/m*3 -4.65 C 8.1 km/h
448 28-12-2014 15:05:00 -1.5 C 3.06 g/m*3 -4.53 C 8.1 km/h
449 28-12-2014 15:10:00 -1.4 C 3.08 g/m*3 -4.42 C 8.1 km/h
450 28-12-2014 15:15:00 -1.4 C 3.03 g/m*3 -5.33 C 11.3 km/h
Sensor: Nr:Datum:Temp:Abs-Feuchte:Windchill:Wind:
Aussen-T/F 451 28-12-2014 15:20:00 -1.3 C 3.01 g/m*3 -4.78 C 9.7 km/h
452 28-12-2014 15:25:00 -1.3 C 3.05 g/m*3 -5.58 C 12.9 km/h
453 28-12-2014 15:30:00 -1.2 C 3.08 g/m*3 -3.57 C 6.4 km/h
454 28-12-2014 15:35:00 -1.2 C 3.03 g/m*3 -5.09 C 11.3 km/h
455 28-12-2014 15:40:00 -1.2 C 3.03 g/m*3 -5.09 C 11.3 km/h
456 28-12-2014 15:45:00 -1.2 C 2.99 g/m*3 -5.46 C 12.9 km/h
457 28-12-2014 15:50:00 -1.2 C 2.99 g/m*3 -5.46 C 12.9 km/h
458 28-12-2014 15:55:00 -1.2 C 2.94 g/m*3 -5.09 C 11.3 km/h
459 28-12-2014 16:00:00 -1.3 C 2.97 g/m*3 -3.68 C 6.4 km/h
460 28-12-2014 16:05:00 -1.3 C 3.01 g/m*3 -1.3 C 4.8 km/h
461 28-12-2014 16:10:00 -1.4 C 3.08 g/m*3 -1.4 C 3.2 km/h
462 28-12-2014 16:15:00 -1.5 C 3.01 g/m*3 -4.53 C 8.1 km/h
463 28-12-2014 16:20:00 -1.6 C 3.08 g/m*3 -1.6 C 4.8 km/h
464 28-12-2014 16:25:00 -1.7 C 3.01 g/m*3 -4.15 C 6.4 km/h
465 28-12-2014 16:30:00 -1.7 C 3.06 g/m*3 -1.7 C 3.2 km/h
466 28-12-2014 16:35:00 -1.7 C 3.06 g/m*3 -4.15 C 6.4 km/h
467 28-12-2014 16:40:00 -1.8 C 3.12 g/m*3 -1.8 C 3.2 km/h
468 28-12-2014 16:45:00 -1.8 C 3.16 g/m*3 -1.8 C 1.6 km/h
469 28-12-2014 16:50:00 -1.9 C 3.1 g/m*3 -1.9 C 3.2 km/h
470 28-12-2014 16:55:00 -2 C 3.16 g/m*3 -2 C 3.2 km/h
471 28-12-2014 17:00:00 -2.2 C 3.24 g/m*3 -2.2 C 3.2 km/h
472 28-12-2014 17:05:00 -2.4 C 3.28 g/m*3 -2.4 C 1.6 km/h
473 28-12-2014 17:10:00 -2.6 C 3.27 g/m*3 -2.6 C 3.2 km/h
474 28-12-2014 17:15:00 -2.7 C 3.25 g/m*3 -2.7 C 3.2 km/h
475 28-12-2014 17:20:00 -2.8 C 3.27 g/m*3 -2.8 C 1.6 km/h
Sensor: Nr:Datum:Temp:Abs-Feuchte:Windchill:Wind:
Aussen-T/F 476 28-12-2014 17:25:00 -2.8 C 3.27 g/m*3 -2.8 C 0 km/h
477 28-12-2014 17:30:00 -2.9 C 3.28 g/m*3 -2.9 C 0 km/h
478 28-12-2014 17:35:00 -2.9 C 3.28 g/m*3 -2.9 C 0 km/h
479 28-12-2014 17:40:00 -3.1 C 3.28 g/m*3 -3.1 C 0 km/h
480 28-12-2014 17:45:00 -3.1 C 3.32 g/m*3 -3.1 C 0 km/h
481 28-12-2014 17:50:00 -3.2 C 3.29 g/m*3 -3.2 C 0 km/h
482 28-12-2014 17:55:00 -3.3 C 3.27 g/m*3 -3.3 C 0 km/h
483 28-12-2014 18:00:00 -3.4 C 3.28 g/m*3 -3.4 C 4.8 km/h
484 28-12-2014 18:05:00 -3.4 C 3.32 g/m*3 -6.11 C 6.4 km/h
485 28-12-2014 18:10:00 -3.4 C 3.32 g/m*3 -6.11 C 6.4 km/h
486 28-12-2014 18:15:00 -3.4 C 3.32 g/m*3 -6.11 C 6.4 km/h
487 28-12-2014 18:20:00 -3.4 C 3.28 g/m*3 -3.4 C 4.8 km/h
488 28-12-2014 18:25:00 -3.4 C 3.28 g/m*3 -6.11 C 6.4 km/h
489 28-12-2014 18:30:00 -3.3 C 3.31 g/m*3 -3.3 C 4.8 km/h
490 28-12-2014 18:35:00 -3.3 C 3.31 g/m*3 -5.99 C 6.4 km/h
491 28-12-2014 18:40:00 -3.2 C 3.29 g/m*3 -7.05 C 9.7 km/h
492 28-12-2014 18:45:00 -3.1 C 3.28 g/m*3 -3.1 C 3.2 km/h
493 28-12-2014 18:50:00 -3.1 C 3.24 g/m*3 -3.1 C 4.8 km/h
494 28-12-2014 18:55:00 -3 C 3.26 g/m*3 -3 C 1.6 km/h
495 28-12-2014 19:00:00 -3.2 C 3.25 g/m*3 -3.2 C 3.2 km/h
496 28-12-2014 19:05:00 -3.3 C 3.27 g/m*3 -3.3 C 4.8 km/h
497 28-12-2014 19:10:00 -3.4 C 3.25 g/m*3 -3.4 C 3.2 km/h
498 28-12-2014 19:15:00 -3.5 C 3.26 g/m*3 -3.5 C 4.8 km/h
499 28-12-2014 19:20:00 -3.6 C 3.27 g/m*3 -3.6 C 1.6 km/h
500 28-12-2014 19:25:00 -3.7 C 3.25 g/m*3 -3.7 C 1.6 km/h
Sensor: Nr:Datum:Temp:Abs-Feuchte:Windchill:Wind:
Aussen-T/F 501 28-12-2014 19:30:00 -3.8 C 3.23 g/m*3 -3.8 C 1.6 km/h
502 28-12-2014 19:35:00 -3.9 C 3.24 g/m*3 -3.9 C 4.8 km/h
503 28-12-2014 19:40:00 -3.9 C 3.24 g/m*3 -3.9 C 1.6 km/h
504 28-12-2014 19:45:00 -3.9 C 3.24 g/m*3 -3.9 C 3.2 km/h
505 28-12-2014 19:50:00 -3.9 C 3.28 g/m*3 -3.9 C 4.8 km/h
506 28-12-2014 19:55:00 -3.9 C 3.28 g/m*3 -6.69 C 6.4 km/h
507 28-12-2014 20:00:00 -4.1 C 3.23 g/m*3 -4.1 C 3.2 km/h
508 28-12-2014 20:05:00 -4.2 C 3.21 g/m*3 -4.2 C 3.2 km/h
509 28-12-2014 20:10:00 -4.2 C 3.21 g/m*3 -4.2 C 4.8 km/h
510 28-12-2014 20:15:00 -4.2 C 3.25 g/m*3 -4.2 C 4.8 km/h
511 28-12-2014 20:20:00 -4.3 C 3.22 g/m*3 -4.3 C 4.8 km/h
512 28-12-2014 20:25:00 -4.2 C 3.25 g/m*3 -4.2 C 1.6 km/h
513 28-12-2014 20:30:00 -4.2 C 3.25 g/m*3 -4.2 C 4.8 km/h
514 28-12-2014 20:35:00 -4.3 C 3.22 g/m*3 -4.3 C 4.8 km/h
515 28-12-2014 20:40:00 -4.3 C 3.22 g/m*3 -4.3 C 4.8 km/h
516 28-12-2014 20:45:00 -4.3 C 3.26 g/m*3 -4.3 C 4.8 km/h
517 28-12-2014 20:50:00 -4.3 C 3.26 g/m*3 -7.15 C 6.4 km/h
518 28-12-2014 20:55:00 -4.3 C 3.26 g/m*3 -4.3 C 4.8 km/h
519 28-12-2014 21:00:00 -4.3 C 3.26 g/m*3 -4.3 C 3.2 km/h
520 28-12-2014 21:05:00 -4.3 C 3.26 g/m*3 -4.3 C 4.8 km/h
521 28-12-2014 21:10:00 -4.4 C 3.24 g/m*3 -4.4 C 4.8 km/h
522 28-12-2014 21:15:00 -4.4 C 3.24 g/m*3 -4.4 C 4.8 km/h
523 28-12-2014 21:20:00 -4.5 C 3.21 g/m*3 -4.5 C 4.8 km/h
524 28-12-2014 21:25:00 -4.5 C 3.21 g/m*3 -4.5 C 4.8 km/h
525 28-12-2014 21:30:00 -4.5 C 3.21 g/m*3 -4.5 C 4.8 km/h
Sensor: Nr:Datum:Temp:Abs-Feuchte:Windchill:Wind:
Aussen-T/F 526 28-12-2014 21:35:00 -4.5 C 3.21 g/m*3 -4.5 C 1.6 km/h
527 28-12-2014 21:40:00 -4.6 C 3.19 g/m*3 -4.6 C 3.2 km/h
528 28-12-2014 21:45:00 -4.6 C 3.19 g/m*3 -4.6 C 3.2 km/h
529 28-12-2014 21:50:00 -4.7 C 3.17 g/m*3 -4.7 C 4.8 km/h
530 28-12-2014 21:55:00 -4.8 C 3.14 g/m*3 -4.8 C 3.2 km/h
531 28-12-2014 22:00:00 -4.8 C 3.14 g/m*3 -4.8 C 3.2 km/h
532 28-12-2014 22:05:00 -4.8 C 3.14 g/m*3 -4.8 C 3.2 km/h
533 28-12-2014 22:10:00 -4.8 C 3.14 g/m*3 -4.8 C 1.6 km/h
534 28-12-2014 22:15:00 -4.9 C 3.12 g/m*3 -4.9 C 3.2 km/h
535 28-12-2014 22:20:00 -4.9 C 3.12 g/m*3 -4.9 C 0 km/h
536 28-12-2014 22:25:00 -5.1 C 3.08 g/m*3 -5.1 C 1.6 km/h
537 28-12-2014 22:30:00 -5.2 C 3.05 g/m*3 -5.2 C 3.2 km/h
538 28-12-2014 22:35:00 -5.2 C 3.05 g/m*3 -5.2 C 0 km/h
539 28-12-2014 22:40:00 -5.3 C 3.03 g/m*3 -5.3 C 0 km/h
540 28-12-2014 22:45:00 -5.3 C 3.03 g/m*3 -5.3 C 0 km/h
541 28-12-2014 22:50:00 -5.3 C 3.07 g/m*3 -5.3 C 1.6 km/h
542 28-12-2014 22:55:00 -5.2 C 3.09 g/m*3 -5.2 C 1.6 km/h
543 28-12-2014 23:00:00 -5.1 C 3.11 g/m*3 -5.1 C 1.6 km/h
544 28-12-2014 23:05:00 -4.8 C 3.21 g/m*3 -4.8 C 1.6 km/h
545 28-12-2014 23:10:00 -4.7 C 3.24 g/m*3 -4.7 C 3.2 km/h
546 28-12-2014 23:15:00 -4.6 C 3.22 g/m*3 -4.6 C 1.6 km/h
547 28-12-2014 23:20:00 -4.6 C 3.22 g/m*3 -4.6 C 1.6 km/h
548 28-12-2014 23:25:00 -4.5 C 3.25 g/m*3 -4.5 C 1.6 km/h
549 28-12-2014 23:30:00 -4.4 C 3.27 g/m*3 -4.4 C 1.6 km/h
550 28-12-2014 23:35:00 -4.4 C 3.27 g/m*3 -4.4 C 3.2 km/h
Sensor: Nr:Datum:Temp:Abs-Feuchte:Windchill:Wind:
Aussen-T/F 551 28-12-2014 23:40:00 -4.4 C 3.27 g/m*3 -4.4 C 1.6 km/h
552 28-12-2014 23:45:00 -4.3 C 3.29 g/m*3 -4.3 C 4.8 km/h
553 28-12-2014 23:50:00 -4.3 C 3.26 g/m*3 -4.3 C 0 km/h
554 28-12-2014 23:55:00 -4.3 C 3.26 g/m*3 -4.3 C 3.2 km/h
555 29-12-2014 00:00:00 -4.2 C 3.28 g/m*3 -4.2 C 3.2 km/h
556 29-12-2014 00:05:00 -4.2 C 3.28 g/m*3 -7.03 C 6.4 km/h
557 29-12-2014 00:10:00 -4.1 C 3.31 g/m*3 -6.92 C 6.4 km/h
558 29-12-2014 00:15:00 -4.1 C 3.27 g/m*3 -4.1 C 4.8 km/h
559 29-12-2014 00:20:00 -4 C 3.33 g/m*3 -4 C 3.2 km/h
560 29-12-2014 00:25:00 -3.9 C 3.32 g/m*3 -3.9 C 1.6 km/h
561 29-12-2014 00:30:00 -3.9 C 3.32 g/m*3 -3.9 C 4.8 km/h
562 29-12-2014 00:35:00 -3.8 C 3.34 g/m*3 -3.8 C 1.6 km/h
563 29-12-2014 00:40:00 -3.8 C 3.34 g/m*3 -3.8 C 3.2 km/h
564 29-12-2014 00:45:00 -3.7 C 3.36 g/m*3 -3.7 C 1.6 km/h
565 29-12-2014 00:50:00 -3.6 C 3.35 g/m*3 -3.6 C 1.6 km/h
566 29-12-2014 00:55:00 -3.6 C 3.35 g/m*3 -6.34 C 6.4 km/h
567 29-12-2014 01:00:00 -3.6 C 3.35 g/m*3 -3.6 C 4.8 km/h
568 29-12-2014 01:05:00 -3.5 C 3.37 g/m*3 -6.88 C 8.1 km/h
569 29-12-2014 01:10:00 -3.6 C 3.35 g/m*3 -3.6 C 4.8 km/h
570 29-12-2014 01:15:00 -3.6 C 3.35 g/m*3 -7.53 C 9.7 km/h
571 29-12-2014 01:20:00 -3.5 C 3.34 g/m*3 -7.41 C 9.7 km/h
572 29-12-2014 01:25:00 -3.4 C 3.36 g/m*3 -7.29 C 9.7 km/h
573 29-12-2014 01:30:00 -3.4 C 3.36 g/m*3 -3.4 C 3.2 km/h
574 29-12-2014 01:35:00 -3.5 C 3.34 g/m*3 -3.5 C 1.6 km/h
575 29-12-2014 01:40:00 -3.6 C 3.31 g/m*3 -3.6 C 0 km/h
Sensor: Nr:Datum:Temp:Abs-Feuchte:Windchill:Wind:
Aussen-T/F 576 29-12-2014 01:45:00 -3.7 C 3.29 g/m*3 -3.7 C 0 km/h
577 29-12-2014 01:50:00 -3.9 C 3.28 g/m*3 -7.35 C 8.1 km/h
578 29-12-2014 01:55:00 -4 C 3.26 g/m*3 -7.47 C 8.1 km/h
579 29-12-2014 02:00:00 -4.1 C 3.23 g/m*3 -8.12 C 9.7 km/h
580 29-12-2014 02:05:00 -4.1 C 3.23 g/m*3 -4.1 C 4.8 km/h
581 29-12-2014 02:10:00 -4.1 C 3.23 g/m*3 -4.1 C 4.8 km/h
582 29-12-2014 02:15:00 -4.1 C 3.23 g/m*3 -4.1 C 4.8 km/h
583 29-12-2014 02:20:00 -4.2 C 3.21 g/m*3 -7.03 C 6.4 km/h
584 29-12-2014 02:25:00 -4.3 C 3.19 g/m*3 -4.3 C 4.8 km/h
585 29-12-2014 02:30:00 -4.3 C 3.19 g/m*3 -4.3 C 0 km/h
586 29-12-2014 02:35:00 -4.4 C 3.2 g/m*3 -4.4 C 4.8 km/h
587 29-12-2014 02:40:00 -4.4 C 3.24 g/m*3 -4.4 C 3.2 km/h
588 29-12-2014 02:45:00 -4.2 C 3.28 g/m*3 -7.71 C 8.1 km/h
589 29-12-2014 02:50:00 -4.1 C 3.27 g/m*3 -4.1 C 4.8 km/h
590 29-12-2014 02:55:00 -3.9 C 3.32 g/m*3 -6.69 C 6.4 km/h
591 29-12-2014 03:00:00 -3.8 C 3.34 g/m*3 -7.24 C 8.1 km/h
592 29-12-2014 03:05:00 -3.7 C 3.33 g/m*3 -7.12 C 8.1 km/h
593 29-12-2014 03:10:00 -3.6 C 3.35 g/m*3 -7.98 C 11.3 km/h
594 29-12-2014 03:15:00 -3.6 C 3.35 g/m*3 -7.53 C 9.7 km/h
595 29-12-2014 03:20:00 -3.4 C 3.36 g/m*3 -8.14 C 12.9 km/h
596 29-12-2014 03:25:00 -3.3 C 3.38 g/m*3 -8.02 C 12.9 km/h
597 29-12-2014 03:30:00 -3.2 C 3.41 g/m*3 -7.9 C 12.9 km/h
598 29-12-2014 03:35:00 -3.2 C 3.41 g/m*3 -7.9 C 12.9 km/h
599 29-12-2014 03:40:00 -3.2 C 3.37 g/m*3 -8.26 C 14.5 km/h
600 29-12-2014 03:45:00 -3.2 C 3.37 g/m*3 -8.26 C 14.5 km/h
Sensor: Nr:Datum:Temp:Abs-Feuchte:Windchill:Wind:
Aussen-T/F 601 29-12-2014 03:50:00 -3.2 C 3.37 g/m*3 -7.5 C 11.3 km/h
602 29-12-2014 03:55:00 -3.1 C 3.39 g/m*3 -8.46 C 16.1 km/h
603 29-12-2014 04:00:00 -3.1 C 3.39 g/m*3 -6.41 C 8.1 km/h
604 29-12-2014 04:05:00 -3.1 C 3.35 g/m*3 -8.13 C 14.5 km/h
605 29-12-2014 04:10:00 -2.9 C 3.4 g/m*3 -7.14 C 11.3 km/h
606 29-12-2014 04:15:00 -2.8 C 3.43 g/m*3 -7.41 C 12.9 km/h
607 29-12-2014 04:20:00 -2.8 C 3.43 g/m*3 -7.76 C 14.5 km/h
608 29-12-2014 04:25:00 -2.7 C 3.45 g/m*3 -7.29 C 12.9 km/h
609 29-12-2014 04:30:00 -2.7 C 3.41 g/m*3 -7.29 C 12.9 km/h
610 29-12-2014 04:35:00 -2.7 C 3.45 g/m*3 -7.96 C 16.1 km/h
611 29-12-2014 04:40:00 -2.7 C 3.53 g/m*3 -7.64 C 14.5 km/h
612 29-12-2014 04:45:00 -2.8 C 3.55 g/m*3 -7.41 C 12.9 km/h
613 29-12-2014 04:50:00 -2.9 C 3.6 g/m*3 -8.21 C 16.1 km/h
614 29-12-2014 04:55:00 -3 C 3.61 g/m*3 -7.65 C 12.9 km/h
615 29-12-2014 05:00:00 -3.1 C 3.63 g/m*3 -7.38 C 11.3 km/h
616 29-12-2014 05:05:00 -3.1 C 3.63 g/m*3 -8.13 C 14.5 km/h
617 29-12-2014 05:10:00 -3.1 C 3.63 g/m*3 -8.13 C 14.5 km/h
618 29-12-2014 05:15:00 -3.1 C 3.63 g/m*3 -7.78 C 12.9 km/h
619 29-12-2014 05:20:00 -3.1 C 3.63 g/m*3 -6.41 C 8.1 km/h
620 29-12-2014 05:25:00 -3 C 3.65 g/m*3 -6.81 C 9.7 km/h
621 29-12-2014 05:30:00 -2.8 C 3.71 g/m*3 -7.76 C 14.5 km/h
622 29-12-2014 05:35:00 -2.8 C 3.71 g/m*3 -7.02 C 11.3 km/h
623 29-12-2014 05:40:00 -2.8 C 3.71 g/m*3 -7.41 C 12.9 km/h
624 29-12-2014 05:45:00 -2.8 C 3.71 g/m*3 -7.41 C 12.9 km/h
625 29-12-2014 05:50:00 -2.9 C 3.72 g/m*3 -6.69 C 9.7 km/h
Sensor: Nr:Datum:Temp:Abs-Feuchte:Windchill:Wind:
Aussen-T/F 626 29-12-2014 05:55:00 -2.8 C 3.75 g/m*3 -7.76 C 14.5 km/h
627 29-12-2014 06:00:00 -2.8 C 3.75 g/m*3 -6.06 C 8.1 km/h
628 29-12-2014 06:05:00 -2.8 C 3.75 g/m*3 -7.02 C 11.3 km/h
629 29-12-2014 06:10:00 -2.8 C 3.75 g/m*3 -7.02 C 11.3 km/h
630 29-12-2014 06:15:00 -2.7 C 3.77 g/m*3 -6.9 C 11.3 km/h
631 29-12-2014 06:20:00 -2.8 C 3.75 g/m*3 -6.57 C 9.7 km/h
632 29-12-2014 06:25:00 -2.8 C 3.75 g/m*3 -6.57 C 9.7 km/h
633 29-12-2014 06:30:00 -2.7 C 3.77 g/m*3 -6.9 C 11.3 km/h
634 29-12-2014 06:35:00 -2.6 C 3.8 g/m*3 -5.83 C 8.1 km/h
635 29-12-2014 06:40:00 -2.5 C 3.83 g/m*3 -5.71 C 8.1 km/h
636 29-12-2014 06:45:00 -2.4 C 3.85 g/m*3 -6.1 C 9.7 km/h
637 29-12-2014 06:50:00 -2.3 C 3.88 g/m*3 -7.15 C 14.5 km/h
638 29-12-2014 06:55:00 -2.3 C 3.88 g/m*3 -5.47 C 8.1 km/h
639 29-12-2014 07:00:00 -2.2 C 3.91 g/m*3 -4.72 C 6.4 km/h
640 29-12-2014 07:05:00 -2.2 C 3.91 g/m*3 -5.86 C 9.7 km/h
641 29-12-2014 07:10:00 -2.1 C 3.93 g/m*3 -2.1 C 4.8 km/h
642 29-12-2014 07:15:00 -2 C 3.96 g/m*3 -5.12 C 8.1 km/h
643 29-12-2014 07:20:00 -1.9 C 4.03 g/m*3 -5.5 C 9.7 km/h
644 29-12-2014 07:25:00 -1.9 C 4.03 g/m*3 -4.38 C 6.4 km/h
645 29-12-2014 07:30:00 -1.8 C 4.06 g/m*3 -1.8 C 4.8 km/h
646 29-12-2014 07:35:00 -1.8 C 4.06 g/m*3 -1.8 C 3.2 km/h
647 29-12-2014 07:40:00 -1.8 C 4.06 g/m*3 -1.8 C 0 km/h
648 29-12-2014 07:45:00 -1.8 C 4.06 g/m*3 -1.8 C 0 km/h
649 29-12-2014 07:50:00 -1.8 C 4.06 g/m*3 -1.8 C 0 km/h
650 29-12-2014 07:55:00 -1.8 C 4.06 g/m*3 -1.8 C 0 km/h
Sensor: Nr:Datum:Temp:Abs-Feuchte:Windchill:Wind:
Aussen-T/F 651 29-12-2014 08:00:00 -1.7 C 4.09 g/m*3 -1.7 C 3.2 km/h
652 29-12-2014 08:05:00 -1.7 C 4.09 g/m*3 -1.7 C 4.8 km/h
653 29-12-2014 08:10:00 -1.6 C 4.16 g/m*3 -1.6 C 3.2 km/h
654 29-12-2014 08:15:00 -1.6 C 4.16 g/m*3 -1.6 C 1.6 km/h
655 29-12-2014 08:20:00 -1.6 C 4.16 g/m*3 -1.6 C 1.6 km/h
656 29-12-2014 08:25:00 -1.5 C 4.19 g/m*3 -1.5 C 3.2 km/h
657 29-12-2014 08:30:00 -1.5 C 4.19 g/m*3 -1.5 C 3.2 km/h
658 29-12-2014 08:35:00 -1.4 C 4.18 g/m*3 -1.4 C 1.6 km/h
659 29-12-2014 08:40:00 -1.4 C 4.18 g/m*3 -1.4 C 1.6 km/h
660 29-12-2014 08:45:00 -1.4 C 4.22 g/m*3 -1.4 C 1.6 km/h
661 29-12-2014 08:50:00 -1.3 C 4.25 g/m*3 -1.3 C 1.6 km/h
662 29-12-2014 08:55:00 -1.3 C 4.25 g/m*3 -1.3 C 0 km/h
663 29-12-2014 09:00:00 -1.3 C 4.25 g/m*3 -1.3 C 0 km/h
664 29-12-2014 09:05:00 -1.3 C 4.25 g/m*3 -1.3 C 3.2 km/h
665 29-12-2014 09:10:00 -1.3 C 4.21 g/m*3 -1.3 C 3.2 km/h
666 29-12-2014 09:15:00 -1.4 C 4.18 g/m*3 -3.8 C 6.4 km/h
667 29-12-2014 09:20:00 -1.4 C 4.18 g/m*3 -1.4 C 3.2 km/h
668 29-12-2014 09:25:00 -1.3 C 4.21 g/m*3 -1.3 C 1.6 km/h
669 29-12-2014 09:30:00 -1.3 C 4.21 g/m*3 -1.3 C 4.8 km/h
670 29-12-2014 09:35:00 -1.3 C 4.25 g/m*3 -1.3 C 4.8 km/h
671 29-12-2014 09:40:00 -1.3 C 4.25 g/m*3 -1.3 C 1.6 km/h
672 29-12-2014 09:45:00 -1.3 C 4.25 g/m*3 -1.3 C 3.2 km/h
673 29-12-2014 09:50:00 -1.2 C 4.28 g/m*3 -1.2 C 1.6 km/h
674 29-12-2014 09:55:00 -1.2 C 4.28 g/m*3 -1.2 C 0 km/h
675 29-12-2014 10:00:00 -1.1 C 4.31 g/m*3 -1.1 C 3.2 km/h
Sensor: Nr:Datum:Temp:Abs-Feuchte:Windchill:Wind:
Aussen-T/F 676 29-12-2014 10:05:00 -0.9 C 4.37 g/m*3 -0.9 C 3.2 km/h
677 29-12-2014 10:10:00 -0.9 C 4.37 g/m*3 -0.9 C 1.6 km/h
678 29-12-2014 10:15:00 -0.8 C 4.4 g/m*3 -0.8 C 3.2 km/h
679 29-12-2014 10:20:00 -0.8 C 4.4 g/m*3 -0.8 C 4.8 km/h
680 29-12-2014 10:25:00 -0.7 C 4.43 g/m*3 -0.7 C 0 km/h
681 29-12-2014 10:30:00 -0.6 C 4.46 g/m*3 -2.88 C 6.4 km/h
682 29-12-2014 10:35:00 -0.5 C 4.49 g/m*3 -2.76 C 6.4 km/h
683 29-12-2014 10:40:00 -0.5 C 4.45 g/m*3 -0.5 C 3.2 km/h
684 29-12-2014 10:45:00 -0.4 C 4.48 g/m*3 -0.4 C 4.8 km/h
685 29-12-2014 10:50:00 -0.4 C 4.48 g/m*3 -0.4 C 4.8 km/h
686 29-12-2014 10:55:00 -0.3 C 4.51 g/m*3 -0.3 C 3.2 km/h
687 29-12-2014 11:00:00 -0.3 C 4.51 g/m*3 -0.3 C 4.8 km/h
688 29-12-2014 11:05:00 -0.3 C 4.51 g/m*3 -2.53 C 6.4 km/h
689 29-12-2014 11:10:00 -0.3 C 4.51 g/m*3 -0.3 C 3.2 km/h
690 29-12-2014 11:15:00 -0.2 C 4.54 g/m*3 -0.2 C 3.2 km/h
691 29-12-2014 11:20:00 -0.1 C 4.62 g/m*3 -0.1 C 3.2 km/h
692 29-12-2014 11:25:00 0.1 C 4.68 g/m*3 0.1 C 4.8 km/h
693 29-12-2014 11:30:00 0.4 C 4.78 g/m*3 -1.72 C 6.4 km/h
694 29-12-2014 11:35:00 0.6 C 4.85 g/m*3 0.6 C 3.2 km/h
695 29-12-2014 11:40:00 0.7 C 4.88 g/m*3 0.7 C 3.2 km/h
696 29-12-2014 11:45:00 0.8 C 4.91 g/m*3 0.8 C 3.2 km/h
697 29-12-2014 11:50:00 0.9 C 4.95 g/m*3 -1.14 C 6.4 km/h
698 29-12-2014 11:55:00 1.2 C 5.05 g/m*3 1.2 C 4.8 km/h
699 29-12-2014 12:00:00 1.2 C 5.05 g/m*3 -1.8 C 9.7 km/h
700 29-12-2014 12:05:00 1.7 C 5.23 g/m*3 -0.22 C 6.4 km/h
Sensor: Nr:Datum:Temp:Abs-Feuchte:Windchill:Wind:
Aussen-T/F 701 29-12-2014 12:10:00 1.8 C 5.26 g/m*3 -0.1 C 6.4 km/h
702 29-12-2014 12:15:00 1.9 C 5.3 g/m*3 -0.54 C 8.1 km/h
703 29-12-2014 12:20:00 1.9 C 5.3 g/m*3 1.9 C 3.2 km/h
704 29-12-2014 13:15:00 2.7 C 5.42 g/m*3 0.4 C 8.1 km/h
705 29-12-2014 13:20:00 2.7 C 5.42 g/m*3 0.4 C 8.1 km/h
706 29-12-2014 13:25:00 2.7 C 5.42 g/m*3 -0.38 C 11.3 km/h
707 29-12-2014 13:30:00 2.7 C 5.42 g/m*3 -0.02 C 9.7 km/h
708 29-12-2014 13:35:00 2.8 C 5.46 g/m*3 0.52 C 8.1 km/h
709 29-12-2014 13:40:00 2.8 C 5.46 g/m*3 0.52 C 8.1 km/h
710 29-12-2014 13:45:00 2.8 C 5.46 g/m*3 0.52 C 8.1 km/h
711 29-12-2014 13:50:00 2.8 C 5.46 g/m*3 0.1 C 9.7 km/h
712 29-12-2014 13:55:00 2.8 C 5.46 g/m*3 -0.59 C 12.9 km/h
713 29-12-2014 14:00:00 2.8 C 5.46 g/m*3 1.05 C 6.4 km/h
714 29-12-2014 14:40:00 2.9 C 5.43 g/m*3 2.9 C 3.2 km/h
715 29-12-2014 14:45:00 3 C 5.47 g/m*3 3 C 3.2 km/h
716 29-12-2014 14:50:00 3 C 5.41 g/m*3 3 C 4.8 km/h
717 29-12-2014 14:55:00 2.9 C 5.37 g/m*3 0.22 C 9.7 km/h
718 29-12-2014 15:00:00 2.9 C 5.37 g/m*3 2.9 C 4.8 km/h
719 29-12-2014 15:05:00 2.9 C 5.37 g/m*3 2.9 C 3.2 km/h
720 29-12-2014 15:25:00 2.9 C 5.26 g/m*3 0.22 C 9.7 km/h
721 29-12-2014 15:30:00 2.9 C 5.26 g/m*3 0.22 C 9.7 km/h
722 29-12-2014 15:35:00 2.9 C 5.26 g/m*3 2.9 C 4.8 km/h
723 29-12-2014 15:40:00 2.8 C 5.22 g/m*3 -0.59 C 12.9 km/h
724 29-12-2014 15:45:00 2.8 C 5.22 g/m*3 -0.26 C 11.3 km/h
725 29-12-2014 15:50:00 2.8 C 5.22 g/m*3 -0.59 C 12.9 km/h
Sensor: Nr:Datum:Temp:Abs-Feuchte:Windchill:Wind:
Aussen-T/F 726 29-12-2014 15:55:00 2.8 C 5.22 g/m*3 -0.59 C 12.9 km/h
727 29-12-2014 16:00:00 2.8 C 5.22 g/m*3 -0.26 C 11.3 km/h
728 29-12-2014 16:05:00 2.7 C 5.13 g/m*3 -0.71 C 12.9 km/h
729 29-12-2014 16:10:00 2.7 C 5.07 g/m*3 -1.27 C 16.1 km/h
730 29-12-2014 16:15:00 2.7 C 5.01 g/m*3 -1 C 14.5 km/h
731 29-12-2014 16:20:00 2.7 C 4.95 g/m*3 -1.74 C 19.3 km/h
732 29-12-2014 16:25:00 2.7 C 4.95 g/m*3 -0.38 C 11.3 km/h
733 29-12-2014 16:30:00 2.6 C 4.92 g/m*3 -1.39 C 16.1 km/h
734 29-12-2014 16:35:00 2.6 C 4.86 g/m*3 -0.5 C 11.3 km/h
735 29-12-2014 16:40:00 2.5 C 4.83 g/m*3 -0.26 C 9.7 km/h
736 29-12-2014 16:45:00 2.5 C 4.83 g/m*3 -0.26 C 9.7 km/h
737 29-12-2014 16:50:00 2.4 C 4.8 g/m*3 0.05 C 8.1 km/h
738 29-12-2014 16:55:00 2.4 C 4.8 g/m*3 0.05 C 8.1 km/h
739 29-12-2014 17:00:00 2.4 C 4.85 g/m*3 2.4 C 4.8 km/h
740 29-12-2014 17:05:00 2.3 C 4.88 g/m*3 2.3 C 3.2 km/h
741 29-12-2014 17:10:00 2.3 C 4.88 g/m*3 2.3 C 3.2 km/h
742 29-12-2014 17:15:00 2.3 C 4.88 g/m*3 2.3 C 3.2 km/h
743 29-12-2014 17:20:00 2.3 C 4.88 g/m*3 -0.07 C 8.1 km/h
744 29-12-2014 17:25:00 2.3 C 4.88 g/m*3 2.3 C 4.8 km/h
745 29-12-2014 17:30:00 2.2 C 4.84 g/m*3 -0.18 C 8.1 km/h
746 29-12-2014 17:35:00 2.2 C 4.84 g/m*3 0.36 C 6.4 km/h
747 29-12-2014 17:40:00 2.1 C 4.81 g/m*3 -0.3 C 8.1 km/h
748 29-12-2014 17:45:00 2.1 C 4.81 g/m*3 -0.73 C 9.7 km/h
749 29-12-2014 17:50:00 2.1 C 4.81 g/m*3 2.1 C 4.8 km/h
750 29-12-2014 17:55:00 2 C 4.78 g/m*3 0.13 C 6.4 km/h
Sensor: Nr:Datum:Temp:Abs-Feuchte:Windchill:Wind:
Aussen-T/F 751 29-12-2014 18:00:00 1.9 C 4.75 g/m*3 -1.35 C 11.3 km/h
752 29-12-2014 18:05:00 1.9 C 4.75 g/m*3 -0.54 C 8.1 km/h
753 29-12-2014 18:10:00 1.9 C 4.69 g/m*3 0.01 C 6.4 km/h
754 29-12-2014 18:15:00 1.9 C 4.69 g/m*3 -0.54 C 8.1 km/h
755 29-12-2014 18:20:00 1.9 C 4.69 g/m*3 0.01 C 6.4 km/h
756 29-12-2014 18:25:00 1.9 C 4.69 g/m*3 1.9 C 4.8 km/h
757 29-12-2014 18:30:00 1.9 C 4.69 g/m*3 1.9 C 1.6 km/h
758 29-12-2014 18:35:00 1.8 C 4.66 g/m*3 -1.47 C 11.3 km/h
759 29-12-2014 18:40:00 1.8 C 4.6 g/m*3 -0.1 C 6.4 km/h
760 29-12-2014 18:45:00 1.8 C 4.55 g/m*3 -1.09 C 9.7 km/h
761 29-12-2014 18:50:00 1.9 C 4.58 g/m*3 -1.35 C 11.3 km/h
762 29-12-2014 18:55:00 1.9 C 4.58 g/m*3 -0.54 C 8.1 km/h
763 29-12-2014 19:00:00 1.9 C 4.58 g/m*3 0.01 C 6.4 km/h
764 29-12-2014 19:05:00 1.8 C 4.6 g/m*3 -1.09 C 9.7 km/h
765 29-12-2014 19:10:00 1.8 C 4.55 g/m*3 -0.1 C 6.4 km/h
766 29-12-2014 19:15:00 1.8 C 4.55 g/m*3 -0.1 C 6.4 km/h
767 29-12-2014 19:20:00 1.8 C 4.55 g/m*3 1.8 C 3.2 km/h
768 29-12-2014 19:25:00 1.8 C 4.55 g/m*3 1.8 C 4.8 km/h
769 29-12-2014 19:30:00 1.8 C 4.55 g/m*3 -1.09 C 9.7 km/h
770 29-12-2014 19:35:00 1.7 C 4.52 g/m*3 -0.77 C 8.1 km/h
771 29-12-2014 19:40:00 1.7 C 4.52 g/m*3 1.7 C 3.2 km/h
772 29-12-2014 19:45:00 1.7 C 4.46 g/m*3 1.7 C 4.8 km/h
773 29-12-2014 19:50:00 1.7 C 4.52 g/m*3 -0.22 C 6.4 km/h
774 29-12-2014 19:55:00 1.7 C 4.52 g/m*3 1.7 C 3.2 km/h
775 29-12-2014 20:00:00 1.6 C 4.49 g/m*3 1.6 C 3.2 km/h
Sensor: Nr:Datum:Temp:Abs-Feuchte:Windchill:Wind:
Aussen-T/F 776 29-12-2014 20:05:00 1.6 C 4.49 g/m*3 -1.33 C 9.7 km/h
777 29-12-2014 20:10:00 1.6 C 4.49 g/m*3 -0.33 C 6.4 km/h
778 29-12-2014 20:15:00 1.6 C 4.49 g/m*3 -0.33 C 6.4 km/h
779 29-12-2014 20:20:00 1.5 C 4.4 g/m*3 -0.45 C 6.4 km/h
780 29-12-2014 20:25:00 1.5 C 4.4 g/m*3 -1.45 C 9.7 km/h
781 29-12-2014 20:30:00 1.5 C 4.46 g/m*3 1.5 C 1.6 km/h
782 29-12-2014 20:35:00 1.5 C 4.46 g/m*3 1.5 C 3.2 km/h
783 29-12-2014 20:40:00 1.4 C 4.43 g/m*3 1.4 C 4.8 km/h
784 29-12-2014 20:45:00 1.4 C 4.43 g/m*3 1.4 C 4.8 km/h
785 29-12-2014 20:50:00 1.5 C 4.4 g/m*3 1.5 C 3.2 km/h
786 29-12-2014 20:55:00 1.5 C 4.46 g/m*3 1.5 C 3.2 km/h
787 29-12-2014 21:00:00 1.5 C 4.4 g/m*3 -1.01 C 8.1 km/h
788 29-12-2014 21:05:00 1.5 C 4.4 g/m*3 1.5 C 4.8 km/h
789 29-12-2014 21:10:00 1.5 C 4.4 g/m*3 -0.45 C 6.4 km/h
790 29-12-2014 21:15:00 1.5 C 4.4 g/m*3 -0.45 C 6.4 km/h
791 29-12-2014 21:20:00 1.4 C 4.43 g/m*3 1.4 C 4.8 km/h
792 29-12-2014 21:25:00 1.4 C 4.43 g/m*3 -0.56 C 6.4 km/h
793 29-12-2014 21:30:00 1.4 C 4.43 g/m*3 1.4 C 4.8 km/h
794 29-12-2014 21:35:00 1.4 C 4.43 g/m*3 1.4 C 3.2 km/h
795 29-12-2014 21:40:00 1.4 C 4.43 g/m*3 1.4 C 3.2 km/h
796 29-12-2014 21:45:00 1.3 C 4.34 g/m*3 -0.68 C 6.4 km/h
797 29-12-2014 21:50:00 1.3 C 4.34 g/m*3 1.3 C 3.2 km/h
798 29-12-2014 21:55:00 1.3 C 4.4 g/m*3 1.3 C 3.2 km/h
799 29-12-2014 22:00:00 1.3 C 4.4 g/m*3 1.3 C 1.6 km/h
800 29-12-2014 22:05:00 1.3 C 4.4 g/m*3 1.3 C 1.6 km/h
Sensor: Nr:Datum:Temp:Abs-Feuchte:Windchill:Wind:
Aussen-T/F 801 29-12-2014 22:10:00 1.2 C 4.42 g/m*3 1.2 C 1.6 km/h
802 29-12-2014 22:15:00 1.1 C 4.34 g/m*3 1.1 C 3.2 km/h
803 29-12-2014 22:20:00 0.9 C 4.43 g/m*3 0.9 C 1.6 km/h
804 29-12-2014 22:25:00 0.7 C 4.37 g/m*3 0.7 C 1.6 km/h
805 29-12-2014 22:30:00 0.6 C 4.34 g/m*3 0.6 C 0 km/h
806 29-12-2014 22:35:00 0.4 C 4.38 g/m*3 0.4 C 1.6 km/h
807 29-12-2014 22:40:00 0.3 C 4.4 g/m*3 0.3 C 4.8 km/h
808 29-12-2014 22:45:00 0.3 C 4.45 g/m*3 0.3 C 4.8 km/h
809 29-12-2014 22:50:00 0.2 C 4.42 g/m*3 0.2 C 3.2 km/h
810 29-12-2014 22:55:00 0.2 C 4.47 g/m*3 0.2 C 4.8 km/h
811 29-12-2014 23:00:00 0.1 C 4.44 g/m*3 0.1 C 1.6 km/h
812 29-12-2014 23:05:00 0.1 C 4.39 g/m*3 0.1 C 1.6 km/h
813 29-12-2014 23:10:00 0 C 4.36 g/m*3 0 C 0 km/h
814 29-12-2014 23:15:00 -0.1 C 4.38 g/m*3 -0.1 C 1.6 km/h
815 29-12-2014 23:20:00 -0.1 C 4.33 g/m*3 -0.1 C 0 km/h
816 29-12-2014 23:25:00 -0.1 C 4.33 g/m*3 -0.1 C 0 km/h
817 29-12-2014 23:30:00 0 C 4.41 g/m*3 0 C 0 km/h
818 29-12-2014 23:35:00 0.1 C 4.39 g/m*3 0.1 C 0 km/h
819 29-12-2014 23:40:00 0.1 C 4.39 g/m*3 0.1 C 0 km/h
820 29-12-2014 23:45:00 0.1 C 4.39 g/m*3 0.1 C 0 km/h
821 29-12-2014 23:50:00 0.2 C 4.42 g/m*3 0.2 C 0 km/h
822 29-12-2014 23:55:00 0.2 C 4.42 g/m*3 0.2 C 0 km/h
823 30-12-2014 00:00:00 0.3 C 4.45 g/m*3 0.3 C 0 km/h
824 30-12-2014 00:05:00 0.3 C 4.45 g/m*3 0.3 C 0 km/h
825 30-12-2014 00:10:00 0.3 C 4.45 g/m*3 0.3 C 0 km/h
Sensor: Nr:Datum:Temp:Abs-Feuchte:Windchill:Wind:
Aussen-T/F 826 30-12-2014 00:15:00 0.3 C 4.45 g/m*3 0.3 C 0 km/h
827 30-12-2014 00:55:00 0.4 C 4.48 g/m*3 0.4 C 1.6 km/h
828 30-12-2014 01:00:00 0.3 C 4.45 g/m*3 0.3 C 3.2 km/h
829 30-12-2014 01:05:00 0.3 C 4.5 g/m*3 0.3 C 1.6 km/h
830 30-12-2014 01:10:00 0.3 C 4.5 g/m*3 0.3 C 0 km/h
831 30-12-2014 09:25:00 1.2 C 5.05 g/m*3 1.2 C 3.2 km/h
832 30-12-2014 09:30:00 1.2 C 5.05 g/m*3 1.2 C 1.6 km/h
833 30-12-2014 09:35:00 1.3 C 5.09 g/m*3 1.3 C 1.6 km/h
834 30-12-2014 09:40:00 1.3 C 5.09 g/m*3 1.3 C 1.6 km/h
835 30-12-2014 09:45:00 1.4 C 5.12 g/m*3 1.4 C 0 km/h
836 30-12-2014 09:50:00 1.4 C 5.12 g/m*3 1.4 C 1.6 km/h
837 30-12-2014 09:55:00 1.5 C 5.16 g/m*3 1.5 C 1.6 km/h
838 30-12-2014 10:00:00 1.6 C 5.19 g/m*3 1.6 C 0 km/h
839 30-12-2014 10:05:00 1.7 C 5.23 g/m*3 1.7 C 1.6 km/h
840 30-12-2014 10:10:00 1.7 C 5.23 g/m*3 1.7 C 1.6 km/h
841 30-12-2014 10:15:00 1.8 C 5.26 g/m*3 1.8 C 1.6 km/h
842 30-12-2014 10:20:00 1.8 C 5.26 g/m*3 1.8 C 3.2 km/h
843 30-12-2014 10:25:00 1.8 C 5.26 g/m*3 1.8 C 1.6 km/h
844 30-12-2014 10:30:00 1.9 C 5.3 g/m*3 1.9 C 1.6 km/h
845 30-12-2014 10:35:00 2 C 5.33 g/m*3 2 C 3.2 km/h
846 30-12-2014 10:40:00 2.2 C 5.41 g/m*3 2.2 C 3.2 km/h
847 30-12-2014 10:45:00 2.2 C 5.41 g/m*3 2.2 C 3.2 km/h
848 30-12-2014 10:50:00 2.3 C 5.44 g/m*3 2.3 C 3.2 km/h
849 30-12-2014 10:55:00 2.3 C 5.44 g/m*3 2.3 C 3.2 km/h
850 30-12-2014 11:00:00 2.4 C 5.48 g/m*3 2.4 C 3.2 km/h
Sensor: Nr:Datum:Temp:Abs-Feuchte:Windchill:Wind:
Aussen-T/F 851 30-12-2014 11:05:00 2.5 C 5.52 g/m*3 2.5 C 0 km/h
852 30-12-2014 11:10:00 2.6 C 5.56 g/m*3 2.6 C 4.8 km/h
853 30-12-2014 11:15:00 2.8 C 5.57 g/m*3 2.8 C 3.2 km/h
854 30-12-2014 11:20:00 2.9 C 5.61 g/m*3 2.9 C 1.6 km/h
855 30-12-2014 11:25:00 3 C 5.59 g/m*3 1.28 C 6.4 km/h
856 30-12-2014 11:30:00 2.9 C 5.55 g/m*3 2.9 C 0 km/h
857 30-12-2014 11:35:00 2.9 C 5.55 g/m*3 2.9 C 4.8 km/h
858 30-12-2014 11:40:00 3 C 5.59 g/m*3 3 C 3.2 km/h
859 30-12-2014 11:45:00 3.1 C 5.63 g/m*3 3.1 C 0 km/h
860 30-12-2014 11:50:00 3.2 C 5.6 g/m*3 3.2 C 1.6 km/h
861 30-12-2014 11:55:00 3.2 C 5.6 g/m*3 3.2 C 3.2 km/h
862 30-12-2014 12:00:00 3.3 C 5.64 g/m*3 3.3 C 3.2 km/h
863 30-12-2014 12:05:00 3.4 C 5.62 g/m*3 3.4 C 1.6 km/h
864 30-12-2014 12:10:00 3.4 C 5.62 g/m*3 3.4 C 3.2 km/h
865 30-12-2014 12:15:00 3.6 C 5.69 g/m*3 3.6 C 1.6 km/h
866 30-12-2014 12:20:00 3.6 C 5.63 g/m*3 3.6 C 3.2 km/h
867 30-12-2014 12:25:00 3.7 C 5.67 g/m*3 3.7 C 3.2 km/h
868 30-12-2014 12:30:00 3.7 C 5.67 g/m*3 3.7 C 1.6 km/h
869 30-12-2014 12:35:00 3.7 C 5.67 g/m*3 3.7 C 3.2 km/h
870 30-12-2014 12:40:00 3.7 C 5.61 g/m*3 3.7 C 0 km/h
871 30-12-2014 12:45:00 3.6 C 5.57 g/m*3 3.6 C 0 km/h
872 30-12-2014 12:50:00 3.6 C 5.63 g/m*3 3.6 C 3.2 km/h
873 30-12-2014 12:55:00 3.6 C 5.63 g/m*3 3.6 C 0 km/h
874 30-12-2014 13:00:00 3.5 C 5.6 g/m*3 3.5 C 0 km/h
875 30-12-2014 13:05:00 3.3 C 5.52 g/m*3 3.3 C 0 km/h
Sensor: Nr:Datum:Temp:Abs-Feuchte:Windchill:Wind:
Aussen-T/F 876 30-12-2014 13:10:00 3.3 C 5.52 g/m*3 3.3 C 1.6 km/h
877 30-12-2014 13:15:00 3.2 C 5.54 g/m*3 3.2 C 0 km/h
878 30-12-2014 13:20:00 3.2 C 5.54 g/m*3 3.2 C 0 km/h
879 30-12-2014 13:25:00 3.2 C 5.54 g/m*3 3.2 C 1.6 km/h
880 30-12-2014 13:30:00 3.2 C 5.54 g/m*3 3.2 C 1.6 km/h
881 30-12-2014 13:35:00 3.3 C 5.58 g/m*3 3.3 C 0 km/h
882 30-12-2014 13:40:00 3.3 C 5.58 g/m*3 3.3 C 0 km/h
883 30-12-2014 13:45:00 3.3 C 5.58 g/m*3 3.3 C 0 km/h
884 30-12-2014 13:50:00 3.2 C 5.54 g/m*3 3.2 C 0 km/h
885 30-12-2014 13:55:00 3.2 C 5.54 g/m*3 3.2 C 0 km/h
886 30-12-2014 14:00:00 3.4 C 5.62 g/m*3 3.4 C 4.8 km/h
887 30-12-2014 14:05:00 3.7 C 5.67 g/m*3 2.09 C 6.4 km/h
888 30-12-2014 14:10:00 3.8 C 5.65 g/m*3 2.21 C 6.4 km/h
889 30-12-2014 14:15:00 4.1 C 5.7 g/m*3 2.55 C 6.4 km/h
890 30-12-2014 14:20:00 4.2 C 5.67 g/m*3 0.84 C 14.5 km/h
891 30-12-2014 14:25:00 4.3 C 5.71 g/m*3 0.97 C 14.5 km/h
892 30-12-2014 14:30:00 4.3 C 5.71 g/m*3 4.3 C 4.8 km/h
893 30-12-2014 14:35:00 4.3 C 5.64 g/m*3 2.29 C 8.1 km/h
894 30-12-2014 14:40:00 4.3 C 5.64 g/m*3 4.3 C 4.8 km/h
895 30-12-2014 14:45:00 4.3 C 5.64 g/m*3 2.78 C 6.4 km/h
896 30-12-2014 14:50:00 4.2 C 5.61 g/m*3 4.2 C 3.2 km/h
897 30-12-2014 14:55:00 4.2 C 5.67 g/m*3 4.2 C 3.2 km/h
898 30-12-2014 15:00:00 4.1 C 5.63 g/m*3 2.05 C 8.1 km/h
899 30-12-2014 15:05:00 4 C 5.59 g/m*3 2.44 C 6.4 km/h
900 30-12-2014 15:10:00 4.1 C 5.63 g/m*3 1.65 C 9.7 km/h
Sensor: Nr:Datum:Temp:Abs-Feuchte:Windchill:Wind:
Aussen-T/F 901 30-12-2014 15:15:00 4.2 C 5.67 g/m*3 2.17 C 8.1 km/h
902 30-12-2014 15:20:00 4.2 C 5.67 g/m*3 1.43 C 11.3 km/h
903 30-12-2014 15:25:00 4.3 C 5.71 g/m*3 2.78 C 6.4 km/h
904 30-12-2014 15:30:00 4.3 C 5.77 g/m*3 4.3 C 3.2 km/h
905 30-12-2014 15:35:00 4.3 C 5.77 g/m*3 4.3 C 4.8 km/h
906 30-12-2014 15:40:00 4.3 C 5.77 g/m*3 4.3 C 4.8 km/h
907 30-12-2014 15:45:00 4.2 C 5.73 g/m*3 4.2 C 3.2 km/h
908 30-12-2014 15:50:00 4.1 C 5.76 g/m*3 4.1 C 4.8 km/h
909 30-12-2014 15:55:00 4.1 C 5.76 g/m*3 2.05 C 8.1 km/h
910 30-12-2014 16:00:00 4.1 C 5.76 g/m*3 4.1 C 3.2 km/h
911 30-12-2014 16:05:00 3.9 C 5.68 g/m*3 3.9 C 4.8 km/h
912 30-12-2014 16:10:00 3.8 C 5.65 g/m*3 3.8 C 1.6 km/h
913 30-12-2014 16:15:00 3.7 C 5.67 g/m*3 3.7 C 1.6 km/h
914 30-12-2014 16:20:00 3.6 C 5.63 g/m*3 3.6 C 1.6 km/h
915 30-12-2014 16:25:00 3.5 C 5.6 g/m*3 3.5 C 1.6 km/h
916 30-12-2014 16:30:00 3.3 C 5.58 g/m*3 3.3 C 1.6 km/h
917 30-12-2014 16:35:00 3.3 C 5.58 g/m*3 3.3 C 3.2 km/h
918 30-12-2014 16:40:00 3.3 C 5.58 g/m*3 3.3 C 1.6 km/h
919 30-12-2014 16:45:00 3.2 C 5.54 g/m*3 3.2 C 4.8 km/h
920 30-12-2014 16:50:00 3.3 C 5.58 g/m*3 1.11 C 8.1 km/h
921 30-12-2014 16:55:00 3.3 C 5.64 g/m*3 1.63 C 6.4 km/h
922 30-12-2014 17:00:00 3.3 C 5.58 g/m*3 3.3 C 1.6 km/h
923 30-12-2014 17:05:00 3.3 C 5.58 g/m*3 3.3 C 4.8 km/h
924 30-12-2014 17:10:00 3.3 C 5.58 g/m*3 3.3 C 4.8 km/h
925 30-12-2014 17:15:00 3.3 C 5.58 g/m*3 3.3 C 3.2 km/h
Sensor: Nr:Datum:Temp:Abs-Feuchte:Windchill:Wind:
Aussen-T/F 926 30-12-2014 17:20:00 3.2 C 5.54 g/m*3 3.2 C 1.6 km/h
927 30-12-2014 17:25:00 3.1 C 5.51 g/m*3 3.1 C 3.2 km/h
928 30-12-2014 17:30:00 3 C 5.53 g/m*3 3 C 1.6 km/h
929 30-12-2014 17:35:00 3.1 C 5.57 g/m*3 3.1 C 1.6 km/h
930 30-12-2014 17:40:00 3.2 C 5.6 g/m*3 3.2 C 3.2 km/h
931 30-12-2014 17:45:00 3.2 C 5.54 g/m*3 3.2 C 3.2 km/h
932 30-12-2014 17:50:00 3.2 C 5.54 g/m*3 3.2 C 3.2 km/h
933 30-12-2014 17:55:00 3.2 C 5.54 g/m*3 3.2 C 0 km/h
934 30-12-2014 18:00:00 3 C 5.47 g/m*3 3 C 3.2 km/h
935 30-12-2014 18:05:00 2.9 C 5.49 g/m*3 2.9 C 0 km/h
936 30-12-2014 18:10:00 2.8 C 5.46 g/m*3 2.8 C 3.2 km/h
937 30-12-2014 18:15:00 2.7 C 5.42 g/m*3 2.7 C 1.6 km/h
938 30-12-2014 18:20:00 2.6 C 5.38 g/m*3 2.6 C 3.2 km/h
939 30-12-2014 18:25:00 2.5 C 5.35 g/m*3 2.5 C 3.2 km/h
940 30-12-2014 18:30:00 2.4 C 5.31 g/m*3 2.4 C 3.2 km/h
941 30-12-2014 18:35:00 2.4 C 5.37 g/m*3 2.4 C 3.2 km/h
942 30-12-2014 18:40:00 2.3 C 5.33 g/m*3 2.3 C 1.6 km/h
943 30-12-2014 18:45:00 2.3 C 5.33 g/m*3 2.3 C 3.2 km/h
944 30-12-2014 18:50:00 2.2 C 5.29 g/m*3 2.2 C 3.2 km/h
945 30-12-2014 18:55:00 2.3 C 5.33 g/m*3 2.3 C 3.2 km/h
946 30-12-2014 19:00:00 2.2 C 5.29 g/m*3 2.2 C 1.6 km/h
947 30-12-2014 19:05:00 2.2 C 5.35 g/m*3 2.2 C 1.6 km/h
948 30-12-2014 19:10:00 2.2 C 5.35 g/m*3 2.2 C 1.6 km/h
949 30-12-2014 19:15:00 2.2 C 5.29 g/m*3 2.2 C 3.2 km/h
950 30-12-2014 19:20:00 2.1 C 5.31 g/m*3 2.1 C 1.6 km/h
Sensor: Nr:Datum:Temp:Abs-Feuchte:Windchill:Wind:
Aussen-T/F 951 30-12-2014 19:25:00 2.2 C 5.35 g/m*3 2.2 C 1.6 km/h
952 30-12-2014 19:30:00 2.2 C 5.35 g/m*3 2.2 C 1.6 km/h
953 30-12-2014 19:35:00 2.2 C 5.35 g/m*3 2.2 C 1.6 km/h
954 30-12-2014 19:40:00 2.2 C 5.35 g/m*3 2.2 C 1.6 km/h
955 30-12-2014 19:45:00 2.2 C 5.29 g/m*3 2.2 C 3.2 km/h
956 30-12-2014 19:50:00 2.2 C 5.29 g/m*3 2.2 C 4.8 km/h
957 30-12-2014 19:55:00 2.3 C 5.33 g/m*3 2.3 C 4.8 km/h
958 30-12-2014 20:00:00 2.4 C 5.31 g/m*3 2.4 C 3.2 km/h
959 30-12-2014 20:05:00 2.5 C 5.35 g/m*3 2.5 C 1.6 km/h
960 30-12-2014 20:10:00 2.4 C 5.25 g/m*3 2.4 C 0 km/h
961 30-12-2014 20:15:00 2.4 C 5.25 g/m*3 2.4 C 0 km/h
962 30-12-2014 20:20:00 2.3 C 5.27 g/m*3 2.3 C 4.8 km/h
963 30-12-2014 20:25:00 2.3 C 5.27 g/m*3 2.3 C 4.8 km/h
964 30-12-2014 20:30:00 2.7 C 5.3 g/m*3 2.7 C 1.6 km/h
965 30-12-2014 20:35:00 2.7 C 5.3 g/m*3 2.7 C 3.2 km/h
966 30-12-2014 20:40:00 2.5 C 5.23 g/m*3 2.5 C 3.2 km/h
967 30-12-2014 20:45:00 2.4 C 5.25 g/m*3 2.4 C 4.8 km/h
968 30-12-2014 20:50:00 2.4 C 5.25 g/m*3 0.59 C 6.4 km/h
969 30-12-2014 20:55:00 2.4 C 5.25 g/m*3 2.4 C 3.2 km/h
970 30-12-2014 21:00:00 2.3 C 5.22 g/m*3 2.3 C 1.6 km/h
971 30-12-2014 21:05:00 2.3 C 5.27 g/m*3 2.3 C 1.6 km/h
972 30-12-2014 21:10:00 2.3 C 5.27 g/m*3 2.3 C 1.6 km/h
973 30-12-2014 21:15:00 2.2 C 5.24 g/m*3 2.2 C 1.6 km/h
974 30-12-2014 21:20:00 2.1 C 5.2 g/m*3 2.1 C 1.6 km/h
975 30-12-2014 21:25:00 2.1 C 5.2 g/m*3 2.1 C 0 km/h
Sensor: Nr:Datum:Temp:Abs-Feuchte:Windchill:Wind:
Aussen-T/F 976 30-12-2014 21:30:00 2.1 C 5.2 g/m*3 2.1 C 1.6 km/h
977 30-12-2014 21:35:00 2 C 5.22 g/m*3 2 C 3.2 km/h
978 30-12-2014 21:40:00 2 C 5.22 g/m*3 2 C 3.2 km/h
979 30-12-2014 21:45:00 2.1 C 5.26 g/m*3 2.1 C 4.8 km/h
980 30-12-2014 21:50:00 2.1 C 5.2 g/m*3 2.1 C 1.6 km/h
981 30-12-2014 21:55:00 2.1 C 5.2 g/m*3 2.1 C 1.6 km/h
982 30-12-2014 22:00:00 2 C 5.17 g/m*3 2 C 1.6 km/h
983 30-12-2014 22:05:00 2 C 5.22 g/m*3 2 C 3.2 km/h
984 30-12-2014 22:10:00 1.9 C 5.19 g/m*3 1.9 C 1.6 km/h
985 30-12-2014 22:15:00 1.9 C 5.19 g/m*3 1.9 C 1.6 km/h
986 30-12-2014 22:20:00 1.9 C 5.19 g/m*3 1.9 C 1.6 km/h
987 30-12-2014 22:25:00 1.9 C 5.19 g/m*3 1.9 C 0 km/h
988 30-12-2014 22:30:00 1.9 C 5.19 g/m*3 1.9 C 0 km/h
989 30-12-2014 22:35:00 1.9 C 5.19 g/m*3 1.9 C 0 km/h
990 30-12-2014 22:40:00 1.9 C 5.19 g/m*3 1.9 C 1.6 km/h
991 30-12-2014 22:45:00 2 C 5.22 g/m*3 2 C 1.6 km/h
992 30-12-2014 22:50:00 2 C 5.22 g/m*3 2 C 1.6 km/h
993 30-12-2014 22:55:00 2 C 5.22 g/m*3 2 C 3.2 km/h
994 30-12-2014 23:00:00 2 C 5.22 g/m*3 2 C 1.6 km/h
995 30-12-2014 23:05:00 1.9 C 5.19 g/m*3 1.9 C 1.6 km/h
996 30-12-2014 23:10:00 1.9 C 5.19 g/m*3 1.9 C 1.6 km/h
997 30-12-2014 23:15:00 1.9 C 5.19 g/m*3 1.9 C 0 km/h
998 30-12-2014 23:20:00 1.9 C 5.19 g/m*3 1.9 C 0 km/h
999 30-12-2014 23:25:00 1.9 C 5.19 g/m*3 1.9 C 3.2 km/h
1000 30-12-2014 23:30:00 1.9 C 5.19 g/m*3 1.9 C 3.2 km/h
Sensor: Nr:Datum:Temp:Abs-Feuchte:Windchill:Wind:
Aussen-T/F 1001 30-12-2014 23:35:00 1.9 C 5.19 g/m*3 1.9 C 0 km/h
1002 30-12-2014 23:40:00 1.9 C 5.19 g/m*3 1.9 C 1.6 km/h
1003 30-12-2014 23:45:00 1.9 C 5.19 g/m*3 1.9 C 0 km/h
1004 30-12-2014 23:50:00 1.9 C 5.19 g/m*3 1.9 C 1.6 km/h
1005 30-12-2014 23:55:00 1.9 C 5.19 g/m*3 1.9 C 1.6 km/h
1006 31-12-2014 00:00:00 1.9 C 5.24 g/m*3 1.9 C 1.6 km/h
1007 31-12-2014 00:05:00 1.9 C 5.19 g/m*3 1.9 C 1.6 km/h
1008 31-12-2014 00:10:00 1.9 C 5.19 g/m*3 1.9 C 0 km/h
1009 31-12-2014 00:15:00 1.9 C 5.19 g/m*3 1.9 C 0 km/h
1010 31-12-2014 00:20:00 1.9 C 5.19 g/m*3 1.9 C 0 km/h
1011 31-12-2014 00:25:00 1.9 C 5.19 g/m*3 1.9 C 1.6 km/h
1012 31-12-2014 00:30:00 1.9 C 5.24 g/m*3 1.9 C 0 km/h
1013 31-12-2014 00:35:00 1.8 C 5.15 g/m*3 1.8 C 0 km/h
1014 31-12-2014 00:40:00 1.9 C 5.24 g/m*3 1.9 C 0 km/h
1015 31-12-2014 00:45:00 1.8 C 5.21 g/m*3 1.8 C 0 km/h
1016 31-12-2014 00:50:00 1.9 C 5.24 g/m*3 1.9 C 1.6 km/h
1017 31-12-2014 00:55:00 1.8 C 5.21 g/m*3 1.8 C 1.6 km/h
1018 31-12-2014 01:00:00 1.8 C 5.21 g/m*3 1.8 C 0 km/h
1019 31-12-2014 01:05:00 1.8 C 5.21 g/m*3 1.8 C 1.6 km/h
1020 31-12-2014 01:10:00 1.8 C 5.21 g/m*3 1.8 C 0 km/h
1021 31-12-2014 01:15:00 1.9 C 5.24 g/m*3 1.9 C 4.8 km/h
1022 31-12-2014 01:20:00 1.9 C 5.24 g/m*3 1.9 C 1.6 km/h
1023 31-12-2014 01:25:00 1.9 C 5.24 g/m*3 1.9 C 0 km/h
1024 31-12-2014 01:30:00 2 C 5.22 g/m*3 2 C 1.6 km/h
1025 31-12-2014 01:35:00 2.1 C 5.26 g/m*3 2.1 C 1.6 km/h
Sensor: Nr:Datum:Temp:Abs-Feuchte:Windchill:Wind:
Aussen-T/F 1026 31-12-2014 01:40:00 2.1 C 5.26 g/m*3 2.1 C 1.6 km/h
1027 31-12-2014 01:45:00 2.1 C 5.26 g/m*3 2.1 C 1.6 km/h
1028 31-12-2014 01:50:00 2.1 C 5.26 g/m*3 2.1 C 0 km/h
1029 31-12-2014 01:55:00 2.1 C 5.26 g/m*3 2.1 C 0 km/h
1030 31-12-2014 02:00:00 2.1 C 5.26 g/m*3 2.1 C 1.6 km/h
1031 31-12-2014 02:05:00 2.1 C 5.26 g/m*3 2.1 C 0 km/h
1032 31-12-2014 02:10:00 2.1 C 5.26 g/m*3 2.1 C 1.6 km/h
1033 31-12-2014 02:15:00 2.1 C 5.26 g/m*3 2.1 C 1.6 km/h
1034 31-12-2014 02:20:00 2.1 C 5.26 g/m*3 2.1 C 0 km/h
1035 31-12-2014 02:25:00 2.1 C 5.26 g/m*3 2.1 C 0 km/h
1036 31-12-2014 02:30:00 2.1 C 5.26 g/m*3 2.1 C 1.6 km/h
1037 31-12-2014 02:35:00 2.1 C 5.26 g/m*3 2.1 C 0 km/h
1038 31-12-2014 02:40:00 2.1 C 5.26 g/m*3 2.1 C 0 km/h
1039 31-12-2014 02:45:00 2.1 C 5.26 g/m*3 2.1 C 0 km/h
1040 31-12-2014 02:50:00 2.1 C 5.26 g/m*3 2.1 C 1.6 km/h
1041 31-12-2014 02:55:00 2.1 C 5.26 g/m*3 2.1 C 1.6 km/h
1042 31-12-2014 03:00:00 2.1 C 5.26 g/m*3 2.1 C 1.6 km/h
1043 31-12-2014 03:05:00 2.1 C 5.26 g/m*3 2.1 C 1.6 km/h
1044 31-12-2014 03:10:00 2.1 C 5.26 g/m*3 2.1 C 1.6 km/h
1045 31-12-2014 03:15:00 2.1 C 5.31 g/m*3 2.1 C 1.6 km/h
1046 31-12-2014 03:20:00 2.1 C 5.26 g/m*3 2.1 C 3.2 km/h
1047 31-12-2014 03:25:00 2.1 C 5.26 g/m*3 2.1 C 0 km/h
1048 31-12-2014 03:30:00 2.1 C 5.26 g/m*3 2.1 C 1.6 km/h
1049 31-12-2014 03:35:00 2.1 C 5.31 g/m*3 2.1 C 0 km/h
1050 31-12-2014 03:40:00 2.1 C 5.31 g/m*3 2.1 C 0 km/h
Sensor: Nr:Datum:Temp:Abs-Feuchte:Windchill:Wind:
Aussen-T/F 1051 31-12-2014 03:45:00 2.1 C 5.31 g/m*3 2.1 C 1.6 km/h
1052 31-12-2014 03:50:00 2.1 C 5.31 g/m*3 2.1 C 0 km/h
1053 31-12-2014 03:55:00 2.1 C 5.31 g/m*3 2.1 C 0 km/h
1054 31-12-2014 04:00:00 2.1 C 5.31 g/m*3 2.1 C 0 km/h
1055 31-12-2014 04:05:00 2.1 C 5.31 g/m*3 2.1 C 0 km/h
1056 31-12-2014 04:10:00 2.1 C 5.31 g/m*3 2.1 C 0 km/h
1057 31-12-2014 04:15:00 2.1 C 5.31 g/m*3 2.1 C 0 km/h
1058 31-12-2014 04:20:00 2.1 C 5.31 g/m*3 2.1 C 0 km/h
1059 31-12-2014 04:25:00 2.1 C 5.31 g/m*3 2.1 C 0 km/h
1060 31-12-2014 04:30:00 2.1 C 5.31 g/m*3 2.1 C 0 km/h
1061 31-12-2014 04:35:00 2.2 C 5.35 g/m*3 2.2 C 1.6 km/h
1062 31-12-2014 04:40:00 2.2 C 5.35 g/m*3 2.2 C 0 km/h
1063 31-12-2014 04:45:00 2.2 C 5.35 g/m*3 2.2 C 0 km/h
1064 31-12-2014 04:50:00 2.2 C 5.35 g/m*3 2.2 C 0 km/h
1065 31-12-2014 04:55:00 2.1 C 5.26 g/m*3 2.1 C 1.6 km/h
1066 31-12-2014 05:00:00 2.2 C 5.35 g/m*3 2.2 C 1.6 km/h
1067 31-12-2014 05:05:00 2.2 C 5.35 g/m*3 2.2 C 1.6 km/h
1068 31-12-2014 05:10:00 2.2 C 5.35 g/m*3 2.2 C 1.6 km/h
1069 31-12-2014 05:15:00 2.2 C 5.29 g/m*3 2.2 C 3.2 km/h
1070 31-12-2014 05:20:00 2.3 C 5.33 g/m*3 2.3 C 3.2 km/h
1071 31-12-2014 05:25:00 2.3 C 5.33 g/m*3 2.3 C 4.8 km/h
1072 31-12-2014 05:30:00 2.3 C 5.33 g/m*3 2.3 C 1.6 km/h
1073 31-12-2014 05:35:00 2.3 C 5.33 g/m*3 2.3 C 1.6 km/h
1074 31-12-2014 05:40:00 2.3 C 5.33 g/m*3 2.3 C 1.6 km/h
1075 31-12-2014 05:45:00 2.3 C 5.33 g/m*3 2.3 C 1.6 km/h
Sensor: Nr:Datum:Temp:Abs-Feuchte:Windchill:Wind:
Aussen-T/F 1076 31-12-2014 05:50:00 2.3 C 5.33 g/m*3 2.3 C 0 km/h
1077 31-12-2014 05:55:00 2.3 C 5.33 g/m*3 2.3 C 0 km/h
1078 31-12-2014 06:00:00 2.3 C 5.33 g/m*3 2.3 C 3.2 km/h
1079 31-12-2014 06:05:00 2.3 C 5.33 g/m*3 2.3 C 0 km/h
1080 31-12-2014 06:10:00 2.3 C 5.33 g/m*3 2.3 C 0 km/h
1081 31-12-2014 06:15:00 2.3 C 5.33 g/m*3 2.3 C 0 km/h
1082 31-12-2014 06:20:00 2.3 C 5.33 g/m*3 2.3 C 3.2 km/h
1083 31-12-2014 06:25:00 2.3 C 5.33 g/m*3 2.3 C 1.6 km/h
1084 31-12-2014 06:30:00 2.2 C 5.29 g/m*3 2.2 C 1.6 km/h
1085 31-12-2014 06:35:00 2.2 C 5.29 g/m*3 2.2 C 0 km/h
1086 31-12-2014 06:40:00 2.2 C 5.29 g/m*3 2.2 C 1.6 km/h
1087 31-12-2014 06:45:00 2.3 C 5.33 g/m*3 2.3 C 3.2 km/h
1088 31-12-2014 06:50:00 2.3 C 5.33 g/m*3 2.3 C 3.2 km/h
1089 31-12-2014 06:55:00 2.3 C 5.33 g/m*3 2.3 C 1.6 km/h
1090 31-12-2014 07:00:00 2.3 C 5.33 g/m*3 2.3 C 3.2 km/h
1091 31-12-2014 07:05:00 2.4 C 5.37 g/m*3 2.4 C 4.8 km/h
1092 31-12-2014 07:10:00 2.4 C 5.37 g/m*3 2.4 C 3.2 km/h
1093 31-12-2014 07:15:00 2.4 C 5.37 g/m*3 2.4 C 4.8 km/h
1094 31-12-2014 07:20:00 2.5 C 5.4 g/m*3 2.5 C 1.6 km/h
1095 31-12-2014 07:25:00 2.5 C 5.35 g/m*3 2.5 C 4.8 km/h
1096 31-12-2014 07:30:00 2.6 C 5.44 g/m*3 2.6 C 3.2 km/h
1097 31-12-2014 07:35:00 2.6 C 5.38 g/m*3 2.6 C 3.2 km/h
1098 31-12-2014 07:40:00 2.6 C 5.38 g/m*3 2.6 C 3.2 km/h
1099 31-12-2014 07:45:00 2.6 C 5.38 g/m*3 2.6 C 0 km/h
1100 31-12-2014 07:50:00 2.5 C 5.35 g/m*3 2.5 C 3.2 km/h
Sensor: Nr:Datum:Temp:Abs-Feuchte:Windchill:Wind:
Aussen-T/F 1101 31-12-2014 07:55:00 2.4 C 5.37 g/m*3 2.4 C 1.6 km/h
1102 31-12-2014 08:00:00 2.5 C 5.35 g/m*3 2.5 C 3.2 km/h
1103 31-12-2014 08:05:00 2.4 C 5.37 g/m*3 2.4 C 3.2 km/h
1104 31-12-2014 08:10:00 2.4 C 5.37 g/m*3 2.4 C 3.2 km/h
1105 31-12-2014 08:15:00 2.5 C 5.4 g/m*3 2.5 C 4.8 km/h
1106 31-12-2014 08:20:00 2.6 C 5.44 g/m*3 0.82 C 6.4 km/h
1107 31-12-2014 08:25:00 2.6 C 5.44 g/m*3 0.82 C 6.4 km/h
1108 31-12-2014 08:30:00 2.6 C 5.44 g/m*3 2.6 C 1.6 km/h
1109 31-12-2014 08:35:00 2.6 C 5.44 g/m*3 2.6 C 3.2 km/h
1110 31-12-2014 08:40:00 2.6 C 5.38 g/m*3 0.29 C 8.1 km/h
1111 31-12-2014 08:45:00 2.7 C 5.42 g/m*3 0.4 C 8.1 km/h
1112 31-12-2014 08:50:00 2.7 C 5.42 g/m*3 2.7 C 4.8 km/h
1113 31-12-2014 08:55:00 2.6 C 5.38 g/m*3 2.6 C 3.2 km/h
1114 31-12-2014 09:00:00 2.7 C 5.42 g/m*3 0.4 C 8.1 km/h
1115 31-12-2014 09:05:00 2.7 C 5.42 g/m*3 0.4 C 8.1 km/h
1116 31-12-2014 09:10:00 2.7 C 5.42 g/m*3 0.94 C 6.4 km/h
1117 31-12-2014 09:15:00 2.7 C 5.42 g/m*3 0.4 C 8.1 km/h
1118 31-12-2014 09:20:00 2.7 C 5.42 g/m*3 -0.38 C 11.3 km/h
1119 31-12-2014 09:25:00 2.8 C 5.4 g/m*3 0.52 C 8.1 km/h
1120 31-12-2014 09:30:00 2.8 C 5.4 g/m*3 0.52 C 8.1 km/h
1121 31-12-2014 09:35:00 2.8 C 5.4 g/m*3 0.52 C 8.1 km/h
1122 31-12-2014 09:40:00 2.8 C 5.4 g/m*3 0.1 C 9.7 km/h
1123 31-12-2014 09:45:00 2.8 C 5.4 g/m*3 1.05 C 6.4 km/h
1124 31-12-2014 09:50:00 2.8 C 5.4 g/m*3 0.1 C 9.7 km/h
1125 31-12-2014 09:55:00 2.9 C 5.43 g/m*3 0.64 C 8.1 km/h
Sensor: Nr:Datum:Temp:Abs-Feuchte:Windchill:Wind:
Aussen-T/F 1126 31-12-2014 10:00:00 2.9 C 5.43 g/m*3 1.17 C 6.4 km/h
1127 31-12-2014 10:05:00 2.9 C 5.43 g/m*3 1.17 C 6.4 km/h
1128 31-12-2014 10:10:00 2.9 C 5.43 g/m*3 1.17 C 6.4 km/h
1129 31-12-2014 10:15:00 3 C 5.47 g/m*3 0.34 C 9.7 km/h
1130 31-12-2014 10:20:00 3 C 5.47 g/m*3 0.76 C 8.1 km/h
1131 31-12-2014 10:25:00 3.1 C 5.51 g/m*3 0.46 C 9.7 km/h
1132 31-12-2014 10:30:00 3.1 C 5.51 g/m*3 0.1 C 11.3 km/h
1133 31-12-2014 10:35:00 3.1 C 5.45 g/m*3 0.87 C 8.1 km/h
1134 31-12-2014 10:40:00 3.2 C 5.48 g/m*3 0.22 C 11.3 km/h
1135 31-12-2014 10:45:00 3.2 C 5.48 g/m*3 0.22 C 11.3 km/h
1136 31-12-2014 10:50:00 3.2 C 5.48 g/m*3 0.99 C 8.1 km/h
1137 31-12-2014 10:55:00 3.3 C 5.52 g/m*3 0.34 C 11.3 km/h
1138 31-12-2014 11:00:00 3.2 C 5.48 g/m*3 0.99 C 8.1 km/h
1139 31-12-2014 11:05:00 3.2 C 5.48 g/m*3 0.58 C 9.7 km/h
1140 31-12-2014 11:10:00 3.2 C 5.48 g/m*3 0.58 C 9.7 km/h
1141 31-12-2014 11:15:00 3.3 C 5.52 g/m*3 1.11 C 8.1 km/h
1142 31-12-2014 11:20:00 3.3 C 5.52 g/m*3 1.11 C 8.1 km/h
1143 31-12-2014 11:25:00 3.3 C 5.52 g/m*3 1.63 C 6.4 km/h
1144 31-12-2014 11:30:00 3.4 C 5.56 g/m*3 1.23 C 8.1 km/h
1145 31-12-2014 11:35:00 3.4 C 5.56 g/m*3 1.75 C 6.4 km/h
1146 31-12-2014 11:40:00 3.5 C 5.6 g/m*3 1.34 C 8.1 km/h
1147 31-12-2014 11:45:00 3.6 C 5.63 g/m*3 1.46 C 8.1 km/h
1148 31-12-2014 11:50:00 3.6 C 5.63 g/m*3 3.6 C 4.8 km/h
1149 31-12-2014 11:55:00 3.6 C 5.63 g/m*3 3.6 C 4.8 km/h
1150 31-12-2014 12:00:00 3.6 C 5.63 g/m*3 3.6 C 4.8 km/h
Sensor: Nr:Datum:Temp:Abs-Feuchte:Windchill:Wind:
Aussen-T/F 1151 31-12-2014 17:10:00 3.3 C 6.07 g/m*3 3.3 C 1.6 km/h
1152 31-12-2014 17:15:00 3.2 C 6.03 g/m*3 3.2 C 3.2 km/h
1153 31-12-2014 17:20:00 3.2 C 6.03 g/m*3 3.2 C 1.6 km/h
1154 31-12-2014 17:25:00 3.2 C 6.03 g/m*3 3.2 C 3.2 km/h
1155 31-12-2014 17:30:00 3.2 C 6.03 g/m*3 0.58 C 9.7 km/h
1156 31-12-2014 17:35:00 3.2 C 6.03 g/m*3 3.2 C 3.2 km/h
1157 31-12-2014 17:40:00 3.2 C 6.03 g/m*3 3.2 C 3.2 km/h
1158 01-01-2015 00:15:00 2.6 C 5.79 g/m*3 2.6 C 0 km/h
1159 01-01-2015 00:20:00 2.6 C 5.79 g/m*3 2.6 C 0 km/h
1160 01-01-2015 00:25:00 2.6 C 5.79 g/m*3 2.6 C 0 km/h
1161 01-01-2015 00:30:00 2.6 C 5.79 g/m*3 2.6 C 1.6 km/h
1162 01-01-2015 00:35:00 2.7 C 5.59 g/m*3 2.7 C 0 km/h
1163 01-01-2015 00:40:00 2.7 C 5.59 g/m*3 2.7 C 0 km/h
1164 01-01-2015 00:45:00 2.7 C 5.59 g/m*3 2.7 C 1.6 km/h
1165 01-01-2015 00:50:00 2.7 C 5.59 g/m*3 2.7 C 0 km/h
1166 01-01-2015 00:55:00 2.7 C 5.59 g/m*3 2.7 C 0 km/h
1167 01-01-2015 01:00:00 2.7 C 5.59 g/m*3 2.7 C 1.6 km/h
1168 01-01-2015 01:05:00 2.8 C 5.63 g/m*3 2.8 C 1.6 km/h
1169 01-01-2015 01:10:00 2.8 C 5.63 g/m*3 2.8 C 0 km/h
1170 01-01-2015 01:15:00 2.8 C 5.63 g/m*3 2.8 C 0 km/h
1171 01-01-2015 01:20:00 2.8 C 5.63 g/m*3 2.8 C 1.6 km/h
1172 01-01-2015 01:25:00 2.9 C 5.67 g/m*3 2.9 C 0 km/h
1173 01-01-2015 01:30:00 2.9 C 5.67 g/m*3 2.9 C 1.6 km/h
1174 01-01-2015 01:35:00 2.9 C 5.67 g/m*3 2.9 C 0 km/h
1175 01-01-2015 01:40:00 2.9 C 5.67 g/m*3 2.9 C 0 km/h
Sensor: Nr:Datum:Temp:Abs-Feuchte:Windchill:Wind:
Aussen-T/F 1176 01-01-2015 01:45:00 2.9 C 5.67 g/m*3 2.9 C 1.6 km/h
1177 01-01-2015 01:50:00 2.9 C 5.67 g/m*3 2.9 C 0 km/h
1178 01-01-2015 01:55:00 2.9 C 5.67 g/m*3 2.9 C 0 km/h
1179 01-01-2015 02:00:00 2.8 C 5.63 g/m*3 2.8 C 0 km/h
1180 01-01-2015 02:05:00 2.8 C 5.63 g/m*3 2.8 C 0 km/h
1181 01-01-2015 02:10:00 2.8 C 5.63 g/m*3 2.8 C 0 km/h
1182 01-01-2015 02:15:00 2.8 C 5.63 g/m*3 2.8 C 0 km/h
1183 01-01-2015 02:20:00 2.8 C 5.63 g/m*3 2.8 C 0 km/h
1184 01-01-2015 02:25:00 2.8 C 5.63 g/m*3 2.8 C 0 km/h
1185 01-01-2015 02:30:00 2.8 C 5.63 g/m*3 2.8 C 0 km/h
1186 01-01-2015 02:35:00 2.8 C 5.63 g/m*3 2.8 C 0 km/h
1187 01-01-2015 02:40:00 2.7 C 5.59 g/m*3 2.7 C 0 km/h
1188 01-01-2015 02:45:00 2.7 C 5.59 g/m*3 2.7 C 0 km/h
1189 01-01-2015 02:50:00 2.7 C 5.59 g/m*3 2.7 C 0 km/h
1190 01-01-2015 02:55:00 2.6 C 5.56 g/m*3 2.6 C 0 km/h
1191 01-01-2015 03:00:00 2.5 C 5.52 g/m*3 2.5 C 0 km/h
1192 01-01-2015 03:05:00 2.4 C 5.42 g/m*3 2.4 C 0 km/h
1193 01-01-2015 03:10:00 2.2 C 5.35 g/m*3 2.2 C 3.2 km/h
1194 01-01-2015 03:15:00 1.9 C 5.24 g/m*3 1.9 C 3.2 km/h
1195 01-01-2015 03:20:00 1.8 C 5.21 g/m*3 1.8 C 3.2 km/h
1196 01-01-2015 03:25:00 1.8 C 5.26 g/m*3 1.8 C 3.2 km/h
1197 01-01-2015 03:30:00 1.7 C 5.23 g/m*3 1.7 C 0 km/h
1198 01-01-2015 03:35:00 1.6 C 5.19 g/m*3 1.6 C 1.6 km/h
1199 01-01-2015 03:40:00 1.6 C 5.19 g/m*3 1.6 C 1.6 km/h
1200 01-01-2015 03:45:00 1.4 C 5.12 g/m*3 1.4 C 3.2 km/h
Sensor: Nr:Datum:Temp:Abs-Feuchte:Windchill:Wind:
Aussen-T/F 1201 01-01-2015 03:50:00 1.4 C 5.12 g/m*3 1.4 C 3.2 km/h
1202 01-01-2015 03:55:00 1.3 C 5.09 g/m*3 1.3 C 0 km/h
1203 01-01-2015 04:00:00 1.3 C 5.09 g/m*3 1.3 C 1.6 km/h
1204 01-01-2015 04:05:00 1.3 C 5.09 g/m*3 1.3 C 0 km/h
1205 01-01-2015 04:10:00 1.2 C 5.05 g/m*3 1.2 C 3.2 km/h
1206 01-01-2015 04:15:00 1.1 C 5.02 g/m*3 1.1 C 1.6 km/h
1207 01-01-2015 04:20:00 1 C 4.98 g/m*3 1 C 1.6 km/h
1208 01-01-2015 04:25:00 0.9 C 4.95 g/m*3 0.9 C 4.8 km/h
1209 01-01-2015 04:30:00 0.9 C 4.95 g/m*3 0.9 C 4.8 km/h
1210 01-01-2015 04:35:00 0.9 C 4.95 g/m*3 0.9 C 1.6 km/h
1211 01-01-2015 04:40:00 0.9 C 5 g/m*3 0.9 C 3.2 km/h
1212 01-01-2015 04:45:00 0.9 C 5 g/m*3 0.9 C 1.6 km/h
1213 01-01-2015 04:50:00 0.9 C 5 g/m*3 0.9 C 3.2 km/h
1214 01-01-2015 04:55:00 1 C 5.03 g/m*3 1 C 1.6 km/h
1215 01-01-2015 05:00:00 1.1 C 5.07 g/m*3 1.1 C 1.6 km/h
1216 01-01-2015 05:05:00 1.2 C 5.1 g/m*3 1.2 C 3.2 km/h
1217 01-01-2015 05:10:00 1.3 C 5.14 g/m*3 1.3 C 0 km/h
1218 01-01-2015 05:15:00 1.4 C 5.17 g/m*3 1.4 C 1.6 km/h
1219 01-01-2015 05:20:00 1.5 C 5.21 g/m*3 1.5 C 0 km/h
1220 01-01-2015 05:25:00 1.5 C 5.21 g/m*3 1.5 C 0 km/h
1221 01-01-2015 05:30:00 1.5 C 5.21 g/m*3 1.5 C 1.6 km/h
1222 01-01-2015 05:35:00 1.6 C 5.25 g/m*3 1.6 C 0 km/h
1223 01-01-2015 05:40:00 1.7 C 5.28 g/m*3 1.7 C 3.2 km/h
1224 01-01-2015 05:45:00 1.7 C 5.28 g/m*3 1.7 C 0 km/h
1225 01-01-2015 05:50:00 1.8 C 5.32 g/m*3 1.8 C 4.8 km/h
Sensor: Nr:Datum:Temp:Abs-Feuchte:Windchill:Wind:
Aussen-T/F 1226 01-01-2015 05:55:00 1.8 C 5.32 g/m*3 1.8 C 3.2 km/h
1227 01-01-2015 06:00:00 1.8 C 5.32 g/m*3 -0.1 C 6.4 km/h
1228 01-01-2015 06:05:00 1.8 C 5.32 g/m*3 -0.1 C 6.4 km/h
1229 01-01-2015 06:10:00 1.8 C 5.32 g/m*3 1.8 C 4.8 km/h
1230 01-01-2015 06:15:00 1.8 C 5.32 g/m*3 1.8 C 3.2 km/h
1231 01-01-2015 06:20:00 1.8 C 5.32 g/m*3 1.8 C 4.8 km/h
1232 01-01-2015 06:25:00 1.8 C 5.32 g/m*3 1.8 C 3.2 km/h
1233 01-01-2015 06:30:00 1.8 C 5.32 g/m*3 1.8 C 4.8 km/h
1234 01-01-2015 06:35:00 1.8 C 5.32 g/m*3 -0.65 C 8.1 km/h
1235 01-01-2015 06:40:00 1.8 C 5.32 g/m*3 1.8 C 4.8 km/h
1236 01-01-2015 06:45:00 1.8 C 5.32 g/m*3 -0.1 C 6.4 km/h
1237 01-01-2015 06:50:00 1.8 C 5.32 g/m*3 -0.65 C 8.1 km/h
1238 01-01-2015 06:55:00 1.8 C 5.32 g/m*3 1.8 C 4.8 km/h
1239 01-01-2015 07:00:00 1.8 C 5.32 g/m*3 -0.1 C 6.4 km/h
1240 01-01-2015 07:05:00 1.8 C 5.32 g/m*3 1.8 C 1.6 km/h
1241 01-01-2015 07:10:00 1.8 C 5.32 g/m*3 1.8 C 3.2 km/h
1242 01-01-2015 07:15:00 1.8 C 5.32 g/m*3 1.8 C 3.2 km/h
1243 01-01-2015 07:20:00 1.7 C 5.28 g/m*3 1.7 C 0 km/h
1244 01-01-2015 07:25:00 1.7 C 5.28 g/m*3 1.7 C 3.2 km/h
1245 01-01-2015 07:30:00 1.7 C 5.28 g/m*3 1.7 C 4.8 km/h
1246 01-01-2015 07:35:00 1.7 C 5.28 g/m*3 1.7 C 1.6 km/h
1247 01-01-2015 07:40:00 1.7 C 5.28 g/m*3 1.7 C 4.8 km/h
1248 01-01-2015 07:45:00 1.6 C 5.25 g/m*3 1.6 C 3.2 km/h
1249 01-01-2015 07:50:00 1.6 C 5.25 g/m*3 1.6 C 0 km/h
1250 01-01-2015 07:55:00 1.6 C 5.25 g/m*3 1.6 C 3.2 km/h
Sensor: Nr:Datum:Temp:Abs-Feuchte:Windchill:Wind:
Aussen-T/F 1251 01-01-2015 08:00:00 1.6 C 5.25 g/m*3 1.6 C 3.2 km/h
1252 01-01-2015 08:05:00 1.6 C 5.25 g/m*3 1.6 C 1.6 km/h
1253 01-01-2015 08:10:00 1.6 C 5.25 g/m*3 1.6 C 3.2 km/h
1254 01-01-2015 08:15:00 1.6 C 5.25 g/m*3 1.6 C 1.6 km/h
1255 01-01-2015 08:20:00 1.6 C 5.25 g/m*3 1.6 C 0 km/h
1256 01-01-2015 08:25:00 1.5 C 5.21 g/m*3 1.5 C 1.6 km/h
1257 01-01-2015 08:30:00 1.5 C 5.21 g/m*3 1.5 C 0 km/h
1258 01-01-2015 08:35:00 1.5 C 5.21 g/m*3 1.5 C 0 km/h
1259 01-01-2015 16:40:00 1.8 C 5.48 g/m*3 1.8 C 1.6 km/h
1260 01-01-2015 16:45:00 1.8 C 5.48 g/m*3 1.8 C 3.2 km/h
1261 01-01-2015 18:30:00 1.9 C 5.24 g/m*3 1.9 C 3.2 km/h
1262 01-01-2015 18:35:00 1.8 C 5.15 g/m*3 1.8 C 1.6 km/h
1263 01-01-2015 18:40:00 1.7 C 5.17 g/m*3 1.7 C 3.2 km/h
1264 01-01-2015 18:45:00 1.6 C 5.14 g/m*3 1.6 C 0 km/h
1265 01-01-2015 18:50:00 1.6 C 5.14 g/m*3 1.6 C 0 km/h
1266 01-01-2015 18:55:00 1.5 C 5.1 g/m*3 1.5 C 0 km/h
1267 01-01-2015 19:00:00 1.3 C 5.03 g/m*3 1.3 C 0 km/h
1268 01-01-2015 19:05:00 1.2 C 5 g/m*3 1.2 C 1.6 km/h
1269 01-01-2015 19:10:00 1.2 C 5 g/m*3 1.2 C 3.2 km/h
1270 01-01-2015 19:15:00 1.2 C 5.05 g/m*3 1.2 C 3.2 km/h
1271 01-01-2015 19:20:00 1.1 C 4.96 g/m*3 1.1 C 1.6 km/h
1272 01-01-2015 19:25:00 1.1 C 4.96 g/m*3 1.1 C 3.2 km/h
1273 01-01-2015 19:30:00 1.1 C 4.96 g/m*3 1.1 C 1.6 km/h
1274 02-01-2015 03:25:00 2.2 C 4.96 g/m*3 -0.99 C 11.3 km/h
1275 02-01-2015 03:30:00 2.2 C 4.96 g/m*3 2.2 C 1.6 km/h
Sensor: Nr:Datum:Temp:Abs-Feuchte:Windchill:Wind:
Aussen-T/F 1276 02-01-2015 03:35:00 2.2 C 4.96 g/m*3 -0.61 C 9.7 km/h
1277 02-01-2015 05:05:00 3.2 C 4.94 g/m*3 -0.1 C 12.9 km/h
1278 02-01-2015 05:10:00 3.2 C 4.94 g/m*3 0.22 C 11.3 km/h
1279 02-01-2015 05:15:00 3.2 C 4.94 g/m*3 -1.32 C 20.9 km/h
1280 02-01-2015 05:20:00 3.2 C 4.94 g/m*3 0.22 C 11.3 km/h
1281 02-01-2015 05:25:00 3.2 C 4.94 g/m*3 0.22 C 11.3 km/h
1282 02-01-2015 05:30:00 3.2 C 4.94 g/m*3 -0.39 C 14.5 km/h
1283 02-01-2015 06:25:00 3.6 C 4.95 g/m*3 -0.15 C 16.1 km/h
1284 02-01-2015 06:30:00 3.4 C 4.95 g/m*3 -0.14 C 14.5 km/h
1285 02-01-2015 06:35:00 3.3 C 4.97 g/m*3 -1.57 C 24.1 km/h
1286 02-01-2015 06:40:00 3.3 C 4.97 g/m*3 -0.76 C 17.7 km/h
1287 02-01-2015 06:45:00 3.3 C 5.04 g/m*3 -1.19 C 20.9 km/h
1288 02-01-2015 06:50:00 3.2 C 5 g/m*3 -1.11 C 19.3 km/h
1289 02-01-2015 06:55:00 3.2 C 5 g/m*3 -1.87 C 25.7 km/h
1290 02-01-2015 07:00:00 3.3 C 5.04 g/m*3 -1.74 C 25.7 km/h
1291 02-01-2015 07:05:00 3.2 C 5 g/m*3 -1.51 C 22.5 km/h
1292 02-01-2015 07:10:00 3.2 C 5 g/m*3 -0.89 C 17.7 km/h
1293 02-01-2015 07:15:00 3.2 C 5.06 g/m*3 0.22 C 11.3 km/h
1294 02-01-2015 07:20:00 3.1 C 5.03 g/m*3 -1.64 C 22.5 km/h
1295 02-01-2015 07:25:00 3.1 C 5.09 g/m*3 -1.45 C 20.9 km/h
1296 02-01-2015 07:30:00 3.1 C 5.09 g/m*3 -2.18 C 27.4 km/h
1297 02-01-2015 07:35:00 3 C 5.05 g/m*3 -0.9 C 16.1 km/h
1298 02-01-2015 07:40:00 3 C 5.05 g/m*3 -0.34 C 12.9 km/h
1299 02-01-2015 07:45:00 2.9 C 5.08 g/m*3 -0.76 C 14.5 km/h
1300 02-01-2015 07:50:00 2.9 C 5.08 g/m*3 -0.46 C 12.9 km/h
Sensor: Nr:Datum:Temp:Abs-Feuchte:Windchill:Wind:
Aussen-T/F 1301 02-01-2015 07:55:00 2.9 C 5.08 g/m*3 -0.76 C 14.5 km/h
1302 02-01-2015 08:00:00 2.8 C 5.1 g/m*3 -2.02 C 22.5 km/h
1303 02-01-2015 08:05:00 2.8 C 5.1 g/m*3 0.52 C 8.1 km/h
1304 02-01-2015 08:10:00 2.8 C 5.1 g/m*3 -0.26 C 11.3 km/h
1305 02-01-2015 08:15:00 2.8 C 5.1 g/m*3 -1.61 C 19.3 km/h
1306 02-01-2015 08:20:00 2.7 C 5.13 g/m*3 -2.34 C 24.1 km/h
1307 02-01-2015 08:25:00 2.8 C 5.16 g/m*3 -1.61 C 19.3 km/h
1308 02-01-2015 08:30:00 2.8 C 5.16 g/m*3 -0.88 C 14.5 km/h
1309 02-01-2015 08:35:00 2.8 C 5.16 g/m*3 -1.39 C 17.7 km/h
1310 02-01-2015 08:40:00 2.7 C 5.13 g/m*3 -1.95 C 20.9 km/h
1311 02-01-2015 08:45:00 2.8 C 5.16 g/m*3 -2.57 C 27.4 km/h
1312 02-01-2015 08:50:00 2.8 C 5.22 g/m*3 -1.39 C 17.7 km/h
1313 02-01-2015 08:55:00 2.7 C 5.19 g/m*3 -1.74 C 19.3 km/h
1314 02-01-2015 09:00:00 2.7 C 5.19 g/m*3 -1.51 C 17.7 km/h
1315 02-01-2015 09:05:00 2.7 C 5.24 g/m*3 -1.27 C 16.1 km/h
1316 02-01-2015 09:10:00 2.7 C 5.24 g/m*3 -2.15 C 22.5 km/h
1317 02-01-2015 09:15:00 2.7 C 5.24 g/m*3 -2.15 C 22.5 km/h
1318 02-01-2015 09:20:00 2.7 C 5.24 g/m*3 -1.95 C 20.9 km/h
1319 02-01-2015 09:25:00 2.7 C 5.24 g/m*3 -2.34 C 24.1 km/h
1320 02-01-2015 09:30:00 2.7 C 5.3 g/m*3 -2.34 C 24.1 km/h
1321 02-01-2015 09:35:00 2.7 C 5.3 g/m*3 -1.27 C 16.1 km/h
1322 02-01-2015 09:40:00 2.7 C 5.24 g/m*3 -2.34 C 24.1 km/h
1323 02-01-2015 09:45:00 2.8 C 5.28 g/m*3 -2.39 C 25.7 km/h
1324 02-01-2015 09:50:00 2.8 C 5.28 g/m*3 -1.39 C 17.7 km/h
1325 02-01-2015 09:55:00 2.8 C 5.28 g/m*3 -1.83 C 20.9 km/h
Sensor: Nr:Datum:Temp:Abs-Feuchte:Windchill:Wind:
Aussen-T/F 1326 02-01-2015 10:00:00 2.9 C 5.32 g/m*3 -1.02 C 16.1 km/h
1327 02-01-2015 10:05:00 2.9 C 5.32 g/m*3 -2.26 C 25.7 km/h
1328 02-01-2015 10:10:00 3 C 5.35 g/m*3 -1.77 C 22.5 km/h
1329 02-01-2015 10:15:00 3.1 C 5.39 g/m*3 -1.83 C 24.1 km/h
1330 02-01-2015 10:20:00 3.1 C 5.39 g/m*3 -1.45 C 20.9 km/h
1331 02-01-2015 10:25:00 3.2 C 5.42 g/m*3 -1.7 C 24.1 km/h
1332 02-01-2015 10:30:00 3.2 C 5.42 g/m*3 -0.89 C 17.7 km/h
1333 02-01-2015 10:35:00 3.3 C 5.4 g/m*3 -0.76 C 17.7 km/h
1334 02-01-2015 10:40:00 3.3 C 5.4 g/m*3 -1.19 C 20.9 km/h
1335 02-01-2015 10:45:00 3.3 C 5.4 g/m*3 -0.99 C 19.3 km/h
1336 02-01-2015 10:50:00 3.3 C 5.4 g/m*3 -0.76 C 17.7 km/h
1337 02-01-2015 10:55:00 3.4 C 5.44 g/m*3 -1.44 C 24.1 km/h
1338 02-01-2015 11:00:00 3.4 C 5.44 g/m*3 -0.64 C 17.7 km/h
1339 02-01-2015 11:05:00 3.5 C 5.47 g/m*3 -0.28 C 16.1 km/h
1340 02-01-2015 11:10:00 3.5 C 5.47 g/m*3 -1.49 C 25.7 km/h
1341 02-01-2015 11:15:00 3.5 C 5.47 g/m*3 0.58 C 11.3 km/h
1342 02-01-2015 11:20:00 3.6 C 5.51 g/m*3 -1.01 C 22.5 km/h
1343 02-01-2015 11:25:00 3.6 C 5.51 g/m*3 -1.19 C 24.1 km/h
1344 02-01-2015 11:30:00 3.7 C 5.55 g/m*3 -0.88 C 22.5 km/h
1345 02-01-2015 11:35:00 3.7 C 5.55 g/m*3 -1.23 C 25.7 km/h
1346 02-01-2015 11:40:00 3.7 C 5.55 g/m*3 -0.69 C 20.9 km/h
1347 02-01-2015 11:45:00 3.8 C 5.58 g/m*3 -0.75 C 22.5 km/h
1348 02-01-2015 11:50:00 3.8 C 5.58 g/m*3 -0.56 C 20.9 km/h
1349 02-01-2015 11:55:00 3.9 C 5.62 g/m*3 -0.97 C 25.7 km/h
1350 02-01-2015 12:00:00 3.9 C 5.62 g/m*3 -0.23 C 19.3 km/h
Sensor: Nr:Datum:Temp:Abs-Feuchte:Windchill:Wind:
Aussen-T/F 1351 02-01-2015 12:05:00 4.1 C 5.7 g/m*3 0.47 C 16.1 km/h
1352 02-01-2015 12:10:00 4.1 C 5.7 g/m*3 0.47 C 16.1 km/h
1353 02-01-2015 12:15:00 4.1 C 5.7 g/m*3 0.02 C 19.3 km/h
1354 02-01-2015 12:20:00 4.2 C 5.73 g/m*3 0.15 C 19.3 km/h
1355 02-01-2015 12:25:00 4.2 C 5.73 g/m*3 0.36 C 17.7 km/h
1356 02-01-2015 12:30:00 4.2 C 5.73 g/m*3 0.36 C 17.7 km/h
1357 02-01-2015 12:35:00 4.3 C 5.77 g/m*3 0.49 C 17.7 km/h
1358 02-01-2015 12:40:00 4.3 C 5.77 g/m*3 -0.11 C 22.5 km/h
1359 02-01-2015 12:45:00 4.4 C 5.81 g/m*3 0.61 C 17.7 km/h
1360 02-01-2015 12:50:00 4.5 C 5.85 g/m*3 0.74 C 17.7 km/h
1361 02-01-2015 12:55:00 4.6 C 5.89 g/m*3 0.86 C 17.7 km/h
1362 02-01-2015 13:00:00 4.6 C 5.89 g/m*3 0.45 C 20.9 km/h
1363 02-01-2015 13:05:00 4.5 C 5.85 g/m*3 0.33 C 20.9 km/h
1364 02-01-2015 13:10:00 4.5 C 5.85 g/m*3 0.96 C 16.1 km/h
1365 02-01-2015 13:15:00 4.6 C 5.89 g/m*3 0.86 C 17.7 km/h
1366 02-01-2015 13:20:00 4.6 C 5.96 g/m*3 0.86 C 17.7 km/h
1367 02-01-2015 13:25:00 4.7 C 5.93 g/m*3 0.22 C 24.1 km/h
1368 02-01-2015 13:30:00 4.7 C 5.93 g/m*3 0.78 C 19.3 km/h
1369 02-01-2015 13:35:00 4.6 C 5.89 g/m*3 0.65 C 19.3 km/h
1370 02-01-2015 13:40:00 4.6 C 5.96 g/m*3 1.34 C 14.5 km/h
1371 02-01-2015 13:45:00 4.6 C 5.96 g/m*3 0.45 C 20.9 km/h
1372 02-01-2015 13:50:00 4.6 C 5.96 g/m*3 0.65 C 19.3 km/h
1373 02-01-2015 13:55:00 4.6 C 5.96 g/m*3 1.09 C 16.1 km/h
1374 02-01-2015 14:00:00 4.5 C 5.92 g/m*3 1.21 C 14.5 km/h
1375 02-01-2015 14:05:00 4.5 C 5.92 g/m*3 1.79 C 11.3 km/h
Sensor: Nr:Datum:Temp:Abs-Feuchte:Windchill:Wind:
Aussen-T/F 1376 02-01-2015 14:10:00 4.5 C 5.92 g/m*3 0.96 C 16.1 km/h
1377 02-01-2015 14:15:00 4.5 C 5.92 g/m*3 0.14 C 22.5 km/h
1378 02-01-2015 14:20:00 4.5 C 5.98 g/m*3 1.79 C 11.3 km/h
1379 02-01-2015 14:25:00 4.5 C 5.98 g/m*3 0.52 C 19.3 km/h
1380 02-01-2015 14:30:00 4.6 C 6.02 g/m*3 1.09 C 16.1 km/h
1381 02-01-2015 14:35:00 4.6 C 6.02 g/m*3 0.1 C 24.1 km/h
1382 02-01-2015 14:40:00 4.6 C 6.02 g/m*3 0.45 C 20.9 km/h
1383 02-01-2015 14:45:00 4.6 C 6.02 g/m*3 1.09 C 16.1 km/h
1384 02-01-2015 14:50:00 4.6 C 6.02 g/m*3 1.34 C 14.5 km/h
1385 02-01-2015 14:55:00 4.5 C 5.98 g/m*3 1.21 C 14.5 km/h
1386 02-01-2015 15:00:00 4.5 C 6.05 g/m*3 0.96 C 16.1 km/h
1387 02-01-2015 15:05:00 4.4 C 6.07 g/m*3 1.09 C 14.5 km/h
1388 02-01-2015 15:10:00 4.4 C 6.07 g/m*3 0.84 C 16.1 km/h
1389 02-01-2015 15:15:00 4.4 C 6.07 g/m*3 1.36 C 12.9 km/h
1390 02-01-2015 15:20:00 4.4 C 6.07 g/m*3 2.01 C 9.7 km/h
1391 02-01-2015 15:25:00 4.4 C 6.14 g/m*3 0.84 C 16.1 km/h
1392 02-01-2015 15:30:00 4.4 C 6.14 g/m*3 1.09 C 14.5 km/h
1393 02-01-2015 15:35:00 4.4 C 6.07 g/m*3 1.67 C 11.3 km/h
1394 02-01-2015 15:40:00 4.4 C 6.14 g/m*3 0.61 C 17.7 km/h
1395 02-01-2015 15:45:00 4.4 C 6.14 g/m*3 1.09 C 14.5 km/h
1396 02-01-2015 15:50:00 4.4 C 6.14 g/m*3 2.01 C 9.7 km/h
1397 02-01-2015 15:55:00 4.4 C 6.14 g/m*3 1.67 C 11.3 km/h
1398 02-01-2015 16:00:00 4.3 C 6.1 g/m*3 0.97 C 14.5 km/h
1399 02-01-2015 16:05:00 4.3 C 6.1 g/m*3 1.24 C 12.9 km/h
1400 02-01-2015 16:10:00 4.3 C 6.1 g/m*3 1.89 C 9.7 km/h
Sensor: Nr:Datum:Temp:Abs-Feuchte:Windchill:Wind:
Aussen-T/F 1401 02-01-2015 16:15:00 4.3 C 6.1 g/m*3 2.29 C 8.1 km/h
1402 02-01-2015 16:20:00 4.3 C 6.1 g/m*3 0.97 C 14.5 km/h
1403 02-01-2015 16:25:00 4.3 C 6.1 g/m*3 0.72 C 16.1 km/h
1404 02-01-2015 16:30:00 4.4 C 6.14 g/m*3 0.2 C 20.9 km/h
1405 02-01-2015 16:35:00 4.5 C 6.18 g/m*3 1.21 C 14.5 km/h
1406 02-01-2015 16:40:00 4.5 C 6.11 g/m*3 0.74 C 17.7 km/h
1407 02-01-2015 16:45:00 4.4 C 6.07 g/m*3 1.36 C 12.9 km/h
1408 02-01-2015 16:50:00 4.4 C 6.07 g/m*3 1.36 C 12.9 km/h
1409 02-01-2015 16:55:00 4.3 C 6.03 g/m*3 1.24 C 12.9 km/h
1410 02-01-2015 17:00:00 4.3 C 6.1 g/m*3 0.07 C 20.9 km/h
1411 02-01-2015 17:05:00 4.3 C 6.1 g/m*3 0.97 C 14.5 km/h
1412 02-01-2015 17:10:00 4.3 C 6.1 g/m*3 2.29 C 8.1 km/h
1413 02-01-2015 17:15:00 4.3 C 6.1 g/m*3 2.29 C 8.1 km/h
1414 02-01-2015 23:30:00 2.4 C 5.2 g/m*3 2.4 C 3.2 km/h
1415 02-01-2015 23:35:00 2.5 C 5.23 g/m*3 0.71 C 6.4 km/h
1416 02-01-2015 23:40:00 2.6 C 5.27 g/m*3 0.82 C 6.4 km/h
1417 02-01-2015 23:45:00 2.6 C 5.27 g/m*3 2.6 C 4.8 km/h
1418 02-01-2015 23:50:00 2.4 C 5.14 g/m*3 0.59 C 6.4 km/h
1419 02-01-2015 23:55:00 2.4 C 5.14 g/m*3 2.4 C 1.6 km/h
1420 03-01-2015 00:00:00 2.2 C 5.13 g/m*3 2.2 C 1.6 km/h
1421 03-01-2015 00:05:00 2 C 5.06 g/m*3 2 C 1.6 km/h
1422 03-01-2015 00:10:00 1.8 C 5.04 g/m*3 1.8 C 4.8 km/h
1423 03-01-2015 00:15:00 1.8 C 5.04 g/m*3 1.8 C 3.2 km/h
1424 03-01-2015 00:20:00 1.8 C 5.1 g/m*3 1.8 C 3.2 km/h
1425 03-01-2015 00:25:00 1.9 C 5.13 g/m*3 0.01 C 6.4 km/h
Sensor: Nr:Datum:Temp:Abs-Feuchte:Windchill:Wind:
Aussen-T/F 1426 03-01-2015 00:30:00 2.1 C 5.2 g/m*3 0.24 C 6.4 km/h
1427 03-01-2015 00:35:00 2.2 C 5.18 g/m*3 0.36 C 6.4 km/h
1428 03-01-2015 00:40:00 2.3 C 5.16 g/m*3 2.3 C 4.8 km/h
1429 03-01-2015 00:45:00 2.5 C 5.23 g/m*3 -0.62 C 11.3 km/h
1430 03-01-2015 00:50:00 2.6 C 5.21 g/m*3 0.82 C 6.4 km/h
1431 03-01-2015 00:55:00 2.5 C 5.17 g/m*3 2.5 C 4.8 km/h
1432 03-01-2015 01:00:00 2.4 C 5.14 g/m*3 2.4 C 3.2 km/h
1433 03-01-2015 01:05:00 2.4 C 5.14 g/m*3 0.59 C 6.4 km/h
1434 03-01-2015 01:10:00 2.3 C 5.1 g/m*3 2.3 C 4.8 km/h
1435 03-01-2015 01:15:00 2.4 C 5.2 g/m*3 0.59 C 6.4 km/h
1436 03-01-2015 01:20:00 2.5 C 5.17 g/m*3 -0.62 C 11.3 km/h
1437 03-01-2015 01:25:00 2.5 C 5.17 g/m*3 0.17 C 8.1 km/h
1438 03-01-2015 01:30:00 2.4 C 5.14 g/m*3 0.59 C 6.4 km/h
1439 03-01-2015 01:35:00 2.4 C 5.14 g/m*3 -0.37 C 9.7 km/h
1440 03-01-2015 01:40:00 2.5 C 5.17 g/m*3 -0.62 C 11.3 km/h
1441 03-01-2015 01:45:00 2.5 C 5.17 g/m*3 0.71 C 6.4 km/h
1442 03-01-2015 01:50:00 2.5 C 5.17 g/m*3 0.17 C 8.1 km/h
1443 03-01-2015 01:55:00 2.6 C 5.21 g/m*3 -0.14 C 9.7 km/h
1444 03-01-2015 02:00:00 2.6 C 5.21 g/m*3 0.29 C 8.1 km/h
1445 03-01-2015 02:05:00 2.7 C 5.24 g/m*3 -0.71 C 12.9 km/h
1446 03-01-2015 02:10:00 2.7 C 5.24 g/m*3 0.4 C 8.1 km/h
1447 03-01-2015 02:15:00 2.7 C 5.24 g/m*3 -0.02 C 9.7 km/h
1448 03-01-2015 02:20:00 2.7 C 5.24 g/m*3 -0.02 C 9.7 km/h
1449 03-01-2015 02:25:00 2.7 C 5.24 g/m*3 0.4 C 8.1 km/h
1450 03-01-2015 02:30:00 2.7 C 5.24 g/m*3 -0.02 C 9.7 km/h
Sensor: Nr:Datum:Temp:Abs-Feuchte:Windchill:Wind:
Aussen-T/F 1451 03-01-2015 02:35:00 2.8 C 5.28 g/m*3 -0.26 C 11.3 km/h
1452 03-01-2015 02:40:00 2.8 C 5.28 g/m*3 0.1 C 9.7 km/h
1453 03-01-2015 02:45:00 2.8 C 5.22 g/m*3 0.1 C 9.7 km/h
1454 03-01-2015 02:50:00 2.8 C 5.22 g/m*3 -0.26 C 11.3 km/h
1455 03-01-2015 02:55:00 2.8 C 5.22 g/m*3 0.1 C 9.7 km/h
1456 03-01-2015 03:00:00 2.8 C 5.22 g/m*3 0.1 C 9.7 km/h
1457 03-01-2015 04:30:00 2.5 C 5.29 g/m*3 -0.62 C 11.3 km/h
1458 03-01-2015 04:35:00 2.5 C 5.29 g/m*3 -0.26 C 9.7 km/h
1459 03-01-2015 04:40:00 2.5 C 5.29 g/m*3 -0.95 C 12.9 km/h
1460 03-01-2015 04:45:00 2.4 C 5.25 g/m*3 -0.74 C 11.3 km/h
1461 03-01-2015 04:50:00 2.4 C 5.25 g/m*3 -1.07 C 12.9 km/h
1462 03-01-2015 04:55:00 2.4 C 5.25 g/m*3 -1.37 C 14.5 km/h
1463 03-01-2015 05:00:00 2.4 C 5.31 g/m*3 -1.07 C 12.9 km/h
1464 03-01-2015 05:05:00 2.4 C 5.31 g/m*3 -0.74 C 11.3 km/h
1465 03-01-2015 05:10:00 2.5 C 5.35 g/m*3 -0.26 C 9.7 km/h
1466 03-01-2015 05:15:00 2.5 C 5.35 g/m*3 -0.95 C 12.9 km/h
1467 03-01-2015 05:20:00 2.5 C 5.35 g/m*3 -0.62 C 11.3 km/h
1468 03-01-2015 05:25:00 2.6 C 5.38 g/m*3 -0.14 C 9.7 km/h
1469 03-01-2015 05:30:00 2.6 C 5.38 g/m*3 0.29 C 8.1 km/h
1470 03-01-2015 05:35:00 2.6 C 5.38 g/m*3 0.29 C 8.1 km/h
1471 03-01-2015 06:00:00 2.6 C 5.79 g/m*3 2.6 C 1.6 km/h
1472 03-01-2015 06:05:00 2.6 C 5.38 g/m*3 2.6 C 0 km/h
1473 03-01-2015 06:10:00 2.6 C 5.38 g/m*3 2.6 C 4.8 km/h
1474 03-01-2015 06:15:00 2.6 C 5.38 g/m*3 2.6 C 0 km/h
1475 03-01-2015 06:20:00 2.5 C 5.35 g/m*3 2.5 C 0 km/h
Sensor: Nr:Datum:Temp:Abs-Feuchte:Windchill:Wind:
Aussen-T/F 1476 03-01-2015 06:25:00 2.5 C 5.4 g/m*3 2.5 C 0 km/h
1477 03-01-2015 06:30:00 2.5 C 5.4 g/m*3 2.5 C 1.6 km/h
1478 03-01-2015 07:45:00 3 C 5.59 g/m*3 3 C 0 km/h
1479 03-01-2015 07:50:00 3.1 C 5.63 g/m*3 3.1 C 0 km/h
1480 03-01-2015 07:55:00 3.1 C 5.63 g/m*3 3.1 C 0 km/h
1481 03-01-2015 11:25:00 4.2 C 5.86 g/m*3 0.84 C 14.5 km/h
1482 03-01-2015 11:30:00 4.2 C 5.86 g/m*3 1.77 C 9.7 km/h
1483 03-01-2015 11:35:00 4.2 C 5.86 g/m*3 4.2 C 4.8 km/h
1484 03-01-2015 11:40:00 4.2 C 5.86 g/m*3 1.43 C 11.3 km/h
1485 03-01-2015 11:45:00 4.2 C 5.86 g/m*3 1.77 C 9.7 km/h
1486 03-01-2015 12:45:00 3.6 C 5.76 g/m*3 3.6 C 0 km/h
1487 03-01-2015 12:50:00 3.6 C 5.76 g/m*3 3.6 C 1.6 km/h
1488 03-01-2015 14:05:00 2.1 C 5.31 g/m*3 2.1 C 0 km/h
1489 03-01-2015 14:10:00 2 C 5.28 g/m*3 2 C 0 km/h
1490 03-01-2015 14:15:00 1.9 C 5.24 g/m*3 1.9 C 0 km/h
1491 03-01-2015 14:20:00 1.8 C 5.21 g/m*3 1.8 C 0 km/h
1492 03-01-2015 14:25:00 1.8 C 5.21 g/m*3 1.8 C 0 km/h
1493 03-01-2015 14:30:00 1.7 C 5.17 g/m*3 1.7 C 0 km/h
1494 03-01-2015 14:35:00 1.6 C 5.14 g/m*3 1.6 C 0 km/h
1495 03-01-2015 14:40:00 1.6 C 5.14 g/m*3 1.6 C 0 km/h
1496 03-01-2015 14:45:00 1.5 C 5.16 g/m*3 1.5 C 0 km/h
1497 03-01-2015 14:50:00 1.6 C 5.19 g/m*3 1.6 C 0 km/h
1498 03-01-2015 14:55:00 1.6 C 5.19 g/m*3 1.6 C 0 km/h
1499 03-01-2015 15:00:00 1.6 C 5.19 g/m*3 1.6 C 0 km/h
1500 03-01-2015 15:05:00 1.7 C 5.23 g/m*3 1.7 C 0 km/h
Sensor: Nr:Datum:Temp:Abs-Feuchte:Windchill:Wind:
Aussen-T/F 1501 03-01-2015 15:10:00 1.7 C 5.23 g/m*3 1.7 C 0 km/h
1502 03-01-2015 15:15:00 1.7 C 5.23 g/m*3 1.7 C 0 km/h
1503 03-01-2015 15:20:00 1.7 C 5.23 g/m*3 1.7 C 0 km/h
1504 03-01-2015 17:40:00 1.8 C 5.26 g/m*3 1.8 C 0 km/h
1505 03-01-2015 17:45:00 1.6 C 5.19 g/m*3 1.6 C 0 km/h
1506 03-01-2015 17:50:00 1.6 C 5.25 g/m*3 1.6 C 0 km/h
1507 03-01-2015 17:55:00 1.6 C 5.25 g/m*3 1.6 C 0 km/h
1508 03-01-2015 18:00:00 1.6 C 5.25 g/m*3 1.6 C 0 km/h
1509 03-01-2015 18:05:00 1.6 C 5.25 g/m*3 1.6 C 1.6 km/h
1510 03-01-2015 18:10:00 1.7 C 5.28 g/m*3 1.7 C 0 km/h
1511 03-01-2015 18:15:00 1.7 C 5.28 g/m*3 1.7 C 3.2 km/h
1512 03-01-2015 18:20:00 1.7 C 5.28 g/m*3 1.7 C 0 km/h
1513 03-01-2015 18:25:00 1.6 C 5.25 g/m*3 1.6 C 0 km/h
1514 03-01-2015 18:30:00 1.4 C 5.17 g/m*3 1.4 C 0 km/h
1515 03-01-2015 18:35:00 1.3 C 5.14 g/m*3 1.3 C 0 km/h
1516 03-01-2015 18:40:00 1.3 C 5.14 g/m*3 1.3 C 0 km/h
1517 03-01-2015 18:45:00 1.2 C 5.1 g/m*3 1.2 C 0 km/h
1518 03-01-2015 18:50:00 1.2 C 5.1 g/m*3 1.2 C 0 km/h
1519 03-01-2015 18:55:00 1.2 C 5.1 g/m*3 1.2 C 0 km/h
1520 03-01-2015 19:00:00 1.1 C 5.07 g/m*3 1.1 C 0 km/h
1521 03-01-2015 19:05:00 1.1 C 5.07 g/m*3 1.1 C 0 km/h
1522 03-01-2015 19:10:00 1.1 C 5.07 g/m*3 1.1 C 0 km/h
1523 03-01-2015 19:15:00 1 C 5.03 g/m*3 1 C 0 km/h
1524 03-01-2015 19:20:00 1 C 5.03 g/m*3 1 C 0 km/h
1525 03-01-2015 19:25:00 1 C 5.03 g/m*3 1 C 0 km/h
Sensor: Nr:Datum:Temp:Abs-Feuchte:Windchill:Wind:
Aussen-T/F 1526 03-01-2015 19:30:00 0.9 C 5 g/m*3 0.9 C 0 km/h
1527 03-01-2015 19:35:00 1 C 5.03 g/m*3 1 C 0 km/h
1528 03-01-2015 19:40:00 1 C 5.03 g/m*3 1 C 0 km/h
1529 03-01-2015 19:45:00 1 C 5.03 g/m*3 1 C 0 km/h
1530 03-01-2015 19:50:00 1 C 5.03 g/m*3 1 C 0 km/h
1531 03-01-2015 19:55:00 1 C 5.03 g/m*3 1 C 0 km/h
1532 03-01-2015 20:00:00 1 C 5.03 g/m*3 1 C 0 km/h
1533 03-01-2015 20:05:00 1 C 5.03 g/m*3 1 C 0 km/h
1534 03-01-2015 20:10:00 0.9 C 5 g/m*3 0.9 C 0 km/h
1535 03-01-2015 20:15:00 0.9 C 5 g/m*3 0.9 C 0 km/h
1536 03-01-2015 20:20:00 0.9 C 5 g/m*3 0.9 C 0 km/h
1537 03-01-2015 20:25:00 0.9 C 5 g/m*3 0.9 C 0 km/h
1538 03-01-2015 20:30:00 0.9 C 5 g/m*3 0.9 C 0 km/h
1539 03-01-2015 20:35:00 0.8 C 4.97 g/m*3 0.8 C 0 km/h
1540 03-01-2015 20:40:00 0.9 C 5 g/m*3 0.9 C 0 km/h
1541 03-01-2015 20:45:00 0.8 C 5.02 g/m*3 0.8 C 0 km/h
1542 03-01-2015 20:50:00 0.9 C 5.05 g/m*3 0.9 C 0 km/h
1543 03-01-2015 20:55:00 0.9 C 5.05 g/m*3 0.9 C 0 km/h
1544 03-01-2015 21:00:00 0.9 C 5.05 g/m*3 0.9 C 1.6 km/h
1545 03-01-2015 21:05:00 0.9 C 5.05 g/m*3 0.9 C 3.2 km/h
1546 03-01-2015 21:10:00 0.9 C 5.05 g/m*3 -1.14 C 6.4 km/h
1547 03-01-2015 21:15:00 0.9 C 5.05 g/m*3 0.9 C 3.2 km/h
1548 03-01-2015 21:20:00 1 C 5.09 g/m*3 1 C 3.2 km/h
1549 03-01-2015 21:25:00 1.1 C 5.12 g/m*3 1.1 C 0 km/h
1550 03-01-2015 21:30:00 1.2 C 5.16 g/m*3 1.2 C 4.8 km/h
Sensor: Nr:Datum:Temp:Abs-Feuchte:Windchill:Wind:
Aussen-T/F 1551 03-01-2015 21:35:00 1.3 C 5.19 g/m*3 -0.68 C 6.4 km/h
1552 03-01-2015 21:40:00 1.3 C 5.19 g/m*3 1.3 C 4.8 km/h
1553 03-01-2015 21:45:00 1.3 C 5.19 g/m*3 1.3 C 4.8 km/h
1554 03-01-2015 21:50:00 1.3 C 5.19 g/m*3 1.3 C 3.2 km/h
1555 03-01-2015 21:55:00 1.3 C 5.19 g/m*3 1.3 C 1.6 km/h
1556 03-01-2015 22:00:00 1.3 C 5.19 g/m*3 1.3 C 4.8 km/h
1557 03-01-2015 22:05:00 1.3 C 5.19 g/m*3 1.3 C 1.6 km/h
1558 03-01-2015 22:10:00 1.3 C 5.19 g/m*3 1.3 C 4.8 km/h
1559 03-01-2015 22:15:00 1.4 C 5.23 g/m*3 1.4 C 4.8 km/h
1560 03-01-2015 22:20:00 1.5 C 5.26 g/m*3 1.5 C 3.2 km/h
1561 03-01-2015 22:25:00 1.4 C 5.23 g/m*3 1.4 C 4.8 km/h
1562 03-01-2015 22:30:00 1.4 C 5.23 g/m*3 1.4 C 3.2 km/h
1563 03-01-2015 22:35:00 1.6 C 5.3 g/m*3 1.6 C 4.8 km/h
1564 03-01-2015 22:40:00 1.6 C 5.3 g/m*3 1.6 C 1.6 km/h
1565 03-01-2015 22:45:00 1.7 C 5.34 g/m*3 1.7 C 4.8 km/h
1566 03-01-2015 22:50:00 1.8 C 5.37 g/m*3 -0.65 C 8.1 km/h
1567 03-01-2015 22:55:00 1.8 C 5.37 g/m*3 -0.65 C 8.1 km/h
1568 03-01-2015 23:00:00 1.9 C 5.41 g/m*3 0.01 C 6.4 km/h
1569 03-01-2015 23:05:00 1.9 C 5.41 g/m*3 -0.54 C 8.1 km/h
1570 03-01-2015 23:10:00 2 C 5.39 g/m*3 2 C 4.8 km/h
1571 03-01-2015 23:15:00 2 C 5.39 g/m*3 2 C 3.2 km/h
1572 03-01-2015 23:20:00 2 C 5.39 g/m*3 2 C 0 km/h
1573 03-01-2015 23:25:00 1.9 C 5.35 g/m*3 1.9 C 4.8 km/h
1574 03-01-2015 23:30:00 1.9 C 5.35 g/m*3 1.9 C 0 km/h
1575 03-01-2015 23:35:00 2 C 5.39 g/m*3 0.13 C 6.4 km/h
Sensor: Nr:Datum:Temp:Abs-Feuchte:Windchill:Wind:
Aussen-T/F 1576 03-01-2015 23:40:00 2 C 5.39 g/m*3 2 C 1.6 km/h
1577 03-01-2015 23:45:00 2 C 5.39 g/m*3 2 C 4.8 km/h
1578 03-01-2015 23:50:00 2 C 5.39 g/m*3 0.13 C 6.4 km/h
1579 03-01-2015 23:55:00 2 C 5.39 g/m*3 2 C 3.2 km/h
1580 04-01-2015 00:00:00 2 C 5.39 g/m*3 2 C 1.6 km/h
1581 04-01-2015 00:05:00 2 C 5.39 g/m*3 2 C 3.2 km/h
1582 04-01-2015 00:10:00 2 C 5.39 g/m*3 2 C 3.2 km/h
1583 04-01-2015 00:15:00 2.1 C 5.43 g/m*3 0.24 C 6.4 km/h
1584 04-01-2015 00:20:00 2.2 C 5.46 g/m*3 2.2 C 1.6 km/h
1585 04-01-2015 00:25:00 2.1 C 5.43 g/m*3 2.1 C 4.8 km/h
1586 04-01-2015 00:30:00 2.1 C 5.43 g/m*3 2.1 C 4.8 km/h
1587 04-01-2015 00:35:00 2 C 5.39 g/m*3 2 C 3.2 km/h
1588 04-01-2015 00:40:00 2 C 5.39 g/m*3 0.13 C 6.4 km/h
1589 04-01-2015 00:45:00 2.1 C 5.43 g/m*3 0.24 C 6.4 km/h
1590 04-01-2015 00:50:00 2.1 C 5.43 g/m*3 2.1 C 3.2 km/h
1591 04-01-2015 00:55:00 2.1 C 5.43 g/m*3 2.1 C 4.8 km/h
1592 04-01-2015 01:00:00 2.2 C 5.52 g/m*3 2.2 C 3.2 km/h
1593 04-01-2015 01:05:00 2.2 C 5.52 g/m*3 2.2 C 1.6 km/h
1594 04-01-2015 01:10:00 2.2 C 5.52 g/m*3 2.2 C 1.6 km/h
1595 04-01-2015 01:15:00 2.2 C 5.52 g/m*3 2.2 C 0 km/h
1596 04-01-2015 01:20:00 2.2 C 5.52 g/m*3 2.2 C 1.6 km/h
1597 04-01-2015 01:25:00 2.2 C 5.52 g/m*3 2.2 C 4.8 km/h
1598 04-01-2015 01:30:00 2.2 C 5.52 g/m*3 2.2 C 3.2 km/h
1599 04-01-2015 01:35:00 2.3 C 5.56 g/m*3 2.3 C 4.8 km/h
1600 04-01-2015 01:40:00 2.4 C 5.6 g/m*3 2.4 C 3.2 km/h
Sensor: Nr:Datum:Temp:Abs-Feuchte:Windchill:Wind:
Aussen-T/F 1601 04-01-2015 01:45:00 2.7 C 5.71 g/m*3 2.7 C 4.8 km/h
1602 04-01-2015 01:50:00 2.8 C 5.75 g/m*3 0.1 C 9.7 km/h
1603 04-01-2015 01:55:00 2.9 C 5.79 g/m*3 2.9 C 4.8 km/h
1604 04-01-2015 02:00:00 3.1 C 5.87 g/m*3 0.46 C 9.7 km/h
1605 04-01-2015 02:05:00 3.3 C 5.95 g/m*3 3.3 C 4.8 km/h
1606 04-01-2015 02:10:00 3.4 C 5.99 g/m*3 3.4 C 4.8 km/h
1607 04-01-2015 02:15:00 3.4 C 5.92 g/m*3 3.4 C 4.8 km/h
1608 04-01-2015 02:20:00 3.6 C 6 g/m*3 1.46 C 8.1 km/h
1609 04-01-2015 02:25:00 3.7 C 6.04 g/m*3 1.58 C 8.1 km/h
1610 04-01-2015 02:30:00 3.7 C 6.04 g/m*3 3.7 C 1.6 km/h
1611 04-01-2015 02:35:00 3.7 C 5.98 g/m*3 3.7 C 3.2 km/h
1612 04-01-2015 02:40:00 3.8 C 6.02 g/m*3 0.63 C 12.9 km/h
1613 04-01-2015 02:45:00 3.9 C 6.06 g/m*3 1.06 C 11.3 km/h
1614 04-01-2015 02:50:00 4.1 C 6.08 g/m*3 2.55 C 6.4 km/h
1615 04-01-2015 02:55:00 4.1 C 6.08 g/m*3 2.55 C 6.4 km/h
1616 04-01-2015 03:00:00 4.1 C 6.08 g/m*3 2.55 C 6.4 km/h
1617 04-01-2015 03:05:00 4.1 C 6.08 g/m*3 0.72 C 14.5 km/h
1618 04-01-2015 03:10:00 4.1 C 6.02 g/m*3 2.05 C 8.1 km/h
1619 04-01-2015 03:15:00 4.1 C 6.02 g/m*3 4.1 C 4.8 km/h
1620 04-01-2015 03:20:00 4.1 C 6.02 g/m*3 2.55 C 6.4 km/h
1621 04-01-2015 03:25:00 4.1 C 5.95 g/m*3 2.05 C 8.1 km/h
1622 04-01-2015 03:30:00 4.1 C 5.95 g/m*3 0.72 C 14.5 km/h
1623 04-01-2015 03:35:00 4.1 C 5.95 g/m*3 1.65 C 9.7 km/h
1624 04-01-2015 03:40:00 4.1 C 5.95 g/m*3 2.05 C 8.1 km/h
1625 04-01-2015 03:45:00 4 C 5.91 g/m*3 1.93 C 8.1 km/h
Sensor: Nr:Datum:Temp:Abs-Feuchte:Windchill:Wind:
Aussen-T/F 1626 04-01-2015 03:50:00 4 C 5.91 g/m*3 1.93 C 8.1 km/h
1627 04-01-2015 03:55:00 4 C 5.91 g/m*3 1.53 C 9.7 km/h
1628 04-01-2015 04:00:00 3.9 C 5.87 g/m*3 1.82 C 8.1 km/h
1629 04-01-2015 04:05:00 3.9 C 5.87 g/m*3 3.9 C 4.8 km/h
1630 04-01-2015 04:10:00 3.9 C 5.87 g/m*3 1.82 C 8.1 km/h
1631 04-01-2015 04:50:00 2.9 C 5.55 g/m*3 2.9 C 4.8 km/h
1632 04-01-2015 04:55:00 2.8 C 5.51 g/m*3 2.8 C 4.8 km/h
1633 04-01-2015 05:00:00 2.6 C 5.44 g/m*3 2.6 C 0 km/h
1634 04-01-2015 05:05:00 2.4 C 5.37 g/m*3 2.4 C 4.8 km/h
1635 04-01-2015 05:10:00 2.2 C 5.29 g/m*3 2.2 C 4.8 km/h
1636 04-01-2015 05:15:00 2.1 C 5.31 g/m*3 -0.3 C 8.1 km/h
1637 04-01-2015 05:20:00 2.1 C 5.31 g/m*3 2.1 C 3.2 km/h
1638 04-01-2015 05:25:00 2.1 C 5.37 g/m*3 2.1 C 3.2 km/h
1639 04-01-2015 05:30:00 2 C 5.33 g/m*3 2 C 4.8 km/h
1640 04-01-2015 05:35:00 2 C 5.33 g/m*3 2 C 3.2 km/h
1641 04-01-2015 05:40:00 1.9 C 5.3 g/m*3 1.9 C 4.8 km/h
1642 04-01-2015 05:45:00 1.8 C 5.26 g/m*3 1.8 C 4.8 km/h
1643 04-01-2015 05:50:00 1.7 C 5.23 g/m*3 1.7 C 3.2 km/h
1644 04-01-2015 05:55:00 1.7 C 5.23 g/m*3 -0.22 C 6.4 km/h
1645 04-01-2015 06:00:00 1.6 C 5.19 g/m*3 1.6 C 4.8 km/h
1646 04-01-2015 06:05:00 1.6 C 5.25 g/m*3 1.6 C 4.8 km/h
1647 04-01-2015 06:10:00 1.6 C 5.25 g/m*3 1.6 C 4.8 km/h
1648 04-01-2015 06:15:00 1.5 C 5.16 g/m*3 1.5 C 4.8 km/h
1649 04-01-2015 06:20:00 1.4 C 5.12 g/m*3 1.4 C 1.6 km/h
1650 04-01-2015 06:25:00 1.4 C 5.17 g/m*3 1.4 C 4.8 km/h
Sensor: Nr:Datum:Temp:Abs-Feuchte:Windchill:Wind:
Aussen-T/F 1651 04-01-2015 06:30:00 1.3 C 5.14 g/m*3 1.3 C 0 km/h
1652 04-01-2015 06:35:00 1.2 C 5.05 g/m*3 1.2 C 1.6 km/h
1653 04-01-2015 06:40:00 1.2 C 5.05 g/m*3 1.2 C 4.8 km/h
1654 04-01-2015 06:45:00 1.1 C 5.07 g/m*3 -0.91 C 6.4 km/h
1655 04-01-2015 06:50:00 1.1 C 5.07 g/m*3 1.1 C 1.6 km/h
1656 04-01-2015 06:55:00 1.1 C 5.07 g/m*3 1.1 C 1.6 km/h
1657 04-01-2015 07:00:00 1.1 C 5.07 g/m*3 1.1 C 4.8 km/h
1658 04-01-2015 07:05:00 1.1 C 5.07 g/m*3 1.1 C 4.8 km/h
1659 04-01-2015 07:10:00 1.1 C 5.07 g/m*3 1.1 C 3.2 km/h
1660 04-01-2015 07:15:00 1 C 5.03 g/m*3 1 C 3.2 km/h
1661 04-01-2015 07:20:00 0.9 C 5 g/m*3 0.9 C 1.6 km/h
1662 04-01-2015 07:25:00 0.9 C 5 g/m*3 0.9 C 3.2 km/h
1663 04-01-2015 07:30:00 0.9 C 5 g/m*3 0.9 C 3.2 km/h
1664 04-01-2015 07:35:00 1 C 5.03 g/m*3 1 C 3.2 km/h
1665 04-01-2015 07:40:00 1.1 C 5.07 g/m*3 1.1 C 3.2 km/h
1666 04-01-2015 07:45:00 1.2 C 5.1 g/m*3 1.2 C 1.6 km/h
1667 04-01-2015 07:50:00 1.1 C 5.07 g/m*3 1.1 C 1.6 km/h
1668 04-01-2015 07:55:00 1.1 C 5.07 g/m*3 1.1 C 4.8 km/h
1669 04-01-2015 08:00:00 1.1 C 5.07 g/m*3 1.1 C 1.6 km/h
1670 04-01-2015 08:05:00 1.2 C 5.1 g/m*3 1.2 C 1.6 km/h
1671 04-01-2015 08:10:00 1.2 C 5.1 g/m*3 1.2 C 3.2 km/h
1672 04-01-2015 08:15:00 1.2 C 5.1 g/m*3 1.2 C 1.6 km/h
1673 04-01-2015 08:20:00 1.2 C 5.1 g/m*3 1.2 C 3.2 km/h
1674 04-01-2015 18:15:00 4.1 C 5.89 g/m*3 4.1 C 1.6 km/h
1675 04-01-2015 18:20:00 4.1 C 5.89 g/m*3 4.1 C 1.6 km/h
Sensor: Nr:Datum:Temp:Abs-Feuchte:Windchill:Wind:
Aussen-T/F 1676 04-01-2015 18:25:00 4 C 5.85 g/m*3 4 C 3.2 km/h
1677 04-01-2015 18:30:00 4 C 5.85 g/m*3 4 C 1.6 km/h
1678 04-01-2015 18:35:00 3.9 C 5.75 g/m*3 3.9 C 4.8 km/h
1679 04-01-2015 18:40:00 4 C 5.79 g/m*3 4 C 4.8 km/h
1680 04-01-2015 18:45:00 4.1 C 5.76 g/m*3 4.1 C 4.8 km/h
1681 04-01-2015 18:50:00 4.2 C 5.73 g/m*3 2.67 C 6.4 km/h
1682 04-01-2015 18:55:00 4.3 C 5.71 g/m*3 1.89 C 9.7 km/h
1683 04-01-2015 19:00:00 4.4 C 5.68 g/m*3 4.4 C 3.2 km/h
1684 04-01-2015 19:05:00 4.4 C 5.68 g/m*3 4.4 C 3.2 km/h
1685 04-01-2015 19:10:00 4.4 C 5.68 g/m*3 2.9 C 6.4 km/h
1686 04-01-2015 19:15:00 4.3 C 5.64 g/m*3 2.78 C 6.4 km/h
1687 04-01-2015 19:20:00 4.3 C 5.64 g/m*3 4.3 C 1.6 km/h
1688 04-01-2015 19:25:00 4.2 C 5.67 g/m*3 4.2 C 1.6 km/h
1689 04-01-2015 19:30:00 4.2 C 5.67 g/m*3 4.2 C 4.8 km/h
1690 04-01-2015 19:35:00 4.1 C 5.63 g/m*3 2.05 C 8.1 km/h
1691 04-01-2015 19:40:00 4.1 C 5.63 g/m*3 4.1 C 3.2 km/h
1692 04-01-2015 19:45:00 4.1 C 5.63 g/m*3 4.1 C 1.6 km/h
1693 04-01-2015 19:50:00 4 C 5.59 g/m*3 4 C 1.6 km/h
1694 04-01-2015 19:55:00 3.9 C 5.62 g/m*3 2.32 C 6.4 km/h
1695 04-01-2015 20:00:00 3.9 C 5.62 g/m*3 3.9 C 4.8 km/h
1696 04-01-2015 20:05:00 3.9 C 5.62 g/m*3 3.9 C 4.8 km/h
1697 04-01-2015 20:10:00 3.8 C 5.58 g/m*3 3.8 C 4.8 km/h
1698 04-01-2015 20:15:00 3.8 C 5.58 g/m*3 3.8 C 4.8 km/h
1699 04-01-2015 20:20:00 3.7 C 5.61 g/m*3 3.7 C 3.2 km/h
1700 04-01-2015 20:25:00 3.7 C 5.61 g/m*3 3.7 C 3.2 km/h
Sensor: Nr:Datum:Temp:Abs-Feuchte:Windchill:Wind:
Aussen-T/F 1701 04-01-2015 20:30:00 3.6 C 5.57 g/m*3 3.6 C 4.8 km/h
1702 04-01-2015 20:35:00 3.6 C 5.63 g/m*3 3.6 C 1.6 km/h
1703 04-01-2015 20:40:00 3.6 C 5.63 g/m*3 3.6 C 3.2 km/h
1704 04-01-2015 20:45:00 3.6 C 5.63 g/m*3 3.6 C 3.2 km/h
1705 04-01-2015 20:50:00 3.6 C 5.63 g/m*3 3.6 C 4.8 km/h
1706 04-01-2015 20:55:00 3.6 C 5.63 g/m*3 3.6 C 3.2 km/h
1707 04-01-2015 21:00:00 3.7 C 5.67 g/m*3 3.7 C 1.6 km/h
1708 04-01-2015 21:05:00 3.7 C 5.67 g/m*3 3.7 C 3.2 km/h
1709 04-01-2015 21:10:00 3.7 C 5.61 g/m*3 3.7 C 3.2 km/h
1710 04-01-2015 21:15:00 3.7 C 5.61 g/m*3 3.7 C 3.2 km/h
1711 04-01-2015 21:20:00 3.8 C 5.65 g/m*3 3.8 C 3.2 km/h
1712 04-01-2015 21:25:00 3.8 C 5.65 g/m*3 3.8 C 3.2 km/h
1713 04-01-2015 21:30:00 3.8 C 5.65 g/m*3 2.21 C 6.4 km/h
1714 04-01-2015 21:35:00 3.8 C 5.65 g/m*3 3.8 C 4.8 km/h
1715 04-01-2015 21:40:00 3.9 C 5.62 g/m*3 2.32 C 6.4 km/h
1716 04-01-2015 21:45:00 3.9 C 5.62 g/m*3 3.9 C 3.2 km/h
1717 04-01-2015 21:50:00 4 C 5.66 g/m*3 4 C 4.8 km/h
1718 04-01-2015 21:55:00 4 C 5.66 g/m*3 4 C 4.8 km/h
1719 04-01-2015 22:00:00 3.9 C 5.62 g/m*3 3.9 C 4.8 km/h
1720 04-01-2015 22:05:00 3.7 C 5.61 g/m*3 3.7 C 1.6 km/h
1721 04-01-2015 22:10:00 3.6 C 5.57 g/m*3 3.6 C 3.2 km/h
1722 04-01-2015 22:15:00 3.5 C 5.6 g/m*3 3.5 C 3.2 km/h
1723 04-01-2015 22:20:00 3.4 C 5.56 g/m*3 3.4 C 1.6 km/h
1724 04-01-2015 22:25:00 3.3 C 5.58 g/m*3 3.3 C 1.6 km/h
1725 04-01-2015 22:30:00 3.2 C 5.54 g/m*3 3.2 C 0 km/h
Sensor: Nr:Datum:Temp:Abs-Feuchte:Windchill:Wind:
Aussen-T/F 1726 04-01-2015 22:35:00 3.2 C 5.6 g/m*3 3.2 C 1.6 km/h
1727 04-01-2015 22:40:00 3.2 C 5.6 g/m*3 3.2 C 1.6 km/h
1728 04-01-2015 22:45:00 3.2 C 5.6 g/m*3 3.2 C 0 km/h
1729 04-01-2015 22:50:00 3.2 C 5.6 g/m*3 3.2 C 0 km/h
1730 04-01-2015 22:55:00 3.2 C 5.54 g/m*3 3.2 C 3.2 km/h
1731 04-01-2015 23:00:00 3.2 C 5.54 g/m*3 3.2 C 1.6 km/h
1732 04-01-2015 23:05:00 3.2 C 5.54 g/m*3 3.2 C 3.2 km/h
1733 04-01-2015 23:10:00 3.3 C 5.58 g/m*3 3.3 C 1.6 km/h
1734 04-01-2015 23:15:00 3.3 C 5.58 g/m*3 3.3 C 1.6 km/h
1735 04-01-2015 23:20:00 3.3 C 5.58 g/m*3 3.3 C 1.6 km/h
1736 04-01-2015 23:25:00 3.2 C 5.54 g/m*3 3.2 C 3.2 km/h
1737 04-01-2015 23:30:00 3.2 C 5.48 g/m*3 1.51 C 6.4 km/h
1738 04-01-2015 23:35:00 3.2 C 5.54 g/m*3 3.2 C 1.6 km/h
1739 04-01-2015 23:40:00 3.2 C 5.48 g/m*3 3.2 C 4.8 km/h
1740 04-01-2015 23:45:00 3.3 C 5.52 g/m*3 3.3 C 3.2 km/h
1741 04-01-2015 23:50:00 3.3 C 5.46 g/m*3 3.3 C 4.8 km/h
1742 04-01-2015 23:55:00 3.4 C 5.44 g/m*3 3.4 C 3.2 km/h
1743 05-01-2015 00:00:00 3.5 C 5.47 g/m*3 3.5 C 1.6 km/h
1744 05-01-2015 00:05:00 3.4 C 5.5 g/m*3 3.4 C 1.6 km/h
1745 05-01-2015 00:10:00 3.3 C 5.46 g/m*3 3.3 C 3.2 km/h
1746 05-01-2015 00:15:00 3.2 C 5.42 g/m*3 3.2 C 4.8 km/h
1747 05-01-2015 00:20:00 3.2 C 5.42 g/m*3 3.2 C 3.2 km/h
1748 05-01-2015 00:25:00 3.1 C 5.45 g/m*3 3.1 C 3.2 km/h
1749 05-01-2015 00:30:00 3 C 5.41 g/m*3 3 C 4.8 km/h
1750 05-01-2015 00:35:00 2.9 C 5.37 g/m*3 2.9 C 3.2 km/h
Sensor: Nr:Datum:Temp:Abs-Feuchte:Windchill:Wind:
Aussen-T/F 1751 05-01-2015 00:40:00 2.8 C 5.34 g/m*3 2.8 C 3.2 km/h
1752 05-01-2015 00:45:00 2.8 C 5.34 g/m*3 2.8 C 3.2 km/h
1753 05-01-2015 00:50:00 2.8 C 5.34 g/m*3 2.8 C 3.2 km/h
1754 05-01-2015 00:55:00 2.8 C 5.28 g/m*3 2.8 C 3.2 km/h
1755 05-01-2015 01:00:00 2.9 C 5.32 g/m*3 2.9 C 3.2 km/h
1756 05-01-2015 01:05:00 2.9 C 5.26 g/m*3 0.64 C 8.1 km/h
1757 05-01-2015 01:10:00 2.9 C 5.26 g/m*3 0.64 C 8.1 km/h
1758 05-01-2015 01:15:00 2.9 C 5.26 g/m*3 2.9 C 1.6 km/h
1759 05-01-2015 01:20:00 2.8 C 5.22 g/m*3 2.8 C 4.8 km/h
1760 05-01-2015 01:25:00 2.7 C 5.24 g/m*3 2.7 C 3.2 km/h
1761 05-01-2015 01:30:00 2.6 C 5.21 g/m*3 2.6 C 1.6 km/h
1762 05-01-2015 01:35:00 2.6 C 5.21 g/m*3 2.6 C 1.6 km/h
1763 05-01-2015 01:40:00 2.5 C 5.23 g/m*3 2.5 C 1.6 km/h
1764 05-01-2015 01:45:00 2.4 C 5.2 g/m*3 2.4 C 3.2 km/h
1765 05-01-2015 01:50:00 2.3 C 5.16 g/m*3 2.3 C 3.2 km/h
1766 05-01-2015 01:55:00 2.2 C 5.13 g/m*3 2.2 C 1.6 km/h
1767 05-01-2015 02:00:00 2.1 C 5.15 g/m*3 2.1 C 1.6 km/h
1768 05-01-2015 02:05:00 1.9 C 5.08 g/m*3 1.9 C 0 km/h
1769 05-01-2015 02:10:00 1.8 C 5.04 g/m*3 1.8 C 0 km/h
1770 05-01-2015 02:15:00 1.6 C 4.97 g/m*3 1.6 C 1.6 km/h
1771 05-01-2015 02:20:00 1.4 C 4.91 g/m*3 1.4 C 0 km/h
1772 05-01-2015 02:25:00 1.3 C 4.93 g/m*3 1.3 C 0 km/h
1773 05-01-2015 02:30:00 1.2 C 4.89 g/m*3 1.2 C 1.6 km/h
1774 05-01-2015 02:35:00 1.2 C 4.89 g/m*3 1.2 C 1.6 km/h
1775 05-01-2015 02:40:00 1.1 C 4.91 g/m*3 1.1 C 3.2 km/h
Sensor: Nr:Datum:Temp:Abs-Feuchte:Windchill:Wind:
Aussen-T/F 1776 05-01-2015 02:45:00 1.1 C 4.91 g/m*3 1.1 C 1.6 km/h
1777 05-01-2015 02:50:00 1.1 C 4.91 g/m*3 1.1 C 1.6 km/h
1778 05-01-2015 02:55:00 1.1 C 4.91 g/m*3 1.1 C 1.6 km/h
1779 05-01-2015 03:00:00 1 C 4.88 g/m*3 1 C 1.6 km/h
1780 05-01-2015 03:05:00 1 C 4.88 g/m*3 1 C 3.2 km/h
1781 05-01-2015 03:10:00 1 C 4.88 g/m*3 1 C 3.2 km/h
1782 05-01-2015 03:15:00 1 C 4.88 g/m*3 1 C 3.2 km/h
1783 05-01-2015 03:20:00 1 C 4.88 g/m*3 1 C 4.8 km/h
1784 05-01-2015 03:25:00 0.9 C 4.85 g/m*3 0.9 C 1.6 km/h
1785 05-01-2015 03:30:00 1 C 4.88 g/m*3 1 C 4.8 km/h
1786 05-01-2015 03:35:00 1 C 4.88 g/m*3 1 C 0 km/h
1787 05-01-2015 03:40:00 0.9 C 4.85 g/m*3 0.9 C 0 km/h
1788 05-01-2015 03:45:00 0.8 C 4.81 g/m*3 0.8 C 1.6 km/h
1789 05-01-2015 03:50:00 0.8 C 4.81 g/m*3 0.8 C 1.6 km/h
1790 05-01-2015 03:55:00 0.7 C 4.78 g/m*3 0.7 C 0 km/h
1791 05-01-2015 04:00:00 0.7 C 4.78 g/m*3 0.7 C 0 km/h
1792 05-01-2015 04:05:00 0.5 C 4.71 g/m*3 0.5 C 0 km/h
1793 05-01-2015 04:10:00 0.4 C 4.68 g/m*3 0.4 C 3.2 km/h
1794 05-01-2015 04:15:00 0.3 C 4.65 g/m*3 0.3 C 3.2 km/h
1795 05-01-2015 04:20:00 0.2 C 4.62 g/m*3 0.2 C 1.6 km/h
1796 05-01-2015 04:25:00 0.1 C 4.59 g/m*3 0.1 C 1.6 km/h
1797 05-01-2015 04:30:00 0.1 C 4.59 g/m*3 0.1 C 0 km/h
1798 05-01-2015 04:35:00 -0.1 C 4.52 g/m*3 -0.1 C 0 km/h
1799 05-01-2015 04:40:00 -0.1 C 4.57 g/m*3 -0.1 C 0 km/h
1800 05-01-2015 04:45:00 -0.2 C 4.54 g/m*3 -0.2 C 0 km/h
Sensor: Nr:Datum:Temp:Abs-Feuchte:Windchill:Wind:
Aussen-T/F 1801 05-01-2015 04:50:00 -0.3 C 4.51 g/m*3 -0.3 C 0 km/h
1802 05-01-2015 04:55:00 -0.3 C 4.51 g/m*3 -0.3 C 0 km/h
1803 05-01-2015 05:00:00 -0.4 C 4.48 g/m*3 -0.4 C 1.6 km/h
1804 05-01-2015 05:05:00 -0.4 C 4.48 g/m*3 -0.4 C 1.6 km/h
1805 05-01-2015 05:10:00 -0.4 C 4.48 g/m*3 -0.4 C 0 km/h
1806 05-01-2015 05:15:00 -0.4 C 4.48 g/m*3 -0.4 C 0 km/h
1807 05-01-2015 05:20:00 -0.4 C 4.48 g/m*3 -0.4 C 0 km/h
1808 05-01-2015 05:25:00 -0.5 C 4.45 g/m*3 -0.5 C 0 km/h
1809 05-01-2015 05:30:00 -0.6 C 4.42 g/m*3 -0.6 C 1.6 km/h
1810 05-01-2015 05:35:00 -0.6 C 4.46 g/m*3 -0.6 C 0 km/h
1811 05-01-2015 05:40:00 -0.6 C 4.46 g/m*3 -0.6 C 1.6 km/h
1812 05-01-2015 05:45:00 -0.5 C 4.49 g/m*3 -0.5 C 3.2 km/h
1813 05-01-2015 05:50:00 -0.5 C 4.49 g/m*3 -0.5 C 1.6 km/h
1814 05-01-2015 05:55:00 -0.5 C 4.49 g/m*3 -0.5 C 0 km/h
1815 05-01-2015 06:00:00 -0.5 C 4.49 g/m*3 -0.5 C 1.6 km/h
1816 05-01-2015 06:05:00 -0.6 C 4.46 g/m*3 -0.6 C 0 km/h
1817 05-01-2015 06:10:00 -0.6 C 4.46 g/m*3 -0.6 C 0 km/h
1818 05-01-2015 06:15:00 -0.6 C 4.46 g/m*3 -0.6 C 0 km/h
1819 05-01-2015 06:20:00 -0.6 C 4.46 g/m*3 -0.6 C 0 km/h
1820 05-01-2015 06:25:00 -0.9 C 4.37 g/m*3 -0.9 C 0 km/h
1821 05-01-2015 06:30:00 -1 C 4.34 g/m*3 -1 C 1.6 km/h
1822 05-01-2015 06:35:00 -1 C 4.34 g/m*3 -1 C 0 km/h
1823 05-01-2015 06:40:00 -1 C 4.34 g/m*3 -1 C 0 km/h
1824 05-01-2015 06:45:00 -0.9 C 4.37 g/m*3 -0.9 C 0 km/h
1825 05-01-2015 06:50:00 -0.9 C 4.37 g/m*3 -0.9 C 1.6 km/h
Sensor: Nr:Datum:Temp:Abs-Feuchte:Windchill:Wind:
Aussen-T/F 1826 05-01-2015 06:55:00 -0.9 C 4.37 g/m*3 -0.9 C 1.6 km/h
1827 05-01-2015 07:00:00 -0.9 C 4.37 g/m*3 -0.9 C 4.8 km/h
1828 05-01-2015 07:05:00 -0.9 C 4.37 g/m*3 -0.9 C 1.6 km/h
1829 05-01-2015 07:10:00 -0.8 C 4.4 g/m*3 -0.8 C 1.6 km/h
1830 05-01-2015 07:15:00 -0.9 C 4.37 g/m*3 -0.9 C 0 km/h
1831 05-01-2015 07:20:00 -0.9 C 4.37 g/m*3 -0.9 C 0 km/h
1832 05-01-2015 07:25:00 -1 C 4.34 g/m*3 -1 C 1.6 km/h
1833 05-01-2015 07:30:00 -1 C 4.34 g/m*3 -1 C 0 km/h
1834 05-01-2015 07:35:00 -1 C 4.38 g/m*3 -1 C 1.6 km/h
1835 05-01-2015 07:40:00 -0.9 C 4.42 g/m*3 -0.9 C 4.8 km/h
1836 05-01-2015 07:45:00 -0.8 C 4.45 g/m*3 -3.11 C 6.4 km/h
1837 05-01-2015 07:50:00 -0.8 C 4.45 g/m*3 -3.11 C 6.4 km/h
1838 05-01-2015 07:55:00 -0.8 C 4.45 g/m*3 -3.11 C 6.4 km/h
1839 05-01-2015 08:00:00 -0.8 C 4.45 g/m*3 -3.71 C 8.1 km/h
1840 05-01-2015 08:05:00 -0.8 C 4.45 g/m*3 -0.8 C 3.2 km/h
1841 05-01-2015 08:10:00 -0.7 C 4.48 g/m*3 -3.59 C 8.1 km/h
1842 05-01-2015 08:15:00 -0.7 C 4.48 g/m*3 -2.99 C 6.4 km/h
1843 05-01-2015 08:20:00 -0.7 C 4.48 g/m*3 -0.7 C 4.8 km/h
1844 05-01-2015 08:25:00 -0.7 C 4.48 g/m*3 -0.7 C 4.8 km/h
1845 05-01-2015 08:30:00 -0.7 C 4.48 g/m*3 -0.7 C 4.8 km/h
1846 05-01-2015 08:35:00 -0.7 C 4.48 g/m*3 -4.07 C 9.7 km/h
1847 05-01-2015 08:40:00 -0.8 C 4.45 g/m*3 -3.71 C 8.1 km/h
1848 05-01-2015 08:45:00 -0.8 C 4.45 g/m*3 -0.8 C 4.8 km/h
1849 05-01-2015 08:50:00 -0.8 C 4.45 g/m*3 -3.71 C 8.1 km/h
1850 05-01-2015 08:55:00 -0.8 C 4.45 g/m*3 -0.8 C 4.8 km/h
Sensor: Nr:Datum:Temp:Abs-Feuchte:Windchill:Wind:
Aussen-T/F 1851 05-01-2015 09:00:00 -0.8 C 4.45 g/m*3 -0.8 C 4.8 km/h
1852 05-01-2015 09:05:00 -0.8 C 4.45 g/m*3 -3.11 C 6.4 km/h
1853 05-01-2015 09:10:00 -0.8 C 4.45 g/m*3 -3.11 C 6.4 km/h
1854 05-01-2015 09:15:00 -0.8 C 4.45 g/m*3 -3.11 C 6.4 km/h
1855 05-01-2015 09:20:00 -0.8 C 4.45 g/m*3 -0.8 C 4.8 km/h
1856 05-01-2015 09:25:00 -0.8 C 4.45 g/m*3 -0.8 C 4.8 km/h
1857 05-01-2015 09:30:00 -0.8 C 4.45 g/m*3 -0.8 C 3.2 km/h
1858 05-01-2015 09:35:00 -0.8 C 4.45 g/m*3 -3.11 C 6.4 km/h
1859 05-01-2015 09:40:00 -0.6 C 4.51 g/m*3 -3.48 C 8.1 km/h
1860 05-01-2015 09:45:00 -0.6 C 4.51 g/m*3 -3.95 C 9.7 km/h
1861 05-01-2015 09:50:00 -0.6 C 4.51 g/m*3 -0.6 C 4.8 km/h
1862 05-01-2015 09:55:00 -0.6 C 4.51 g/m*3 -0.6 C 4.8 km/h
1863 05-01-2015 10:00:00 -0.6 C 4.51 g/m*3 -0.6 C 3.2 km/h
1864 05-01-2015 10:05:00 -0.6 C 4.51 g/m*3 -0.6 C 3.2 km/h
1865 05-01-2015 10:10:00 -0.6 C 4.51 g/m*3 -0.6 C 3.2 km/h
1866 05-01-2015 10:15:00 -0.6 C 4.51 g/m*3 -0.6 C 1.6 km/h
1867 05-01-2015 10:20:00 -0.6 C 4.51 g/m*3 -2.88 C 6.4 km/h
1868 05-01-2015 10:25:00 -0.5 C 4.54 g/m*3 -0.5 C 1.6 km/h
1869 05-01-2015 10:30:00 -0.5 C 4.54 g/m*3 -0.5 C 4.8 km/h
1870 05-01-2015 10:35:00 -0.5 C 4.54 g/m*3 -2.76 C 6.4 km/h
1871 05-01-2015 10:40:00 -0.3 C 4.6 g/m*3 -3.12 C 8.1 km/h
1872 05-01-2015 10:45:00 -0.2 C 4.64 g/m*3 -0.2 C 4.8 km/h
1873 05-01-2015 10:50:00 -0.2 C 4.64 g/m*3 -0.2 C 3.2 km/h
1874 05-01-2015 10:55:00 -0.2 C 4.64 g/m*3 -0.2 C 1.6 km/h
1875 05-01-2015 11:00:00 -0.2 C 4.64 g/m*3 -0.2 C 1.6 km/h
Sensor: Nr:Datum:Temp:Abs-Feuchte:Windchill:Wind:
Aussen-T/F 1876 05-01-2015 11:05:00 -0.2 C 4.64 g/m*3 -0.2 C 3.2 km/h
1877 05-01-2015 11:10:00 -0.2 C 4.64 g/m*3 -0.2 C 1.6 km/h
1878 05-01-2015 11:50:00 0.2 C 4.77 g/m*3 0.2 C 3.2 km/h
1879 05-01-2015 11:55:00 0.2 C 4.77 g/m*3 0.2 C 1.6 km/h
1880 05-01-2015 12:00:00 0.2 C 4.77 g/m*3 0.2 C 1.6 km/h
1881 05-01-2015 12:05:00 0.2 C 4.77 g/m*3 0.2 C 1.6 km/h
1882 05-01-2015 12:10:00 0.2 C 4.77 g/m*3 0.2 C 3.2 km/h
1883 05-01-2015 12:15:00 0.2 C 4.77 g/m*3 0.2 C 1.6 km/h
1884 05-01-2015 12:20:00 0.2 C 4.77 g/m*3 0.2 C 1.6 km/h
1885 05-01-2015 12:25:00 0.2 C 4.77 g/m*3 0.2 C 1.6 km/h
1886 05-01-2015 13:50:00 1.1 C 5.23 g/m*3 1.1 C 3.2 km/h
1887 05-01-2015 13:55:00 1.1 C 4.96 g/m*3 1.1 C 4.8 km/h
1888 05-01-2015 14:00:00 1.1 C 4.96 g/m*3 1.1 C 3.2 km/h
1889 05-01-2015 18:20:00 -0.8 C 4.4 g/m*3 -0.8 C 0 km/h
1890 05-01-2015 18:25:00 -0.8 C 4.4 g/m*3 -0.8 C 0 km/h
1891 05-01-2015 18:30:00 -0.8 C 4.4 g/m*3 -0.8 C 0 km/h
1892 05-01-2015 18:35:00 -0.8 C 4.4 g/m*3 -0.8 C 1.6 km/h
1893 05-01-2015 18:40:00 -0.8 C 4.4 g/m*3 -0.8 C 0 km/h
1894 05-01-2015 18:45:00 -0.8 C 4.4 g/m*3 -0.8 C 0 km/h
1895 05-01-2015 18:50:00 -0.8 C 4.4 g/m*3 -0.8 C 0 km/h
1896 05-01-2015 18:55:00 -0.8 C 4.4 g/m*3 -0.8 C 0 km/h
1897 05-01-2015 19:00:00 -0.8 C 4.4 g/m*3 -0.8 C 0 km/h
1898 05-01-2015 19:05:00 -0.9 C 4.37 g/m*3 -0.9 C 0 km/h
1899 05-01-2015 19:10:00 -0.9 C 4.37 g/m*3 -0.9 C 0 km/h
1900 05-01-2015 20:10:00 -1.4 C 4.22 g/m*3 -1.4 C 0 km/h
Sensor: Nr:Datum:Temp:Abs-Feuchte:Windchill:Wind:
Aussen-T/F 1901 05-01-2015 20:15:00 -1.4 C 4.22 g/m*3 -1.4 C 0 km/h
1902 05-01-2015 20:20:00 -1.3 C 4.25 g/m*3 -1.3 C 0 km/h
1903 05-01-2015 20:25:00 -1.4 C 4.22 g/m*3 -1.4 C 0 km/h
1904 05-01-2015 20:30:00 -1.4 C 4.22 g/m*3 -1.4 C 0 km/h
1905 05-01-2015 20:35:00 -1.4 C 4.22 g/m*3 -1.4 C 0 km/h
1906 05-01-2015 20:40:00 -1.3 C 4.25 g/m*3 -1.3 C 0 km/h
1907 05-01-2015 20:45:00 -1.4 C 4.22 g/m*3 -1.4 C 0 km/h
1908 05-01-2015 20:50:00 -1.4 C 4.22 g/m*3 -1.4 C 0 km/h
1909 05-01-2015 20:55:00 -1.5 C 4.19 g/m*3 -1.5 C 0 km/h
1910 05-01-2015 21:00:00 -1.5 C 4.19 g/m*3 -1.5 C 0 km/h
1911 05-01-2015 21:05:00 -1.6 C 4.16 g/m*3 -1.6 C 0 km/h
1912 05-01-2015 21:10:00 -1.5 C 4.19 g/m*3 -1.5 C 0 km/h
1913 05-01-2015 21:15:00 -1.5 C 4.19 g/m*3 -1.5 C 0 km/h
1914 05-01-2015 21:20:00 -1.5 C 4.19 g/m*3 -1.5 C 0 km/h
1915 05-01-2015 21:25:00 -1.6 C 4.16 g/m*3 -1.6 C 0 km/h
1916 05-01-2015 21:30:00 -1.6 C 4.16 g/m*3 -1.6 C 0 km/h
1917 05-01-2015 21:35:00 -1.6 C 4.16 g/m*3 -1.6 C 0 km/h
1918 05-01-2015 21:40:00 -1.6 C 4.16 g/m*3 -1.6 C 0 km/h
1919 05-01-2015 21:45:00 -1.6 C 4.16 g/m*3 -1.6 C 0 km/h
1920 05-01-2015 21:50:00 -1.6 C 4.16 g/m*3 -1.6 C 0 km/h
1921 05-01-2015 21:55:00 -1.6 C 4.21 g/m*3 -1.6 C 0 km/h
1922 05-01-2015 22:00:00 -1.6 C 4.21 g/m*3 -1.6 C 0 km/h
1923 05-01-2015 22:05:00 -1.7 C 4.13 g/m*3 -1.7 C 0 km/h
1924 05-01-2015 22:10:00 -1.7 C 4.13 g/m*3 -1.7 C 0 km/h
1925 05-01-2015 22:15:00 -1.8 C 4.1 g/m*3 -1.8 C 0 km/h
Sensor: Nr:Datum:Temp:Abs-Feuchte:Windchill:Wind:
Aussen-T/F 1926 05-01-2015 22:20:00 -1.8 C 4.1 g/m*3 -1.8 C 0 km/h
1927 05-01-2015 22:25:00 -1.8 C 4.1 g/m*3 -1.8 C 0 km/h
1928 05-01-2015 22:30:00 -1.8 C 4.1 g/m*3 -1.8 C 1.6 km/h
1929 05-01-2015 22:35:00 -1.8 C 4.1 g/m*3 -1.8 C 0 km/h
1930 05-01-2015 22:40:00 -1.8 C 4.1 g/m*3 -1.8 C 0 km/h
1931 06-01-2015 07:55:00 -2.9 C 3.84 g/m*3 -2.9 C 4.8 km/h
1932 06-01-2015 08:00:00 -2.9 C 3.84 g/m*3 -2.9 C 3.2 km/h
1933 06-01-2015 08:05:00 -2.9 C 3.84 g/m*3 -2.9 C 1.6 km/h
1934 06-01-2015 08:10:00 -2.9 C 3.84 g/m*3 -2.9 C 3.2 km/h
1935 06-01-2015 08:15:00 -2.9 C 3.84 g/m*3 -2.9 C 3.2 km/h
1936 06-01-2015 13:05:00 -1.4 C 4.26 g/m*3 -1.4 C 3.2 km/h
1937 06-01-2015 13:10:00 -1.3 C 4.29 g/m*3 -1.3 C 0 km/h
1938 06-01-2015 13:15:00 -1.3 C 4.29 g/m*3 -1.3 C 0 km/h
1939 06-01-2015 13:20:00 -1.3 C 4.29 g/m*3 -1.3 C 0 km/h
1940 06-01-2015 13:25:00 -1.3 C 4.29 g/m*3 -1.3 C 1.6 km/h
1941 06-01-2015 19:40:00 1.1 C 4.7 g/m*3 -2.66 C 12.9 km/h
1942 06-01-2015 19:45:00 1.1 C 4.7 g/m*3 -2.97 C 14.5 km/h
1943 06-01-2015 19:50:00 1.1 C 4.7 g/m*3 -2.97 C 14.5 km/h
1944 06-01-2015 19:55:00 1.1 C 4.7 g/m*3 -2.66 C 12.9 km/h
1945 06-01-2015 20:00:00 0.9 C 4.64 g/m*3 -3.21 C 14.5 km/h
1946 06-01-2015 20:05:00 0.9 C 4.64 g/m*3 -2.16 C 9.7 km/h
1947 06-01-2015 20:10:00 0.8 C 4.61 g/m*3 -4.13 C 19.3 km/h
1948 06-01-2015 20:15:00 0.8 C 4.61 g/m*3 -3.02 C 12.9 km/h
1949 06-01-2015 20:20:00 0.8 C 4.61 g/m*3 -3.02 C 12.9 km/h
1950 06-01-2015 20:25:00 0.8 C 4.61 g/m*3 -2.67 C 11.3 km/h
Sensor: Nr:Datum:Temp:Abs-Feuchte:Windchill:Wind:
Aussen-T/F 1951 06-01-2015 21:20:00 0.7 C 4.68 g/m*3 -1.95 C 8.1 km/h
1952 06-01-2015 21:25:00 0.7 C 4.68 g/m*3 -2.8 C 11.3 km/h
1953 06-01-2015 21:30:00 0.7 C 4.68 g/m*3 -2.8 C 11.3 km/h
1954 06-01-2015 21:35:00 0.8 C 4.71 g/m*3 -2.28 C 9.7 km/h
1955 06-01-2015 21:40:00 0.8 C 4.71 g/m*3 -2.28 C 9.7 km/h
1956 06-01-2015 21:45:00 0.8 C 4.71 g/m*3 -2.28 C 9.7 km/h
1957 06-01-2015 21:50:00 0.8 C 4.71 g/m*3 -2.67 C 11.3 km/h
1958 06-01-2015 21:55:00 0.8 C 4.71 g/m*3 -3.34 C 14.5 km/h
1959 06-01-2015 22:00:00 0.9 C 4.74 g/m*3 -1.14 C 6.4 km/h
1960 06-01-2015 22:05:00 1 C 4.78 g/m*3 -2.78 C 12.9 km/h
1961 06-01-2015 22:10:00 1 C 4.78 g/m*3 -1.59 C 8.1 km/h
1962 06-01-2015 22:15:00 1.1 C 4.81 g/m*3 -1.92 C 9.7 km/h
1963 06-01-2015 22:20:00 1.1 C 4.81 g/m*3 -1.48 C 8.1 km/h
1964 06-01-2015 22:25:00 1.1 C 4.81 g/m*3 -2.31 C 11.3 km/h
1965 06-01-2015 22:30:00 1.2 C 4.84 g/m*3 -0.8 C 6.4 km/h
1966 06-01-2015 22:35:00 1.3 C 4.87 g/m*3 -0.68 C 6.4 km/h
1967 06-01-2015 22:40:00 1.3 C 4.87 g/m*3 1.3 C 1.6 km/h
1968 06-01-2015 22:45:00 1.3 C 4.87 g/m*3 1.3 C 1.6 km/h
1969 06-01-2015 22:50:00 1.3 C 4.87 g/m*3 1.3 C 4.8 km/h
1970 06-01-2015 22:55:00 1.2 C 4.84 g/m*3 1.2 C 0 km/h
1971 06-01-2015 23:00:00 1.2 C 4.84 g/m*3 -1.8 C 9.7 km/h
1972 06-01-2015 23:05:00 1.2 C 4.84 g/m*3 1.2 C 4.8 km/h
1973 06-01-2015 23:10:00 1.2 C 4.84 g/m*3 1.2 C 3.2 km/h
1974 06-01-2015 23:15:00 1.3 C 4.93 g/m*3 -0.68 C 6.4 km/h
1975 06-01-2015 23:20:00 1.4 C 4.96 g/m*3 -2.29 C 12.9 km/h
Sensor: Nr:Datum:Temp:Abs-Feuchte:Windchill:Wind:
Aussen-T/F 1976 06-01-2015 23:25:00 1.6 C 5.03 g/m*3 -1.33 C 9.7 km/h
1977 06-01-2015 23:30:00 1.6 C 5.03 g/m*3 1.6 C 4.8 km/h
1978 06-01-2015 23:35:00 1.6 C 4.97 g/m*3 -0.33 C 6.4 km/h
1979 06-01-2015 23:40:00 1.6 C 4.97 g/m*3 1.6 C 4.8 km/h
1980 06-01-2015 23:45:00 1.5 C 4.94 g/m*3 1.5 C 4.8 km/h
1981 06-01-2015 23:50:00 1.5 C 4.99 g/m*3 -0.45 C 6.4 km/h
1982 06-01-2015 23:55:00 1.5 C 4.99 g/m*3 -2.17 C 12.9 km/h
1983 07-01-2015 00:00:00 1.5 C 4.99 g/m*3 -1.01 C 8.1 km/h
1984 07-01-2015 00:05:00 1.6 C 5.03 g/m*3 -0.33 C 6.4 km/h
1985 07-01-2015 00:10:00 1.6 C 5.03 g/m*3 -0.33 C 6.4 km/h
1986 07-01-2015 00:15:00 1.6 C 5.03 g/m*3 -0.33 C 6.4 km/h
1987 07-01-2015 00:20:00 1.6 C 5.03 g/m*3 -0.33 C 6.4 km/h
1988 07-01-2015 00:25:00 1.6 C 5.03 g/m*3 -0.89 C 8.1 km/h
1989 07-01-2015 00:30:00 1.6 C 5.03 g/m*3 1.6 C 3.2 km/h
1990 07-01-2015 00:35:00 1.6 C 5.08 g/m*3 -0.33 C 6.4 km/h
1991 07-01-2015 00:40:00 1.7 C 5.12 g/m*3 -0.22 C 6.4 km/h
1992 07-01-2015 00:45:00 1.7 C 5.12 g/m*3 1.7 C 3.2 km/h
1993 07-01-2015 00:50:00 1.7 C 5.12 g/m*3 1.7 C 3.2 km/h
1994 07-01-2015 00:55:00 1.7 C 5.12 g/m*3 1.7 C 3.2 km/h
1995 07-01-2015 01:00:00 1.8 C 5.15 g/m*3 -1.09 C 9.7 km/h
1996 07-01-2015 01:05:00 1.9 C 5.19 g/m*3 -0.97 C 9.7 km/h
1997 07-01-2015 01:10:00 1.9 C 5.19 g/m*3 1.9 C 4.8 km/h
1998 07-01-2015 01:15:00 1.9 C 5.19 g/m*3 0.01 C 6.4 km/h
1999 07-01-2015 01:20:00 2 C 5.22 g/m*3 -2.14 C 16.1 km/h
2000 07-01-2015 01:25:00 2.1 C 5.26 g/m*3 -0.73 C 9.7 km/h
Sensor: Nr:Datum:Temp:Abs-Feuchte:Windchill:Wind:
Aussen-T/F 2001 07-01-2015 01:30:00 2.1 C 5.26 g/m*3 -0.73 C 9.7 km/h
2002 07-01-2015 01:35:00 2.2 C 5.29 g/m*3 2.2 C 4.8 km/h
2003 07-01-2015 01:40:00 2.1 C 5.2 g/m*3 -1.74 C 14.5 km/h
2004 07-01-2015 01:45:00 2.2 C 5.29 g/m*3 2.2 C 4.8 km/h
2005 07-01-2015 01:50:00 2.2 C 5.29 g/m*3 0.36 C 6.4 km/h
2006 07-01-2015 01:55:00 2.2 C 5.29 g/m*3 0.36 C 6.4 km/h
2007 07-01-2015 02:00:00 2.2 C 5.29 g/m*3 2.2 C 3.2 km/h
2008 07-01-2015 02:05:00 2.2 C 5.29 g/m*3 2.2 C 3.2 km/h
2009 07-01-2015 02:10:00 2.2 C 5.29 g/m*3 2.2 C 4.8 km/h
2010 07-01-2015 02:15:00 2.2 C 5.29 g/m*3 -0.18 C 8.1 km/h
2011 07-01-2015 02:20:00 2.3 C 5.33 g/m*3 -0.87 C 11.3 km/h
2012 07-01-2015 02:25:00 2.3 C 5.33 g/m*3 -0.49 C 9.7 km/h
2013 07-01-2015 02:30:00 2.3 C 5.33 g/m*3 0.47 C 6.4 km/h
2014 07-01-2015 02:35:00 2.3 C 5.33 g/m*3 -0.07 C 8.1 km/h
2015 07-01-2015 02:40:00 2.2 C 5.29 g/m*3 -0.61 C 9.7 km/h
2016 07-01-2015 02:45:00 2.2 C 5.29 g/m*3 0.36 C 6.4 km/h
2017 07-01-2015 02:50:00 2.2 C 5.29 g/m*3 0.36 C 6.4 km/h
2018 07-01-2015 02:55:00 2.3 C 5.33 g/m*3 2.3 C 4.8 km/h
2019 07-01-2015 03:00:00 2.3 C 5.33 g/m*3 0.47 C 6.4 km/h
2020 07-01-2015 03:05:00 2.3 C 5.33 g/m*3 -0.87 C 11.3 km/h
2021 07-01-2015 03:10:00 2.4 C 5.37 g/m*3 -0.74 C 11.3 km/h
2022 07-01-2015 03:15:00 2.6 C 5.44 g/m*3 0.29 C 8.1 km/h
2023 07-01-2015 03:20:00 2.6 C 5.38 g/m*3 -0.14 C 9.7 km/h
2024 07-01-2015 03:25:00 2.5 C 5.35 g/m*3 -0.62 C 11.3 km/h
2025 07-01-2015 03:30:00 2.4 C 5.31 g/m*3 0.59 C 6.4 km/h
Sensor: Nr:Datum:Temp:Abs-Feuchte:Windchill:Wind:
Aussen-T/F 2026 07-01-2015 03:35:00 2.5 C 5.4 g/m*3 -0.26 C 9.7 km/h
2027 07-01-2015 03:40:00 2.5 C 5.35 g/m*3 -0.26 C 9.7 km/h
2028 07-01-2015 03:45:00 2.6 C 5.44 g/m*3 -0.5 C 11.3 km/h
2029 07-01-2015 03:50:00 2.6 C 5.44 g/m*3 0.82 C 6.4 km/h
2030 07-01-2015 03:55:00 2.5 C 5.4 g/m*3 0.71 C 6.4 km/h
2031 07-01-2015 04:00:00 2.4 C 5.37 g/m*3 0.59 C 6.4 km/h
2032 07-01-2015 04:05:00 2.4 C 5.37 g/m*3 2.4 C 4.8 km/h
2033 07-01-2015 04:10:00 2.4 C 5.37 g/m*3 -1.37 C 14.5 km/h
2034 07-01-2015 04:15:00 2.4 C 5.37 g/m*3 -0.37 C 9.7 km/h
2035 07-01-2015 04:20:00 2.4 C 5.37 g/m*3 -0.74 C 11.3 km/h
2036 07-01-2015 04:25:00 2.5 C 5.4 g/m*3 -0.26 C 9.7 km/h
2037 07-01-2015 04:30:00 2.5 C 5.4 g/m*3 -1.52 C 16.1 km/h
2038 07-01-2015 04:35:00 2.5 C 5.4 g/m*3 0.17 C 8.1 km/h
2039 07-01-2015 04:40:00 2.6 C 5.44 g/m*3 -0.5 C 11.3 km/h
2040 07-01-2015 04:45:00 2.5 C 5.4 g/m*3 0.71 C 6.4 km/h
2041 07-01-2015 04:50:00 2.5 C 5.4 g/m*3 -0.62 C 11.3 km/h
2042 07-01-2015 04:55:00 2.4 C 5.37 g/m*3 2.4 C 4.8 km/h
2043 07-01-2015 05:00:00 2.4 C 5.37 g/m*3 0.59 C 6.4 km/h
2044 07-01-2015 05:05:00 2.4 C 5.37 g/m*3 2.4 C 4.8 km/h
2045 07-01-2015 05:10:00 2.4 C 5.37 g/m*3 0.05 C 8.1 km/h
2046 07-01-2015 05:15:00 2.5 C 5.4 g/m*3 -0.26 C 9.7 km/h
2047 07-01-2015 05:20:00 2.5 C 5.4 g/m*3 0.71 C 6.4 km/h
2048 07-01-2015 05:25:00 2.6 C 5.44 g/m*3 2.6 C 4.8 km/h
2049 07-01-2015 05:30:00 2.6 C 5.44 g/m*3 0.82 C 6.4 km/h
2050 07-01-2015 05:35:00 2.6 C 5.44 g/m*3 -0.5 C 11.3 km/h
Sensor: Nr:Datum:Temp:Abs-Feuchte:Windchill:Wind:
Aussen-T/F 2051 07-01-2015 05:40:00 2.5 C 5.4 g/m*3 0.71 C 6.4 km/h
2052 07-01-2015 05:45:00 2.5 C 5.4 g/m*3 0.71 C 6.4 km/h
2053 07-01-2015 05:50:00 2.4 C 5.37 g/m*3 2.4 C 4.8 km/h
2054 07-01-2015 05:55:00 2.3 C 5.33 g/m*3 2.3 C 4.8 km/h
2055 07-01-2015 06:00:00 2.1 C 5.26 g/m*3 2.1 C 3.2 km/h
2056 07-01-2015 06:05:00 1.9 C 5.19 g/m*3 1.9 C 3.2 km/h
2057 07-01-2015 06:10:00 1.8 C 5.15 g/m*3 1.8 C 1.6 km/h
2058 07-01-2015 06:15:00 1.7 C 5.17 g/m*3 1.7 C 3.2 km/h
2059 07-01-2015 06:20:00 1.6 C 5.14 g/m*3 1.6 C 1.6 km/h
2060 07-01-2015 06:25:00 1.6 C 5.14 g/m*3 1.6 C 1.6 km/h
2061 07-01-2015 06:30:00 1.4 C 5.07 g/m*3 1.4 C 0 km/h
2062 07-01-2015 06:35:00 1.4 C 5.12 g/m*3 1.4 C 1.6 km/h
2063 07-01-2015 06:40:00 1.4 C 5.12 g/m*3 1.4 C 4.8 km/h
2064 07-01-2015 06:45:00 1.5 C 5.16 g/m*3 1.5 C 4.8 km/h
2065 07-01-2015 06:50:00 1.4 C 5.12 g/m*3 1.4 C 3.2 km/h
2066 07-01-2015 06:55:00 1.4 C 5.12 g/m*3 1.4 C 4.8 km/h
2067 07-01-2015 07:00:00 1.3 C 5.09 g/m*3 1.3 C 4.8 km/h
2068 07-01-2015 07:05:00 1.3 C 5.09 g/m*3 1.3 C 3.2 km/h
2069 07-01-2015 07:10:00 1.4 C 5.12 g/m*3 1.4 C 3.2 km/h
2070 07-01-2015 07:15:00 1.5 C 5.16 g/m*3 1.5 C 3.2 km/h
2071 07-01-2015 07:20:00 1.4 C 5.12 g/m*3 1.4 C 3.2 km/h
2072 07-01-2015 07:25:00 1.4 C 5.12 g/m*3 1.4 C 3.2 km/h
2073 07-01-2015 07:30:00 1.4 C 5.12 g/m*3 -0.56 C 6.4 km/h
2074 07-01-2015 07:35:00 1.4 C 5.12 g/m*3 1.4 C 3.2 km/h
2075 07-01-2015 07:40:00 1.3 C 5.09 g/m*3 1.3 C 1.6 km/h
Sensor: Nr:Datum:Temp:Abs-Feuchte:Windchill:Wind:
Aussen-T/F 2076 07-01-2015 07:45:00 1.3 C 5.09 g/m*3 -0.68 C 6.4 km/h
2077 07-01-2015 07:50:00 1.4 C 5.12 g/m*3 1.4 C 3.2 km/h
2078 07-01-2015 07:55:00 1.3 C 5.09 g/m*3 1.3 C 3.2 km/h
2079 07-01-2015 08:00:00 1.3 C 5.09 g/m*3 1.3 C 3.2 km/h
2080 07-01-2015 08:05:00 1.3 C 5.14 g/m*3 1.3 C 4.8 km/h
2081 07-01-2015 08:10:00 1.4 C 5.17 g/m*3 1.4 C 4.8 km/h
2082 07-01-2015 08:15:00 1.5 C 5.21 g/m*3 -1.01 C 8.1 km/h
2083 07-01-2015 08:20:00 1.6 C 5.25 g/m*3 1.6 C 4.8 km/h
2084 07-01-2015 08:25:00 1.7 C 5.28 g/m*3 -0.22 C 6.4 km/h
2085 07-01-2015 08:30:00 1.7 C 5.28 g/m*3 -0.22 C 6.4 km/h
2086 07-01-2015 08:35:00 1.7 C 5.23 g/m*3 -0.22 C 6.4 km/h
2087 07-01-2015 08:40:00 1.8 C 5.26 g/m*3 1.8 C 3.2 km/h
2088 07-01-2015 08:45:00 1.8 C 5.26 g/m*3 1.8 C 3.2 km/h
2089 07-01-2015 08:50:00 1.8 C 5.26 g/m*3 -0.65 C 8.1 km/h
2090 07-01-2015 08:55:00 1.9 C 5.35 g/m*3 1.9 C 4.8 km/h
2091 07-01-2015 09:00:00 2 C 5.33 g/m*3 2 C 4.8 km/h
2092 07-01-2015 09:05:00 2.1 C 5.37 g/m*3 2.1 C 4.8 km/h
2093 07-01-2015 09:10:00 2 C 5.33 g/m*3 2 C 3.2 km/h
2094 07-01-2015 09:15:00 2 C 5.33 g/m*3 2 C 1.6 km/h
2095 07-01-2015 09:20:00 2 C 5.33 g/m*3 2 C 3.2 km/h
2096 07-01-2015 09:25:00 2.1 C 5.37 g/m*3 2.1 C 4.8 km/h
2097 07-01-2015 09:30:00 2.1 C 5.37 g/m*3 2.1 C 0 km/h
2098 07-01-2015 09:35:00 2.1 C 5.37 g/m*3 2.1 C 4.8 km/h
2099 07-01-2015 09:40:00 2.1 C 5.37 g/m*3 2.1 C 3.2 km/h
2100 07-01-2015 11:40:00 3.2 C 5.54 g/m*3 -0.1 C 12.9 km/h
Sensor: Nr:Datum:Temp:Abs-Feuchte:Windchill:Wind:
Aussen-T/F 2101 07-01-2015 11:45:00 3.3 C 5.58 g/m*3 1.63 C 6.4 km/h
2102 07-01-2015 11:50:00 3.2 C 5.54 g/m*3 0.58 C 9.7 km/h
2103 07-01-2015 11:55:00 3.2 C 5.54 g/m*3 3.2 C 4.8 km/h
2104 07-01-2015 12:00:00 3.1 C 5.51 g/m*3 1.4 C 6.4 km/h
2105 07-01-2015 12:05:00 3.1 C 5.51 g/m*3 3.1 C 4.8 km/h
2106 07-01-2015 12:10:00 3.2 C 5.54 g/m*3 1.51 C 6.4 km/h
2107 07-01-2015 12:15:00 3.1 C 5.51 g/m*3 1.4 C 6.4 km/h
2108 07-01-2015 12:20:00 3.1 C 5.51 g/m*3 3.1 C 4.8 km/h
2109 07-01-2015 12:25:00 3.1 C 5.51 g/m*3 0.1 C 11.3 km/h
2110 07-01-2015 12:30:00 3.2 C 5.54 g/m*3 0.58 C 9.7 km/h
2111 07-01-2015 12:35:00 3.2 C 5.48 g/m*3 1.51 C 6.4 km/h
2112 07-01-2015 12:40:00 3.2 C 5.54 g/m*3 0.22 C 11.3 km/h
2113 07-01-2015 12:45:00 3.3 C 5.52 g/m*3 0.34 C 11.3 km/h
2114 07-01-2015 12:50:00 3.3 C 5.52 g/m*3 1.11 C 8.1 km/h
2115 07-01-2015 12:55:00 3.4 C 5.56 g/m*3 0.46 C 11.3 km/h
2116 07-01-2015 13:00:00 3.4 C 5.5 g/m*3 0.46 C 11.3 km/h
2117 07-01-2015 13:05:00 3.4 C 5.5 g/m*3 0.46 C 11.3 km/h
2118 07-01-2015 13:10:00 3.4 C 5.5 g/m*3 1.75 C 6.4 km/h
2119 07-01-2015 13:15:00 3.4 C 5.5 g/m*3 1.23 C 8.1 km/h
2120 07-01-2015 13:20:00 3.4 C 5.56 g/m*3 1.75 C 6.4 km/h
2121 07-01-2015 13:25:00 3.4 C 5.56 g/m*3 0.46 C 11.3 km/h
2122 07-01-2015 13:30:00 3.4 C 5.56 g/m*3 1.23 C 8.1 km/h
2123 07-01-2015 13:35:00 3.4 C 5.56 g/m*3 0.82 C 9.7 km/h
2124 07-01-2015 13:40:00 3.4 C 5.5 g/m*3 -0.14 C 14.5 km/h
2125 07-01-2015 13:45:00 3.4 C 5.5 g/m*3 1.23 C 8.1 km/h
Sensor: Nr:Datum:Temp:Abs-Feuchte:Windchill:Wind:
Aussen-T/F 2126 07-01-2015 13:50:00 3.4 C 5.5 g/m*3 0.14 C 12.9 km/h
2127 07-01-2015 13:55:00 3.5 C 5.53 g/m*3 0.58 C 11.3 km/h
2128 07-01-2015 14:00:00 3.5 C 5.53 g/m*3 0.94 C 9.7 km/h
2129 07-01-2015 14:05:00 3.5 C 5.53 g/m*3 1.86 C 6.4 km/h
2130 07-01-2015 14:10:00 3.5 C 5.53 g/m*3 0.94 C 9.7 km/h
2131 07-01-2015 14:15:00 3.4 C 5.5 g/m*3 -0.4 C 16.1 km/h
2132 07-01-2015 14:20:00 3.4 C 5.5 g/m*3 0.46 C 11.3 km/h
2133 07-01-2015 14:25:00 3.4 C 5.5 g/m*3 0.82 C 9.7 km/h
2134 07-01-2015 14:30:00 3.4 C 5.44 g/m*3 0.46 C 11.3 km/h
2135 07-01-2015 14:35:00 3.4 C 5.44 g/m*3 0.82 C 9.7 km/h
2136 07-01-2015 14:40:00 3.4 C 5.44 g/m*3 0.82 C 9.7 km/h
2137 07-01-2015 14:45:00 3.4 C 5.44 g/m*3 0.82 C 9.7 km/h
2138 07-01-2015 14:50:00 3.4 C 5.44 g/m*3 0.14 C 12.9 km/h
2139 07-01-2015 14:55:00 3.4 C 5.44 g/m*3 0.46 C 11.3 km/h
2140 07-01-2015 15:00:00 3.4 C 5.44 g/m*3 3.4 C 4.8 km/h
2141 07-01-2015 15:05:00 3.4 C 5.37 g/m*3 3.4 C 4.8 km/h
2142 07-01-2015 15:10:00 3.5 C 5.47 g/m*3 0.58 C 11.3 km/h
2143 07-01-2015 15:15:00 3.5 C 5.47 g/m*3 1.86 C 6.4 km/h
2144 07-01-2015 15:20:00 3.5 C 5.47 g/m*3 1.86 C 6.4 km/h
2145 07-01-2015 15:25:00 3.5 C 5.41 g/m*3 3.5 C 4.8 km/h
2146 07-01-2015 15:30:00 3.5 C 5.47 g/m*3 3.5 C 4.8 km/h
2147 07-01-2015 15:35:00 3.4 C 5.44 g/m*3 0.82 C 9.7 km/h
2148 07-01-2015 15:40:00 3.4 C 5.37 g/m*3 1.23 C 8.1 km/h
2149 07-01-2015 15:45:00 3.3 C 5.34 g/m*3 0.7 C 9.7 km/h
2150 07-01-2015 15:50:00 3.3 C 5.4 g/m*3 0.34 C 11.3 km/h
Sensor: Nr:Datum:Temp:Abs-Feuchte:Windchill:Wind:
Aussen-T/F 2151 07-01-2015 15:55:00 3.3 C 5.4 g/m*3 0.7 C 9.7 km/h
2152 07-01-2015 16:00:00 3.2 C 5.36 g/m*3 0.99 C 8.1 km/h
2153 07-01-2015 16:05:00 3.2 C 5.36 g/m*3 3.2 C 4.8 km/h
2154 07-01-2015 16:10:00 3.2 C 5.42 g/m*3 0.99 C 8.1 km/h
2155 07-01-2015 16:15:00 3.2 C 5.36 g/m*3 0.58 C 9.7 km/h
2156 07-01-2015 16:20:00 3.2 C 5.42 g/m*3 3.2 C 4.8 km/h
2157 07-01-2015 16:25:00 3.2 C 5.42 g/m*3 3.2 C 3.2 km/h
2158 07-01-2015 16:30:00 3.1 C 5.39 g/m*3 3.1 C 3.2 km/h
2159 07-01-2015 16:35:00 3.1 C 5.39 g/m*3 3.1 C 4.8 km/h
2160 07-01-2015 16:40:00 3.1 C 5.39 g/m*3 0.87 C 8.1 km/h
2161 07-01-2015 16:45:00 3.1 C 5.39 g/m*3 1.4 C 6.4 km/h
2162 07-01-2015 16:50:00 3.1 C 5.39 g/m*3 1.4 C 6.4 km/h
2163 07-01-2015 16:55:00 3 C 5.35 g/m*3 3 C 4.8 km/h
2164 07-01-2015 17:00:00 3 C 5.35 g/m*3 1.28 C 6.4 km/h
2165 07-01-2015 17:05:00 2.9 C 5.32 g/m*3 2.9 C 3.2 km/h
2166 07-01-2015 17:10:00 2.9 C 5.32 g/m*3 2.9 C 3.2 km/h
2167 07-01-2015 17:15:00 2.9 C 5.32 g/m*3 0.22 C 9.7 km/h
2168 07-01-2015 17:20:00 2.9 C 5.37 g/m*3 2.9 C 1.6 km/h
2169 07-01-2015 17:25:00 2.8 C 5.34 g/m*3 2.8 C 0 km/h
2170 07-01-2015 17:30:00 2.8 C 5.34 g/m*3 2.8 C 0 km/h
2171 07-01-2015 17:35:00 2.8 C 5.34 g/m*3 2.8 C 0 km/h
2172 07-01-2015 17:40:00 2.7 C 5.3 g/m*3 2.7 C 3.2 km/h
2173 07-01-2015 17:45:00 2.7 C 5.3 g/m*3 0.4 C 8.1 km/h
2174 07-01-2015 17:50:00 2.8 C 5.34 g/m*3 0.52 C 8.1 km/h
2175 07-01-2015 17:55:00 2.8 C 5.34 g/m*3 1.05 C 6.4 km/h
Sensor: Nr:Datum:Temp:Abs-Feuchte:Windchill:Wind:
Aussen-T/F 2176 07-01-2015 18:00:00 2.8 C 5.28 g/m*3 2.8 C 4.8 km/h
2177 07-01-2015 18:05:00 2.8 C 5.28 g/m*3 0.1 C 9.7 km/h
2178 07-01-2015 18:10:00 2.8 C 5.28 g/m*3 1.05 C 6.4 km/h
2179 07-01-2015 18:15:00 2.8 C 5.28 g/m*3 2.8 C 3.2 km/h
2180 07-01-2015 18:20:00 2.8 C 5.28 g/m*3 2.8 C 1.6 km/h
2181 07-01-2015 18:25:00 2.8 C 5.28 g/m*3 2.8 C 3.2 km/h
2182 07-01-2015 18:30:00 2.8 C 5.28 g/m*3 2.8 C 4.8 km/h
2183 07-01-2015 18:35:00 2.8 C 5.28 g/m*3 2.8 C 3.2 km/h
2184 07-01-2015 18:40:00 2.8 C 5.28 g/m*3 2.8 C 3.2 km/h
2185 07-01-2015 18:45:00 2.8 C 5.34 g/m*3 2.8 C 0 km/h
2186 07-01-2015 18:50:00 2.7 C 5.3 g/m*3 2.7 C 0 km/h
2187 07-01-2015 18:55:00 2.7 C 5.3 g/m*3 2.7 C 1.6 km/h
2188 07-01-2015 19:00:00 2.7 C 5.3 g/m*3 2.7 C 1.6 km/h
2189 07-01-2015 19:05:00 2.7 C 5.3 g/m*3 2.7 C 0 km/h
2190 07-01-2015 19:10:00 2.7 C 5.36 g/m*3 2.7 C 1.6 km/h
2191 07-01-2015 19:15:00 2.6 C 5.32 g/m*3 2.6 C 0 km/h
2192 07-01-2015 19:20:00 2.6 C 5.32 g/m*3 2.6 C 0 km/h
2193 07-01-2015 19:25:00 2.6 C 5.32 g/m*3 2.6 C 1.6 km/h
2194 07-01-2015 19:30:00 2.6 C 5.32 g/m*3 2.6 C 1.6 km/h
2195 07-01-2015 19:35:00 2.5 C 5.35 g/m*3 2.5 C 1.6 km/h
2196 07-01-2015 19:40:00 2.5 C 5.35 g/m*3 2.5 C 0 km/h
2197 07-01-2015 19:45:00 2.5 C 5.35 g/m*3 2.5 C 0 km/h
2198 07-01-2015 19:50:00 2.4 C 5.31 g/m*3 2.4 C 0 km/h
2199 07-01-2015 19:55:00 2.4 C 5.31 g/m*3 2.4 C 3.2 km/h
2200 07-01-2015 20:00:00 2.5 C 5.35 g/m*3 2.5 C 0 km/h
Sensor: Nr:Datum:Temp:Abs-Feuchte:Windchill:Wind:
Aussen-T/F 2201 07-01-2015 20:05:00 2.5 C 5.35 g/m*3 2.5 C 0 km/h
2202 07-01-2015 20:10:00 2.6 C 5.38 g/m*3 2.6 C 0 km/h
2203 07-01-2015 20:15:00 2.6 C 5.38 g/m*3 2.6 C 0 km/h
2204 07-01-2015 20:20:00 2.6 C 5.38 g/m*3 2.6 C 0 km/h
2205 07-01-2015 20:25:00 2.6 C 5.38 g/m*3 2.6 C 0 km/h
2206 07-01-2015 20:30:00 2.6 C 5.38 g/m*3 2.6 C 1.6 km/h
2207 07-01-2015 20:35:00 2.6 C 5.32 g/m*3 2.6 C 4.8 km/h
2208 07-01-2015 20:40:00 2.6 C 5.32 g/m*3 0.29 C 8.1 km/h
2209 07-01-2015 20:45:00 2.7 C 5.36 g/m*3 0.94 C 6.4 km/h
2210 07-01-2015 20:50:00 2.7 C 5.36 g/m*3 0.94 C 6.4 km/h
2211 07-01-2015 20:55:00 2.7 C 5.36 g/m*3 2.7 C 3.2 km/h
2212 07-01-2015 21:00:00 2.7 C 5.36 g/m*3 2.7 C 1.6 km/h
2213 07-01-2015 21:05:00 2.7 C 5.36 g/m*3 2.7 C 1.6 km/h
2214 07-01-2015 21:10:00 2.7 C 5.36 g/m*3 2.7 C 3.2 km/h
2215 07-01-2015 21:15:00 2.6 C 5.32 g/m*3 2.6 C 3.2 km/h
2216 07-01-2015 21:20:00 2.6 C 5.32 g/m*3 2.6 C 3.2 km/h
2217 07-01-2015 21:25:00 2.6 C 5.27 g/m*3 2.6 C 3.2 km/h
2218 07-01-2015 21:30:00 2.6 C 5.32 g/m*3 2.6 C 0 km/h
2219 07-01-2015 21:35:00 2.6 C 5.32 g/m*3 2.6 C 1.6 km/h
2220 07-01-2015 21:40:00 2.6 C 5.32 g/m*3 2.6 C 1.6 km/h
2221 07-01-2015 21:45:00 2.5 C 5.29 g/m*3 2.5 C 0 km/h
2222 07-01-2015 21:50:00 2.4 C 5.25 g/m*3 2.4 C 0 km/h
2223 07-01-2015 21:55:00 2.4 C 5.31 g/m*3 2.4 C 0 km/h
2224 07-01-2015 22:00:00 2.4 C 5.31 g/m*3 2.4 C 0 km/h
2225 07-01-2015 22:05:00 2.4 C 5.31 g/m*3 2.4 C 0 km/h
Sensor: Nr:Datum:Temp:Abs-Feuchte:Windchill:Wind:
Aussen-T/F 2226 07-01-2015 22:10:00 2.4 C 5.31 g/m*3 2.4 C 0 km/h
2227 07-01-2015 22:15:00 2.4 C 5.31 g/m*3 2.4 C 0 km/h
2228 07-01-2015 22:20:00 2.4 C 5.31 g/m*3 2.4 C 1.6 km/h
2229 07-01-2015 22:25:00 2.4 C 5.25 g/m*3 2.4 C 1.6 km/h
2230 07-01-2015 22:30:00 2.4 C 5.25 g/m*3 0.59 C 6.4 km/h
2231 07-01-2015 22:35:00 2.4 C 5.2 g/m*3 2.4 C 3.2 km/h
2232 07-01-2015 22:40:00 2.6 C 5.21 g/m*3 2.6 C 4.8 km/h
2233 07-01-2015 22:45:00 2.6 C 5.15 g/m*3 2.6 C 3.2 km/h
2234 07-01-2015 22:50:00 2.6 C 5.15 g/m*3 2.6 C 3.2 km/h
2235 07-01-2015 22:55:00 2.7 C 5.19 g/m*3 2.7 C 1.6 km/h
2236 07-01-2015 23:00:00 2.7 C 5.19 g/m*3 0.4 C 8.1 km/h
2237 07-01-2015 23:05:00 2.7 C 5.13 g/m*3 0.94 C 6.4 km/h
2238 07-01-2015 23:10:00 2.8 C 5.16 g/m*3 2.8 C 3.2 km/h
2239 07-01-2015 23:15:00 2.8 C 5.16 g/m*3 2.8 C 0 km/h
2240 07-01-2015 23:20:00 2.8 C 5.16 g/m*3 0.52 C 8.1 km/h
2241 07-01-2015 23:25:00 2.8 C 5.16 g/m*3 2.8 C 3.2 km/h
2242 07-01-2015 23:30:00 2.8 C 5.16 g/m*3 2.8 C 0 km/h
2243 07-01-2015 23:35:00 2.8 C 5.16 g/m*3 2.8 C 3.2 km/h
2244 07-01-2015 23:40:00 2.9 C 5.2 g/m*3 2.9 C 3.2 km/h
2245 07-01-2015 23:45:00 2.9 C 5.2 g/m*3 2.9 C 0 km/h
2246 07-01-2015 23:50:00 2.9 C 5.26 g/m*3 2.9 C 0 km/h
2247 07-01-2015 23:55:00 2.8 C 5.22 g/m*3 2.8 C 0 km/h
2248 08-01-2015 00:00:00 2.8 C 5.28 g/m*3 2.8 C 0 km/h
2249 08-01-2015 00:05:00 2.7 C 5.3 g/m*3 2.7 C 3.2 km/h
2250 08-01-2015 00:10:00 2.6 C 5.27 g/m*3 2.6 C 0 km/h
Sensor: Nr:Datum:Temp:Abs-Feuchte:Windchill:Wind:
Aussen-T/F 2251 08-01-2015 00:15:00 2.6 C 5.32 g/m*3 2.6 C 0 km/h
2252 08-01-2015 00:20:00 2.6 C 5.32 g/m*3 2.6 C 0 km/h
2253 08-01-2015 00:25:00 2.6 C 5.32 g/m*3 2.6 C 1.6 km/h
2254 08-01-2015 00:30:00 2.6 C 5.32 g/m*3 2.6 C 1.6 km/h
2255 08-01-2015 00:35:00 2.6 C 5.32 g/m*3 2.6 C 0 km/h
2256 08-01-2015 00:40:00 2.6 C 5.38 g/m*3 2.6 C 1.6 km/h
2257 08-01-2015 00:45:00 2.6 C 5.38 g/m*3 2.6 C 1.6 km/h
2258 08-01-2015 00:50:00 2.6 C 5.38 g/m*3 2.6 C 0 km/h
2259 08-01-2015 00:55:00 2.6 C 5.38 g/m*3 2.6 C 1.6 km/h
2260 08-01-2015 01:00:00 2.6 C 5.38 g/m*3 2.6 C 0 km/h
2261 08-01-2015 01:05:00 2.6 C 5.38 g/m*3 2.6 C 0 km/h
2262 08-01-2015 01:10:00 2.6 C 5.44 g/m*3 2.6 C 0 km/h
2263 08-01-2015 01:15:00 2.6 C 5.44 g/m*3 2.6 C 0 km/h
2264 08-01-2015 01:20:00 2.6 C 5.44 g/m*3 2.6 C 0 km/h
2265 08-01-2015 01:25:00 2.6 C 5.44 g/m*3 2.6 C 0 km/h
2266 08-01-2015 01:30:00 2.6 C 5.44 g/m*3 2.6 C 1.6 km/h
2267 08-01-2015 01:35:00 2.6 C 5.44 g/m*3 2.6 C 0 km/h
2268 08-01-2015 01:40:00 2.6 C 5.44 g/m*3 2.6 C 0 km/h
2269 08-01-2015 01:45:00 2.7 C 5.48 g/m*3 2.7 C 0 km/h
2270 08-01-2015 01:50:00 2.7 C 5.48 g/m*3 2.7 C 0 km/h
2271 08-01-2015 01:55:00 2.7 C 5.48 g/m*3 2.7 C 0 km/h
2272 08-01-2015 02:00:00 2.6 C 5.44 g/m*3 2.6 C 0 km/h
2273 08-01-2015 02:05:00 2.7 C 5.48 g/m*3 2.7 C 0 km/h
2274 08-01-2015 02:10:00 2.7 C 5.48 g/m*3 2.7 C 0 km/h
2275 08-01-2015 02:15:00 2.7 C 5.48 g/m*3 2.7 C 0 km/h
Sensor: Nr:Datum:Temp:Abs-Feuchte:Windchill:Wind:
Aussen-T/F 2276 08-01-2015 02:20:00 2.7 C 5.48 g/m*3 2.7 C 0 km/h
2277 08-01-2015 02:25:00 2.7 C 5.48 g/m*3 2.7 C 0 km/h
2278 08-01-2015 02:30:00 2.7 C 5.48 g/m*3 2.7 C 0 km/h
2279 08-01-2015 02:35:00 2.8 C 5.51 g/m*3 2.8 C 0 km/h
2280 08-01-2015 02:40:00 2.8 C 5.51 g/m*3 2.8 C 1.6 km/h
2281 08-01-2015 02:45:00 2.9 C 5.55 g/m*3 2.9 C 0 km/h
2282 08-01-2015 02:50:00 2.9 C 5.55 g/m*3 2.9 C 0 km/h
2283 08-01-2015 02:55:00 3.2 C 5.66 g/m*3 1.51 C 6.4 km/h
2284 08-01-2015 03:00:00 3.4 C 5.74 g/m*3 0.82 C 9.7 km/h
2285 08-01-2015 03:05:00 3.8 C 5.9 g/m*3 0.35 C 14.5 km/h
2286 08-01-2015 03:10:00 4 C 5.98 g/m*3 2.44 C 6.4 km/h
2287 08-01-2015 03:15:00 4.2 C 5.99 g/m*3 1.43 C 11.3 km/h
2288 08-01-2015 03:20:00 4.2 C 5.93 g/m*3 2.17 C 8.1 km/h
2289 08-01-2015 03:25:00 4.3 C 5.97 g/m*3 1.24 C 12.9 km/h
2290 08-01-2015 03:30:00 4.4 C 6.01 g/m*3 2.01 C 9.7 km/h
2291 08-01-2015 03:35:00 4.5 C 6.05 g/m*3 1.48 C 12.9 km/h
2292 08-01-2015 03:40:00 4.6 C 6.02 g/m*3 3.13 C 6.4 km/h
2293 08-01-2015 03:45:00 4.7 C 6.06 g/m*3 2.37 C 9.7 km/h
2294 08-01-2015 03:50:00 4.7 C 6.06 g/m*3 4.7 C 4.8 km/h
2295 08-01-2015 03:55:00 4.6 C 6.02 g/m*3 3.13 C 6.4 km/h
2296 08-01-2015 04:00:00 4.6 C 6.09 g/m*3 4.6 C 4.8 km/h
2297 08-01-2015 04:05:00 4.5 C 6.05 g/m*3 4.5 C 4.8 km/h
2298 08-01-2015 04:10:00 4.4 C 6.07 g/m*3 4.4 C 4.8 km/h
2299 08-01-2015 04:15:00 4.4 C 6.14 g/m*3 4.4 C 4.8 km/h
2300 08-01-2015 04:20:00 4.5 C 6.18 g/m*3 4.5 C 4.8 km/h
Sensor: Nr:Datum:Temp:Abs-Feuchte:Windchill:Wind:
Aussen-T/F 2301 08-01-2015 04:25:00 4.5 C 6.18 g/m*3 4.5 C 0 km/h
2302 08-01-2015 04:30:00 4.4 C 6.14 g/m*3 4.4 C 4.8 km/h
2303 08-01-2015 04:35:00 4.3 C 6.16 g/m*3 4.3 C 0 km/h
2304 08-01-2015 04:40:00 4.2 C 6.12 g/m*3 4.2 C 4.8 km/h
2305 08-01-2015 04:45:00 4.2 C 6.12 g/m*3 4.2 C 3.2 km/h
2306 08-01-2015 04:50:00 4.2 C 6.19 g/m*3 4.2 C 3.2 km/h
2307 08-01-2015 04:55:00 4.2 C 6.19 g/m*3 4.2 C 3.2 km/h
2308 08-01-2015 05:00:00 4.2 C 6.19 g/m*3 4.2 C 1.6 km/h
2309 08-01-2015 05:05:00 4.3 C 6.23 g/m*3 4.3 C 1.6 km/h
2310 08-01-2015 05:10:00 4.3 C 6.23 g/m*3 4.3 C 0 km/h
2311 08-01-2015 05:15:00 4.2 C 6.19 g/m*3 4.2 C 0 km/h
2312 08-01-2015 05:20:00 4.2 C 6.19 g/m*3 4.2 C 1.6 km/h
2313 08-01-2015 05:25:00 4.3 C 6.23 g/m*3 4.3 C 3.2 km/h
2314 08-01-2015 05:30:00 4.3 C 6.23 g/m*3 4.3 C 1.6 km/h
2315 08-01-2015 05:35:00 4.3 C 6.23 g/m*3 4.3 C 1.6 km/h
2316 08-01-2015 05:40:00 4.3 C 6.29 g/m*3 4.3 C 3.2 km/h
2317 08-01-2015 05:45:00 4.3 C 6.23 g/m*3 4.3 C 4.8 km/h
2318 08-01-2015 05:50:00 4.3 C 6.23 g/m*3 4.3 C 1.6 km/h
2319 08-01-2015 05:55:00 4.3 C 6.23 g/m*3 4.3 C 0 km/h
2320 08-01-2015 06:00:00 4.3 C 6.23 g/m*3 4.3 C 3.2 km/h
2321 08-01-2015 06:05:00 4.3 C 6.29 g/m*3 4.3 C 1.6 km/h
2322 08-01-2015 06:10:00 4.3 C 6.29 g/m*3 4.3 C 0 km/h
2323 08-01-2015 06:15:00 4.2 C 6.25 g/m*3 4.2 C 1.6 km/h
2324 08-01-2015 06:20:00 4.3 C 6.29 g/m*3 4.3 C 1.6 km/h
2325 08-01-2015 06:25:00 4.3 C 6.29 g/m*3 4.3 C 0 km/h
Sensor: Nr:Datum:Temp:Abs-Feuchte:Windchill:Wind:
Aussen-T/F 2326 08-01-2015 06:30:00 4.3 C 6.29 g/m*3 4.3 C 3.2 km/h
2327 08-01-2015 06:35:00 4.3 C 6.29 g/m*3 4.3 C 1.6 km/h
2328 08-01-2015 06:40:00 4.2 C 6.25 g/m*3 4.2 C 1.6 km/h
2329 08-01-2015 06:45:00 4.3 C 6.29 g/m*3 4.3 C 0 km/h
2330 08-01-2015 06:50:00 4.3 C 6.29 g/m*3 4.3 C 0 km/h
2331 08-01-2015 06:55:00 4.3 C 6.29 g/m*3 4.3 C 0 km/h
2332 08-01-2015 07:00:00 4.3 C 6.29 g/m*3 4.3 C 1.6 km/h
2333 08-01-2015 07:05:00 4.4 C 6.33 g/m*3 4.4 C 1.6 km/h
2334 08-01-2015 07:10:00 4.4 C 6.33 g/m*3 4.4 C 4.8 km/h
2335 08-01-2015 07:15:00 4.5 C 6.38 g/m*3 4.5 C 3.2 km/h
2336 08-01-2015 07:20:00 4.7 C 6.53 g/m*3 2.03 C 11.3 km/h
2337 08-01-2015 07:25:00 4.9 C 6.62 g/m*3 2.99 C 8.1 km/h
2338 08-01-2015 07:30:00 5.1 C 6.7 g/m*3 5.1 C 3.2 km/h
2339 08-01-2015 07:35:00 5.2 C 6.68 g/m*3 3.34 C 8.1 km/h
2340 08-01-2015 07:40:00 5.3 C 6.72 g/m*3 2.46 C 12.9 km/h
2341 08-01-2015 07:45:00 5.4 C 6.77 g/m*3 2.08 C 16.1 km/h
2342 08-01-2015 07:50:00 5.6 C 6.86 g/m*3 2.33 C 16.1 km/h
2343 08-01-2015 07:55:00 5.6 C 6.79 g/m*3 2.11 C 17.7 km/h
2344 08-01-2015 08:00:00 5.7 C 6.83 g/m*3 3.93 C 8.1 km/h
2345 08-01-2015 08:05:00 5.6 C 6.79 g/m*3 5.6 C 4.8 km/h
2346 08-01-2015 08:10:00 5.6 C 6.79 g/m*3 3.81 C 8.1 km/h
2347 08-01-2015 08:15:00 5.7 C 6.83 g/m*3 3.56 C 9.7 km/h
2348 08-01-2015 08:20:00 5.7 C 6.83 g/m*3 3.93 C 8.1 km/h
2349 08-01-2015 08:25:00 5.7 C 6.83 g/m*3 4.4 C 6.4 km/h
2350 08-01-2015 08:30:00 5.7 C 6.83 g/m*3 5.7 C 4.8 km/h
Sensor: Nr:Datum:Temp:Abs-Feuchte:Windchill:Wind:
Aussen-T/F 2351 08-01-2015 08:35:00 5.6 C 6.79 g/m*3 5.6 C 1.6 km/h
2352 08-01-2015 08:40:00 5.6 C 6.79 g/m*3 5.6 C 1.6 km/h
2353 08-01-2015 08:45:00 5.6 C 6.79 g/m*3 5.6 C 0 km/h
2354 08-01-2015 08:50:00 5.6 C 6.79 g/m*3 5.6 C 4.8 km/h
2355 08-01-2015 08:55:00 5.5 C 6.74 g/m*3 5.5 C 3.2 km/h
2356 08-01-2015 09:00:00 5.4 C 6.77 g/m*3 5.4 C 3.2 km/h
2357 08-01-2015 09:05:00 5.4 C 6.77 g/m*3 5.4 C 3.2 km/h
2358 08-01-2015 09:10:00 5.5 C 6.81 g/m*3 5.5 C 0 km/h
2359 08-01-2015 09:15:00 5.5 C 6.81 g/m*3 5.5 C 1.6 km/h
2360 08-01-2015 09:20:00 5.5 C 6.81 g/m*3 5.5 C 0 km/h
2361 08-01-2015 09:25:00 5.5 C 6.81 g/m*3 5.5 C 0 km/h
2362 08-01-2015 09:30:00 5.6 C 6.86 g/m*3 5.6 C 0 km/h
2363 08-01-2015 09:35:00 5.6 C 6.86 g/m*3 5.6 C 3.2 km/h
2364 08-01-2015 09:40:00 5.6 C 6.86 g/m*3 5.6 C 1.6 km/h
2365 08-01-2015 09:45:00 5.7 C 6.97 g/m*3 5.7 C 1.6 km/h
2366 08-01-2015 09:50:00 5.8 C 7.02 g/m*3 5.8 C 3.2 km/h
2367 08-01-2015 09:55:00 5.9 C 7.07 g/m*3 5.9 C 1.6 km/h
2368 08-01-2015 10:00:00 6 C 7.11 g/m*3 6 C 3.2 km/h
2369 08-01-2015 10:05:00 6.1 C 7.16 g/m*3 6.1 C 3.2 km/h
2370 08-01-2015 10:10:00 6.1 C 7.16 g/m*3 6.1 C 4.8 km/h
2371 08-01-2015 10:15:00 6.2 C 7.21 g/m*3 6.2 C 1.6 km/h
2372 08-01-2015 10:20:00 6.3 C 7.25 g/m*3 6.3 C 0 km/h
2373 08-01-2015 10:25:00 6.4 C 7.3 g/m*3 6.4 C 3.2 km/h
2374 08-01-2015 10:30:00 6.4 C 7.3 g/m*3 6.4 C 0 km/h
2375 08-01-2015 10:35:00 6.6 C 7.4 g/m*3 6.6 C 4.8 km/h
Sensor: Nr:Datum:Temp:Abs-Feuchte:Windchill:Wind:
Aussen-T/F 2376 08-01-2015 10:40:00 6.7 C 7.45 g/m*3 5.56 C 6.4 km/h
2377 08-01-2015 10:45:00 6.8 C 7.5 g/m*3 6.8 C 1.6 km/h
2378 08-01-2015 10:50:00 6.8 C 7.42 g/m*3 5.67 C 6.4 km/h
2379 08-01-2015 10:55:00 6.9 C 7.47 g/m*3 4.68 C 11.3 km/h
2380 08-01-2015 11:00:00 7.1 C 7.57 g/m*3 7.1 C 3.2 km/h
2381 08-01-2015 11:05:00 7.1 C 7.57 g/m*3 7.1 C 4.8 km/h
2382 08-01-2015 11:10:00 7.2 C 7.61 g/m*3 7.2 C 4.8 km/h
2383 08-01-2015 11:15:00 7.2 C 7.61 g/m*3 7.2 C 4.8 km/h
2384 08-01-2015 11:20:00 7.3 C 7.58 g/m*3 5.47 C 9.7 km/h
2385 08-01-2015 11:25:00 7.4 C 7.63 g/m*3 5.93 C 8.1 km/h
2386 08-01-2015 11:30:00 7.6 C 7.65 g/m*3 5.82 C 9.7 km/h
2387 08-01-2015 11:35:00 7.7 C 7.7 g/m*3 6.28 C 8.1 km/h
2388 08-01-2015 11:40:00 7.7 C 7.7 g/m*3 6.71 C 6.4 km/h
2389 08-01-2015 11:45:00 7.8 C 7.75 g/m*3 6.06 C 9.7 km/h
2390 08-01-2015 11:50:00 7.9 C 7.8 g/m*3 6.18 C 9.7 km/h
2391 08-01-2015 11:55:00 8 C 7.85 g/m*3 6.3 C 9.7 km/h
2392 08-01-2015 12:00:00 8.1 C 7.82 g/m*3 8.1 C 3.2 km/h
2393 08-01-2015 12:05:00 8.1 C 7.82 g/m*3 8.1 C 3.2 km/h
2394 08-01-2015 12:10:00 8.1 C 7.82 g/m*3 6.75 C 8.1 km/h
2395 08-01-2015 12:15:00 8.1 C 7.82 g/m*3 6.75 C 8.1 km/h
2396 08-01-2015 12:20:00 8.2 C 7.87 g/m*3 6.87 C 8.1 km/h
2397 08-01-2015 12:25:00 8.2 C 7.87 g/m*3 6.87 C 8.1 km/h
2398 08-01-2015 12:30:00 8.3 C 7.92 g/m*3 7.41 C 6.4 km/h
2399 08-01-2015 12:35:00 8.4 C 7.89 g/m*3 6.49 C 11.3 km/h
2400 08-01-2015 12:40:00 8.6 C 7.99 g/m*3 6.48 C 12.9 km/h
Sensor: Nr:Datum:Temp:Abs-Feuchte:Windchill:Wind:
Aussen-T/F 2401 08-01-2015 12:45:00 8.7 C 7.96 g/m*3 7.46 C 8.1 km/h
2402 08-01-2015 12:50:00 8.8 C 8.01 g/m*3 7.58 C 8.1 km/h
2403 08-01-2015 12:55:00 8.9 C 8.06 g/m*3 6.85 C 12.9 km/h
2404 08-01-2015 13:00:00 8.9 C 8.06 g/m*3 6.42 C 16.1 km/h
2405 08-01-2015 13:05:00 8.9 C 8.06 g/m*3 6.42 C 16.1 km/h
2406 08-01-2015 13:10:00 8.9 C 8.06 g/m*3 6.23 C 17.7 km/h
2407 08-01-2015 13:15:00 8.9 C 8.06 g/m*3 5.6 C 24.1 km/h
2408 08-01-2015 13:20:00 9 C 8.11 g/m*3 5.6 C 25.7 km/h
2409 08-01-2015 13:25:00 9 C 8.11 g/m*3 5.73 C 24.1 km/h
2410 08-01-2015 13:30:00 9.1 C 8.16 g/m*3 6.15 C 20.9 km/h
2411 08-01-2015 13:35:00 9.1 C 8.16 g/m*3 5.73 C 25.7 km/h
2412 08-01-2015 13:40:00 9.2 C 8.13 g/m*3 6.13 C 22.5 km/h
2413 08-01-2015 13:45:00 9.2 C 8.13 g/m*3 5.86 C 25.7 km/h
2414 08-01-2015 13:50:00 9.3 C 8.18 g/m*3 6.12 C 24.1 km/h
2415 08-01-2015 13:55:00 9.3 C 8.18 g/m*3 5.98 C 25.7 km/h
2416 08-01-2015 14:00:00 9.2 C 8.22 g/m*3 7.21 C 12.9 km/h
2417 08-01-2015 14:05:00 9.2 C 8.22 g/m*3 6.61 C 17.7 km/h
2418 08-01-2015 14:10:00 9.2 C 8.13 g/m*3 5.86 C 25.7 km/h
2419 08-01-2015 14:15:00 9.3 C 8.18 g/m*3 6.73 C 17.7 km/h
2420 08-01-2015 14:20:00 9.3 C 8.18 g/m*3 6.92 C 16.1 km/h
2421 08-01-2015 14:25:00 9.4 C 8.23 g/m*3 7.04 C 16.1 km/h
2422 08-01-2015 14:30:00 9.4 C 8.23 g/m*3 6.11 C 25.7 km/h
2423 08-01-2015 14:35:00 9.5 C 8.28 g/m*3 6.82 C 19.3 km/h
2424 08-01-2015 14:40:00 9.6 C 8.34 g/m*3 6.94 C 19.3 km/h
2425 08-01-2015 14:45:00 9.6 C 8.24 g/m*3 6.79 C 20.9 km/h
Sensor: Nr:Datum:Temp:Abs-Feuchte:Windchill:Wind:
Aussen-T/F 2426 08-01-2015 14:50:00 9.6 C 8.24 g/m*3 7.48 C 14.5 km/h
2427 08-01-2015 14:55:00 9.7 C 8.3 g/m*3 7.23 C 17.7 km/h
2428 08-01-2015 15:00:00 9.7 C 8.3 g/m*3 7.41 C 16.1 km/h
2429 08-01-2015 15:05:00 9.8 C 8.35 g/m*3 7.19 C 19.3 km/h
2430 08-01-2015 15:10:00 9.8 C 8.35 g/m*3 7.36 C 17.7 km/h
2431 08-01-2015 15:15:00 9.7 C 8.39 g/m*3 9.02 C 6.4 km/h
2432 08-01-2015 15:20:00 9.6 C 8.34 g/m*3 7.7 C 12.9 km/h
2433 08-01-2015 15:25:00 9.5 C 8.37 g/m*3 8.4 C 8.1 km/h
2434 08-01-2015 15:30:00 9.5 C 8.37 g/m*3 8.09 C 9.7 km/h
2435 08-01-2015 15:35:00 9.6 C 8.34 g/m*3 7.29 C 16.1 km/h
2436 08-01-2015 15:40:00 9.7 C 8.39 g/m*3 8.33 C 9.7 km/h
2437 08-01-2015 15:45:00 9.7 C 8.39 g/m*3 6.5 C 25.7 km/h
2438 08-01-2015 15:50:00 9.8 C 8.35 g/m*3 6.89 C 22.5 km/h
2439 08-01-2015 15:55:00 9.8 C 8.35 g/m*3 7.54 C 16.1 km/h
2440 08-01-2015 16:00:00 9.8 C 8.35 g/m*3 7.73 C 14.5 km/h
2441 08-01-2015 16:05:00 9.8 C 8.26 g/m*3 6.17 C 32.2 km/h
2442 08-01-2015 16:10:00 9.9 C 8.31 g/m*3 7.02 C 22.5 km/h
2443 08-01-2015 16:15:00 9.9 C 8.31 g/m*3 7.66 C 16.1 km/h
2444 08-01-2015 16:20:00 9.9 C 8.31 g/m*3 7.48 C 17.7 km/h
2445 08-01-2015 16:25:00 9.8 C 8.26 g/m*3 7.73 C 14.5 km/h
2446 08-01-2015 16:30:00 9.8 C 8.35 g/m*3 6.27 C 30.6 km/h
2447 08-01-2015 16:35:00 9.8 C 8.35 g/m*3 6.89 C 22.5 km/h
2448 08-01-2015 16:40:00 9.7 C 8.3 g/m*3 7.23 C 17.7 km/h
2449 08-01-2015 16:45:00 9.7 C 8.3 g/m*3 7.41 C 16.1 km/h
2450 08-01-2015 16:50:00 9.7 C 8.3 g/m*3 8.06 C 11.3 km/h
Sensor: Nr:Datum:Temp:Abs-Feuchte:Windchill:Wind:
Aussen-T/F 2451 08-01-2015 16:55:00 9.6 C 8.34 g/m*3 7.7 C 12.9 km/h
2452 08-01-2015 17:00:00 9.6 C 8.34 g/m*3 7.48 C 14.5 km/h
2453 08-01-2015 17:05:00 9.6 C 8.34 g/m*3 6.94 C 19.3 km/h
2454 08-01-2015 17:10:00 9.6 C 8.34 g/m*3 7.94 C 11.3 km/h
2455 08-01-2015 17:15:00 9.6 C 8.34 g/m*3 7.11 C 17.7 km/h
2456 08-01-2015 17:20:00 9.6 C 8.34 g/m*3 6.79 C 20.9 km/h
2457 08-01-2015 17:25:00 9.7 C 8.39 g/m*3 7.41 C 16.1 km/h
2458 08-01-2015 17:30:00 9.7 C 8.39 g/m*3 7.41 C 16.1 km/h
2459 08-01-2015 17:35:00 9.7 C 8.39 g/m*3 7.23 C 17.7 km/h
2460 08-01-2015 17:40:00 9.7 C 8.39 g/m*3 7.61 C 14.5 km/h
2461 08-01-2015 17:45:00 9.7 C 8.39 g/m*3 7.41 C 16.1 km/h
2462 08-01-2015 17:50:00 9.7 C 8.39 g/m*3 7.23 C 17.7 km/h
2463 08-01-2015 17:55:00 9.7 C 8.39 g/m*3 7.82 C 12.9 km/h
2464 08-01-2015 18:00:00 9.8 C 8.44 g/m*3 7.04 C 20.9 km/h
2465 08-01-2015 18:05:00 9.8 C 8.44 g/m*3 7.36 C 17.7 km/h
2466 08-01-2015 18:10:00 9.8 C 8.44 g/m*3 6.89 C 22.5 km/h
2467 08-01-2015 18:15:00 9.8 C 8.44 g/m*3 7.36 C 17.7 km/h
2468 08-01-2015 18:20:00 9.8 C 8.44 g/m*3 7.04 C 20.9 km/h
2469 08-01-2015 18:25:00 9.8 C 8.44 g/m*3 7.19 C 19.3 km/h
2470 08-01-2015 18:30:00 9.8 C 8.44 g/m*3 6.63 C 25.7 km/h
2471 08-01-2015 18:35:00 9.8 C 8.44 g/m*3 6.76 C 24.1 km/h
2472 08-01-2015 18:40:00 9.8 C 8.44 g/m*3 7.19 C 19.3 km/h
2473 08-01-2015 18:45:00 9.7 C 8.48 g/m*3 7.82 C 12.9 km/h
2474 08-01-2015 18:50:00 9.7 C 8.48 g/m*3 7.07 C 19.3 km/h
2475 08-01-2015 18:55:00 9.7 C 8.48 g/m*3 7.07 C 19.3 km/h
Sensor: Nr:Datum:Temp:Abs-Feuchte:Windchill:Wind:
Aussen-T/F 2476 08-01-2015 19:00:00 9.6 C 8.43 g/m*3 7.29 C 16.1 km/h
2477 08-01-2015 19:05:00 9.6 C 8.43 g/m*3 5.61 C 37 km/h
2478 08-01-2015 19:10:00 9.6 C 8.34 g/m*3 6.5 C 24.1 km/h
2479 08-01-2015 19:15:00 9.5 C 8.01 g/m*3 6.37 C 24.1 km/h
2480 08-01-2015 19:20:00 9.3 C 7.73 g/m*3 6.92 C 16.1 km/h
2481 08-01-2015 19:25:00 9.1 C 7.54 g/m*3 6.67 C 16.1 km/h
2482 08-01-2015 19:30:00 8.9 C 7.36 g/m*3 5.47 C 25.7 km/h
2483 08-01-2015 19:35:00 8.9 C 7.45 g/m*3 6.85 C 12.9 km/h
2484 08-01-2015 19:40:00 8.8 C 7.31 g/m*3 5.48 C 24.1 km/h
2485 08-01-2015 19:45:00 8.7 C 7.26 g/m*3 4.62 C 33.8 km/h
2486 08-01-2015 19:50:00 8.5 C 7.26 g/m*3 4.46 C 32.2 km/h
2487 08-01-2015 19:55:00 8.3 C 7.16 g/m*3 4.84 C 24.1 km/h
2488 08-01-2015 20:00:00 8.1 C 7.07 g/m*3 4.58 C 24.1 km/h
2489 08-01-2015 20:05:00 8 C 7.11 g/m*3 6.3 C 9.7 km/h
2490 08-01-2015 20:10:00 7.9 C 7.15 g/m*3 5.39 C 14.5 km/h
2491 08-01-2015 20:15:00 7.8 C 7.1 g/m*3 4.86 C 17.7 km/h
2492 08-01-2015 20:20:00 7.8 C 7.1 g/m*3 5.27 C 14.5 km/h
2493 08-01-2015 20:25:00 7.7 C 7.14 g/m*3 5.38 C 12.9 km/h
2494 08-01-2015 20:30:00 7.7 C 7.14 g/m*3 5.65 C 11.3 km/h
2495 08-01-2015 20:35:00 7.6 C 7.09 g/m*3 4.81 C 16.1 km/h
2496 08-01-2015 20:40:00 7.6 C 7.17 g/m*3 4.61 C 17.7 km/h
2497 08-01-2015 20:45:00 7.5 C 7.12 g/m*3 5.7 C 9.7 km/h
2498 08-01-2015 20:50:00 7.4 C 7.08 g/m*3 5.58 C 9.7 km/h
2499 08-01-2015 20:55:00 7.4 C 7.16 g/m*3 5.02 C 12.9 km/h
2500 08-01-2015 21:00:00 7.4 C 7.16 g/m*3 5.93 C 8.1 km/h
Sensor: Nr:Datum:Temp:Abs-Feuchte:Windchill:Wind:
Aussen-T/F 2501 08-01-2015 21:05:00 7.3 C 7.11 g/m*3 4.9 C 12.9 km/h
2502 08-01-2015 21:10:00 7.3 C 7.03 g/m*3 4.9 C 12.9 km/h
2503 08-01-2015 21:15:00 7.3 C 7.03 g/m*3 5.16 C 11.3 km/h
2504 08-01-2015 21:20:00 7.4 C 7.08 g/m*3 5.28 C 11.3 km/h
2505 08-01-2015 21:25:00 7.3 C 7.03 g/m*3 5.47 C 9.7 km/h
2506 08-01-2015 21:30:00 7.3 C 7.03 g/m*3 5.81 C 8.1 km/h
2507 08-01-2015 21:35:00 7.3 C 7.03 g/m*3 6.25 C 6.4 km/h
2508 08-01-2015 21:40:00 7.3 C 7.03 g/m*3 5.16 C 11.3 km/h
2509 08-01-2015 21:45:00 7.3 C 7.03 g/m*3 5.47 C 9.7 km/h
2510 08-01-2015 21:50:00 7.3 C 7.03 g/m*3 5.16 C 11.3 km/h
2511 08-01-2015 21:55:00 7.3 C 6.95 g/m*3 5.47 C 9.7 km/h
2512 08-01-2015 22:00:00 7.3 C 6.95 g/m*3 4.66 C 14.5 km/h
2513 08-01-2015 22:05:00 7.3 C 6.95 g/m*3 4.9 C 12.9 km/h
2514 08-01-2015 22:10:00 7.2 C 6.99 g/m*3 5.04 C 11.3 km/h
2515 08-01-2015 22:15:00 7.2 C 6.91 g/m*3 4.53 C 14.5 km/h
2516 08-01-2015 22:20:00 7.2 C 6.91 g/m*3 4.53 C 14.5 km/h
2517 08-01-2015 22:25:00 7.2 C 6.91 g/m*3 4.53 C 14.5 km/h
2518 08-01-2015 22:30:00 7.2 C 6.91 g/m*3 5.35 C 9.7 km/h
2519 08-01-2015 22:35:00 7.1 C 6.86 g/m*3 7.1 C 4.8 km/h
2520 08-01-2015 22:40:00 7.1 C 6.86 g/m*3 5.23 C 9.7 km/h
2521 08-01-2015 22:45:00 7.1 C 6.86 g/m*3 4.65 C 12.9 km/h
2522 08-01-2015 22:50:00 7 C 6.82 g/m*3 5.11 C 9.7 km/h
2523 08-01-2015 22:55:00 7 C 6.9 g/m*3 5.46 C 8.1 km/h
2524 08-01-2015 23:00:00 6.9 C 6.85 g/m*3 5.79 C 6.4 km/h
2525 08-01-2015 23:05:00 6.8 C 6.81 g/m*3 5.67 C 6.4 km/h
Sensor: Nr:Datum:Temp:Abs-Feuchte:Windchill:Wind:
Aussen-T/F 2526 08-01-2015 23:10:00 6.7 C 6.84 g/m*3 6.7 C 4.8 km/h
2527 08-01-2015 23:15:00 6.6 C 6.79 g/m*3 4.99 C 8.1 km/h
2528 08-01-2015 23:20:00 6.5 C 6.75 g/m*3 5.33 C 6.4 km/h
2529 08-01-2015 23:25:00 6.4 C 6.78 g/m*3 3.8 C 12.9 km/h
2530 08-01-2015 23:30:00 6.5 C 6.82 g/m*3 4.51 C 9.7 km/h
2531 08-01-2015 23:35:00 6.6 C 6.87 g/m*3 4.32 C 11.3 km/h
2532 08-01-2015 23:40:00 6.5 C 6.75 g/m*3 4.51 C 9.7 km/h
2533 08-01-2015 23:45:00 6.5 C 6.82 g/m*3 5.33 C 6.4 km/h
2534 08-01-2015 23:50:00 6.4 C 6.78 g/m*3 6.4 C 4.8 km/h
2535 08-01-2015 23:55:00 6.5 C 6.75 g/m*3 4.2 C 11.3 km/h
2536 09-01-2015 00:00:00 6.6 C 6.79 g/m*3 4.04 C 12.9 km/h
2537 09-01-2015 00:05:00 6.5 C 6.75 g/m*3 4.87 C 8.1 km/h
2538 09-01-2015 00:10:00 6.6 C 6.79 g/m*3 4.63 C 9.7 km/h
2539 09-01-2015 00:15:00 6.5 C 6.75 g/m*3 5.33 C 6.4 km/h
2540 09-01-2015 00:20:00 6.6 C 6.72 g/m*3 4.63 C 9.7 km/h
2541 09-01-2015 00:25:00 6.5 C 6.67 g/m*3 6.5 C 4.8 km/h
2542 09-01-2015 00:30:00 6.5 C 6.67 g/m*3 5.33 C 6.4 km/h
2543 09-01-2015 00:35:00 6.4 C 6.63 g/m*3 4.39 C 9.7 km/h
2544 09-01-2015 00:40:00 6.5 C 6.67 g/m*3 4.87 C 8.1 km/h
2545 09-01-2015 00:45:00 6.6 C 6.72 g/m*3 4.99 C 8.1 km/h
2546 09-01-2015 00:50:00 6.4 C 6.63 g/m*3 6.4 C 4.8 km/h
2547 09-01-2015 00:55:00 6.3 C 6.66 g/m*3 3.96 C 11.3 km/h
2548 09-01-2015 01:00:00 6.3 C 6.59 g/m*3 5.1 C 6.4 km/h
2549 09-01-2015 01:05:00 6.3 C 6.59 g/m*3 4.64 C 8.1 km/h
2550 09-01-2015 01:10:00 6.2 C 6.62 g/m*3 4.15 C 9.7 km/h
Sensor: Nr:Datum:Temp:Abs-Feuchte:Windchill:Wind:
Aussen-T/F 2551 09-01-2015 01:15:00 6.2 C 6.62 g/m*3 3.84 C 11.3 km/h
2552 09-01-2015 01:20:00 6.2 C 6.62 g/m*3 2.86 C 17.7 km/h
2553 09-01-2015 01:25:00 6.3 C 6.66 g/m*3 3.96 C 11.3 km/h
2554 09-01-2015 01:30:00 6.5 C 6.75 g/m*3 4.51 C 9.7 km/h
2555 09-01-2015 01:35:00 6.6 C 6.72 g/m*3 3.17 C 19.3 km/h
2556 09-01-2015 01:40:00 6.7 C 6.76 g/m*3 3.29 C 19.3 km/h
2557 09-01-2015 01:45:00 6.7 C 6.69 g/m*3 4.44 C 11.3 km/h
2558 09-01-2015 01:50:00 6.7 C 6.69 g/m*3 5.11 C 8.1 km/h
2559 09-01-2015 01:55:00 6.7 C 6.69 g/m*3 3.92 C 14.5 km/h
2560 09-01-2015 02:00:00 6.7 C 6.69 g/m*3 5.11 C 8.1 km/h
2561 09-01-2015 02:05:00 6.7 C 6.69 g/m*3 5.11 C 8.1 km/h
2562 09-01-2015 02:10:00 6.6 C 6.64 g/m*3 5.44 C 6.4 km/h
2563 09-01-2015 02:15:00 6.5 C 6.6 g/m*3 5.33 C 6.4 km/h
2564 09-01-2015 02:20:00 6.3 C 6.59 g/m*3 5.1 C 6.4 km/h
2565 09-01-2015 02:25:00 6.4 C 6.63 g/m*3 5.21 C 6.4 km/h
2566 09-01-2015 02:30:00 6.3 C 6.59 g/m*3 3.43 C 14.5 km/h
2567 09-01-2015 02:35:00 6.3 C 6.59 g/m*3 5.1 C 6.4 km/h
2568 09-01-2015 02:40:00 6.3 C 6.66 g/m*3 5.1 C 6.4 km/h
2569 09-01-2015 02:45:00 6.3 C 6.66 g/m*3 5.1 C 6.4 km/h
2570 09-01-2015 02:50:00 6.3 C 6.66 g/m*3 5.1 C 6.4 km/h
2571 09-01-2015 02:55:00 6.4 C 6.71 g/m*3 5.21 C 6.4 km/h
2572 09-01-2015 03:00:00 6.4 C 6.71 g/m*3 5.21 C 6.4 km/h
2573 09-01-2015 03:05:00 6.7 C 6.76 g/m*3 4.17 C 12.9 km/h
2574 09-01-2015 03:10:00 7 C 6.9 g/m*3 5.46 C 8.1 km/h
2575 09-01-2015 03:15:00 7.2 C 6.83 g/m*3 3.92 C 19.3 km/h
Sensor: Nr:Datum:Temp:Abs-Feuchte:Windchill:Wind:
Aussen-T/F 2576 09-01-2015 03:20:00 7.3 C 6.87 g/m*3 4.66 C 14.5 km/h
2577 09-01-2015 03:25:00 7.4 C 6.84 g/m*3 5.02 C 12.9 km/h
2578 09-01-2015 03:30:00 7.4 C 6.84 g/m*3 4.56 C 16.1 km/h
2579 09-01-2015 03:35:00 7.4 C 6.84 g/m*3 4.78 C 14.5 km/h
2580 09-01-2015 03:40:00 7.5 C 6.88 g/m*3 5.41 C 11.3 km/h
2581 09-01-2015 03:45:00 7.5 C 6.88 g/m*3 4.9 C 14.5 km/h
2582 09-01-2015 03:50:00 7.5 C 6.88 g/m*3 6.48 C 6.4 km/h
2583 09-01-2015 03:55:00 7.5 C 6.88 g/m*3 6.48 C 6.4 km/h
2584 09-01-2015 04:00:00 7.4 C 6.92 g/m*3 7.4 C 4.8 km/h
2585 09-01-2015 04:05:00 7.4 C 6.92 g/m*3 5.93 C 8.1 km/h
2586 09-01-2015 04:10:00 7.4 C 6.92 g/m*3 7.4 C 4.8 km/h
2587 09-01-2015 04:15:00 7.4 C 6.92 g/m*3 6.37 C 6.4 km/h
2588 09-01-2015 04:20:00 7.4 C 6.92 g/m*3 4.36 C 17.7 km/h
2589 09-01-2015 04:25:00 7.5 C 6.96 g/m*3 6.05 C 8.1 km/h
2590 09-01-2015 04:30:00 7.5 C 6.96 g/m*3 6.05 C 8.1 km/h
2591 09-01-2015 04:35:00 7.4 C 6.92 g/m*3 5.93 C 8.1 km/h
2592 09-01-2015 04:40:00 7.4 C 7 g/m*3 7.4 C 4.8 km/h
2593 09-01-2015 04:45:00 7.3 C 7.03 g/m*3 7.3 C 1.6 km/h
2594 09-01-2015 04:50:00 7.2 C 6.99 g/m*3 5.69 C 8.1 km/h
2595 09-01-2015 04:55:00 7.2 C 6.99 g/m*3 7.2 C 1.6 km/h
2596 09-01-2015 05:00:00 7.2 C 6.99 g/m*3 7.2 C 3.2 km/h
2597 09-01-2015 05:05:00 7.2 C 6.99 g/m*3 5.69 C 8.1 km/h
2598 09-01-2015 05:10:00 7.2 C 6.99 g/m*3 5.69 C 8.1 km/h
2599 09-01-2015 05:15:00 7.3 C 6.95 g/m*3 6.25 C 6.4 km/h
2600 09-01-2015 05:20:00 7.4 C 7 g/m*3 7.4 C 4.8 km/h
Sensor: Nr:Datum:Temp:Abs-Feuchte:Windchill:Wind:
Aussen-T/F 2601 09-01-2015 05:25:00 7.6 C 7.01 g/m*3 5.26 C 12.9 km/h
2602 09-01-2015 05:30:00 7.6 C 6.93 g/m*3 5.02 C 14.5 km/h
2603 09-01-2015 05:35:00 7.7 C 6.97 g/m*3 6.28 C 8.1 km/h
2604 09-01-2015 05:40:00 7.7 C 6.89 g/m*3 5.15 C 14.5 km/h
2605 09-01-2015 05:45:00 7.8 C 6.94 g/m*3 5.77 C 11.3 km/h
2606 09-01-2015 05:50:00 7.7 C 6.89 g/m*3 5.65 C 11.3 km/h
2607 09-01-2015 05:55:00 7.7 C 6.89 g/m*3 5.94 C 9.7 km/h
2608 09-01-2015 06:00:00 7.7 C 6.89 g/m*3 6.71 C 6.4 km/h
2609 09-01-2015 06:05:00 7.7 C 6.89 g/m*3 4.93 C 16.1 km/h
2610 09-01-2015 06:10:00 7.8 C 6.86 g/m*3 5.06 C 16.1 km/h
2611 09-01-2015 06:15:00 7.9 C 6.9 g/m*3 4.8 C 19.3 km/h
2612 09-01-2015 06:20:00 8.1 C 6.91 g/m*3 4.58 C 24.1 km/h
2613 09-01-2015 06:25:00 8.1 C 6.91 g/m*3 5.43 C 16.1 km/h
2614 09-01-2015 06:30:00 8.1 C 6.91 g/m*3 4.44 C 25.7 km/h
2615 09-01-2015 06:35:00 8.1 C 6.91 g/m*3 5.05 C 19.3 km/h
2616 09-01-2015 06:40:00 8.2 C 6.95 g/m*3 4.86 C 22.5 km/h
2617 09-01-2015 06:45:00 8.2 C 6.95 g/m*3 5.18 C 19.3 km/h
2618 09-01-2015 06:50:00 8.2 C 6.95 g/m*3 5.01 C 20.9 km/h
2619 09-01-2015 06:55:00 8.2 C 6.95 g/m*3 5.36 C 17.7 km/h
2620 09-01-2015 07:00:00 8.2 C 6.95 g/m*3 5.01 C 20.9 km/h
2621 09-01-2015 07:05:00 8.3 C 6.91 g/m*3 4.98 C 22.5 km/h
2622 09-01-2015 07:10:00 8.3 C 6.91 g/m*3 5.89 C 14.5 km/h
2623 09-01-2015 07:15:00 8.3 C 6.91 g/m*3 6.12 C 12.9 km/h
2624 09-01-2015 07:20:00 8.4 C 6.96 g/m*3 5.8 C 16.1 km/h
2625 09-01-2015 07:25:00 8.4 C 6.96 g/m*3 5.27 C 20.9 km/h
Sensor: Nr:Datum:Temp:Abs-Feuchte:Windchill:Wind:
Aussen-T/F 2626 09-01-2015 07:30:00 8.4 C 7.04 g/m*3 5.8 C 16.1 km/h
2627 09-01-2015 07:35:00 8.4 C 7.04 g/m*3 5.61 C 17.7 km/h
2628 09-01-2015 07:40:00 8.4 C 7.04 g/m*3 5.43 C 19.3 km/h
2629 09-01-2015 07:45:00 8.4 C 7.04 g/m*3 6.01 C 14.5 km/h
2630 09-01-2015 07:50:00 8.5 C 7.09 g/m*3 5.73 C 17.7 km/h
2631 09-01-2015 07:55:00 8.6 C 7.13 g/m*3 5.86 C 17.7 km/h
2632 09-01-2015 08:00:00 8.6 C 7.05 g/m*3 5.22 C 24.1 km/h
2633 09-01-2015 08:05:00 8.7 C 7.09 g/m*3 5.98 C 17.7 km/h
2634 09-01-2015 08:10:00 8.7 C 7.09 g/m*3 5.81 C 19.3 km/h
2635 09-01-2015 08:15:00 8.7 C 7.09 g/m*3 6.17 C 16.1 km/h
2636 09-01-2015 08:20:00 8.7 C 7.09 g/m*3 5.65 C 20.9 km/h
2637 09-01-2015 08:25:00 8.7 C 7.09 g/m*3 5.65 C 20.9 km/h
2638 09-01-2015 08:30:00 8.7 C 7.09 g/m*3 5.81 C 19.3 km/h
2639 09-01-2015 08:35:00 8.7 C 7.09 g/m*3 5.35 C 24.1 km/h
2640 09-01-2015 08:40:00 8.8 C 7.14 g/m*3 5.77 C 20.9 km/h
2641 09-01-2015 08:45:00 8.8 C 7.14 g/m*3 5.34 C 25.7 km/h
2642 09-01-2015 08:50:00 8.8 C 7.14 g/m*3 5.48 C 24.1 km/h
2643 09-01-2015 08:55:00 8.9 C 7.18 g/m*3 7.09 C 11.3 km/h
2644 09-01-2015 09:00:00 8.9 C 7.18 g/m*3 5.75 C 22.5 km/h
2645 09-01-2015 09:05:00 9 C 7.14 g/m*3 5.34 C 29 km/h
2646 09-01-2015 09:10:00 9.1 C 7.19 g/m*3 5.86 C 24.1 km/h
2647 09-01-2015 09:15:00 9.1 C 7.19 g/m*3 5.86 C 24.1 km/h
2648 09-01-2015 09:20:00 9.1 C 7.19 g/m*3 6.67 C 16.1 km/h
2649 09-01-2015 09:25:00 9.1 C 7.28 g/m*3 6.15 C 20.9 km/h
2650 09-01-2015 09:30:00 9.1 C 7.28 g/m*3 6.87 C 14.5 km/h
Sensor: Nr:Datum:Temp:Abs-Feuchte:Windchill:Wind:
Aussen-T/F 2651 09-01-2015 09:35:00 9.1 C 7.28 g/m*3 5.25 C 32.2 km/h
2652 09-01-2015 09:40:00 9.1 C 7.28 g/m*3 7.33 C 11.3 km/h
2653 09-01-2015 09:45:00 9.1 C 7.28 g/m*3 6.67 C 16.1 km/h
2654 09-01-2015 09:50:00 9.1 C 7.28 g/m*3 5.86 C 24.1 km/h
2655 09-01-2015 09:55:00 9.1 C 7.28 g/m*3 6.48 C 17.7 km/h
2656 09-01-2015 10:00:00 9 C 7.32 g/m*3 6.03 C 20.9 km/h
2657 09-01-2015 10:05:00 9 C 7.32 g/m*3 6.36 C 17.7 km/h
2658 09-01-2015 10:10:00 9 C 7.32 g/m*3 6.36 C 17.7 km/h
2659 09-01-2015 10:15:00 9 C 7.32 g/m*3 5.6 C 25.7 km/h
2660 09-01-2015 10:20:00 8.9 C 7.36 g/m*3 6.62 C 14.5 km/h
2661 09-01-2015 10:25:00 8.9 C 7.36 g/m*3 6.42 C 16.1 km/h
2662 09-01-2015 10:30:00 8.8 C 7.31 g/m*3 6.3 C 16.1 km/h
2663 09-01-2015 10:35:00 8.9 C 7.36 g/m*3 5.21 C 29 km/h
2664 09-01-2015 10:40:00 8.9 C 7.36 g/m*3 5.75 C 22.5 km/h
2665 09-01-2015 10:45:00 8.9 C 7.36 g/m*3 5.1 C 30.6 km/h
2666 09-01-2015 10:50:00 8.9 C 7.36 g/m*3 5.9 C 20.9 km/h
2667 09-01-2015 10:55:00 8.9 C 7.36 g/m*3 5.33 C 27.4 km/h
2668 09-01-2015 11:00:00 9 C 7.41 g/m*3 5.87 C 22.5 km/h
2669 09-01-2015 11:05:00 9.1 C 7.45 g/m*3 6 C 22.5 km/h
2670 09-01-2015 11:10:00 9.1 C 7.36 g/m*3 5.25 C 32.2 km/h
2671 09-01-2015 11:15:00 9.1 C 7.45 g/m*3 5.47 C 29 km/h
2672 09-01-2015 11:20:00 9.1 C 7.45 g/m*3 5.59 C 27.4 km/h
2673 09-01-2015 11:25:00 9.2 C 7.5 g/m*3 5.27 C 33.8 km/h
2674 09-01-2015 11:30:00 9.2 C 7.5 g/m*3 6.44 C 19.3 km/h
2675 09-01-2015 11:35:00 9.2 C 7.5 g/m*3 6.28 C 20.9 km/h
Sensor: Nr:Datum:Temp:Abs-Feuchte:Windchill:Wind:
Aussen-T/F 2676 09-01-2015 11:40:00 9.2 C 7.5 g/m*3 5.6 C 29 km/h
2677 09-01-2015 11:45:00 9.2 C 7.5 g/m*3 5.6 C 29 km/h
2678 09-01-2015 11:50:00 9.2 C 7.59 g/m*3 5.17 C 35.4 km/h
2679 09-01-2015 11:55:00 9.3 C 7.64 g/m*3 5.98 C 25.7 km/h
2680 09-01-2015 12:00:00 9.3 C 7.64 g/m*3 5.41 C 33.8 km/h
2681 09-01-2015 12:05:00 9.3 C 7.64 g/m*3 5.73 C 29 km/h
2682 09-01-2015 12:10:00 9.3 C 7.64 g/m*3 5.98 C 25.7 km/h
2683 09-01-2015 12:15:00 9.3 C 7.64 g/m*3 5.62 C 30.6 km/h
2684 09-01-2015 12:20:00 9.3 C 7.64 g/m*3 5.12 C 38.6 km/h
2685 09-01-2015 12:25:00 9.3 C 7.73 g/m*3 5.03 C 40.2 km/h
2686 09-01-2015 12:30:00 9.3 C 7.73 g/m*3 5.98 C 25.7 km/h
2687 09-01-2015 12:35:00 9.4 C 7.78 g/m*3 5.86 C 29 km/h
2688 09-01-2015 12:40:00 9.4 C 7.78 g/m*3 6.38 C 22.5 km/h
2689 09-01-2015 12:45:00 9.4 C 7.78 g/m*3 6.38 C 22.5 km/h
2690 09-01-2015 12:50:00 9.4 C 7.78 g/m*3 6.25 C 24.1 km/h
2691 09-01-2015 12:55:00 9.4 C 7.78 g/m*3 5.98 C 27.4 km/h
2692 09-01-2015 13:00:00 9.5 C 7.83 g/m*3 5.57 C 35.4 km/h
2693 09-01-2015 13:05:00 9.6 C 7.97 g/m*3 6.5 C 24.1 km/h
2694 09-01-2015 13:10:00 9.6 C 7.97 g/m*3 5.8 C 33.8 km/h
2695 09-01-2015 13:15:00 9.6 C 7.97 g/m*3 6.5 C 24.1 km/h
2696 09-01-2015 13:20:00 9.7 C 7.93 g/m*3 5.93 C 33.8 km/h
2697 09-01-2015 13:25:00 9.7 C 8.02 g/m*3 5.93 C 33.8 km/h
2698 09-01-2015 13:30:00 9.7 C 8.02 g/m*3 6.25 C 29 km/h
2699 09-01-2015 13:35:00 9.7 C 8.02 g/m*3 6.77 C 22.5 km/h
2700 09-01-2015 13:40:00 9.8 C 8.07 g/m*3 6.89 C 22.5 km/h
Sensor: Nr:Datum:Temp:Abs-Feuchte:Windchill:Wind:
Aussen-T/F 2701 09-01-2015 13:45:00 9.8 C 8.07 g/m*3 6.38 C 29 km/h
2702 09-01-2015 13:50:00 9.8 C 8.07 g/m*3 6.5 C 27.4 km/h
2703 09-01-2015 13:55:00 9.9 C 8.12 g/m*3 6.89 C 24.1 km/h
2704 09-01-2015 14:00:00 9.9 C 8.12 g/m*3 7.16 C 20.9 km/h
2705 09-01-2015 14:05:00 10.1 C 8.23 g/m*3 6.77 C 29 km/h
2706 09-01-2015 14:10:00 10.1 C 8.23 g/m*3 7.28 C 22.5 km/h
2707 09-01-2015 14:15:00 10.2 C 8.28 g/m*3 7.4 C 22.5 km/h
2708 09-01-2015 14:20:00 10.2 C 8.28 g/m*3 6.8 C 30.6 km/h
2709 09-01-2015 14:25:00 10.3 C 8.33 g/m*3 6.93 C 30.6 km/h
2710 09-01-2015 14:30:00 10.3 C 8.33 g/m*3 7.98 C 17.7 km/h
2711 09-01-2015 14:35:00 10.4 C 8.38 g/m*3 7.53 C 24.1 km/h
2712 09-01-2015 14:40:00 10.5 C 8.44 g/m*3 6.99 C 33.8 km/h
2713 09-01-2015 14:45:00 10.6 C 8.49 g/m*3 8.05 C 20.9 km/h
2714 09-01-2015 14:50:00 10.6 C 8.49 g/m*3 7.54 C 27.4 km/h
2715 09-01-2015 14:55:00 10.8 C 8.5 g/m*3 8.17 C 22.5 km/h
2716 09-01-2015 15:00:00 10.8 C 8.5 g/m*3 8.04 C 24.1 km/h
2717 09-01-2015 15:05:00 10.9 C 8.55 g/m*3 8.43 C 20.9 km/h
2718 09-01-2015 15:10:00 11.1 C 8.66 g/m*3 11.1 C 27.4 km/h
2719 09-01-2015 15:15:00 11.2 C 8.62 g/m*3 11.2 C 27.4 km/h
2720 09-01-2015 15:20:00 11.2 C 8.62 g/m*3 11.2 C 24.1 km/h
2721 09-01-2015 15:25:00 11.3 C 8.67 g/m*3 11.3 C 25.7 km/h
2722 09-01-2015 15:30:00 11.3 C 8.67 g/m*3 11.3 C 16.1 km/h
2723 09-01-2015 15:35:00 11.3 C 8.67 g/m*3 11.3 C 37 km/h
2724 09-01-2015 15:40:00 11.3 C 8.57 g/m*3 11.3 C 19.3 km/h
2725 09-01-2015 15:45:00 11.4 C 8.62 g/m*3 11.4 C 25.7 km/h
Sensor: Nr:Datum:Temp:Abs-Feuchte:Windchill:Wind:
Aussen-T/F 2726 09-01-2015 15:50:00 11.4 C 8.62 g/m*3 11.4 C 20.9 km/h
2727 09-01-2015 15:55:00 11.5 C 8.68 g/m*3 11.5 C 27.4 km/h
2728 09-01-2015 16:00:00 11.5 C 8.68 g/m*3 11.5 C 27.4 km/h
2729 09-01-2015 16:05:00 11.6 C 8.63 g/m*3 11.6 C 32.2 km/h
2730 09-01-2015 16:10:00 11.6 C 8.63 g/m*3 11.6 C 27.4 km/h
2731 09-01-2015 16:15:00 11.6 C 8.63 g/m*3 11.6 C 22.5 km/h
2732 09-01-2015 16:20:00 11.6 C 8.63 g/m*3 11.6 C 24.1 km/h
2733 09-01-2015 16:25:00 11.6 C 8.63 g/m*3 11.6 C 29 km/h
2734 09-01-2015 16:30:00 11.7 C 8.68 g/m*3 11.7 C 22.5 km/h
2735 09-01-2015 16:35:00 11.7 C 8.68 g/m*3 11.7 C 16.1 km/h
2736 09-01-2015 16:40:00 11.7 C 8.58 g/m*3 11.7 C 14.5 km/h
2737 09-01-2015 16:45:00 11.7 C 8.58 g/m*3 11.7 C 20.9 km/h
2738 09-01-2015 16:50:00 11.7 C 8.58 g/m*3 11.7 C 20.9 km/h
2739 09-01-2015 16:55:00 11.7 C 8.58 g/m*3 11.7 C 22.5 km/h
2740 09-01-2015 17:00:00 11.7 C 8.58 g/m*3 11.7 C 27.4 km/h
2741 09-01-2015 17:05:00 11.8 C 8.53 g/m*3 11.8 C 19.3 km/h
2742 09-01-2015 17:10:00 11.8 C 8.63 g/m*3 11.8 C 12.9 km/h
2743 09-01-2015 17:15:00 11.8 C 8.63 g/m*3 11.8 C 20.9 km/h
2744 09-01-2015 17:20:00 11.7 C 8.58 g/m*3 11.7 C 12.9 km/h
2745 09-01-2015 17:25:00 11.7 C 8.58 g/m*3 11.7 C 16.1 km/h
2746 09-01-2015 17:30:00 11.7 C 8.58 g/m*3 11.7 C 16.1 km/h
2747 09-01-2015 17:35:00 11.7 C 8.58 g/m*3 11.7 C 20.9 km/h
2748 09-01-2015 17:40:00 11.7 C 8.58 g/m*3 11.7 C 16.1 km/h
2749 09-01-2015 17:45:00 11.7 C 8.58 g/m*3 11.7 C 17.7 km/h
2750 09-01-2015 17:50:00 11.7 C 8.47 g/m*3 11.7 C 17.7 km/h
Sensor: Nr:Datum:Temp:Abs-Feuchte:Windchill:Wind:
Aussen-T/F 2751 09-01-2015 17:55:00 11.7 C 8.47 g/m*3 11.7 C 17.7 km/h
2752 09-01-2015 18:00:00 11.7 C 8.47 g/m*3 11.7 C 11.3 km/h
2753 09-01-2015 18:05:00 11.7 C 8.37 g/m*3 11.7 C 14.5 km/h
2754 09-01-2015 18:10:00 11.8 C 8.31 g/m*3 11.8 C 17.7 km/h
2755 09-01-2015 18:15:00 11.8 C 8.31 g/m*3 11.8 C 20.9 km/h
2756 09-01-2015 18:20:00 11.8 C 8.31 g/m*3 11.8 C 9.7 km/h
2757 09-01-2015 18:25:00 11.8 C 8.21 g/m*3 11.8 C 14.5 km/h
2758 09-01-2015 18:30:00 11.8 C 8.1 g/m*3 11.8 C 16.1 km/h
2759 09-01-2015 18:35:00 11.7 C 7.84 g/m*3 11.7 C 14.5 km/h
2760 09-01-2015 18:40:00 11.4 C 7.8 g/m*3 11.4 C 17.7 km/h
2761 09-01-2015 18:45:00 11.3 C 7.96 g/m*3 11.3 C 19.3 km/h
2762 09-01-2015 18:50:00 11.1 C 7.86 g/m*3 11.1 C 9.7 km/h
2763 09-01-2015 18:55:00 11.1 C 8.26 g/m*3 11.1 C 6.4 km/h
2764 09-01-2015 19:00:00 10.7 C 8.05 g/m*3 10.7 C 4.8 km/h
2765 09-01-2015 19:05:00 10.7 C 8.05 g/m*3 10.7 C 4.8 km/h
2766 09-01-2015 19:10:00 10.7 C 8.05 g/m*3 10.18 C 6.4 km/h
2767 09-01-2015 21:15:00 10 C 9.02 g/m*3 8.19 C 12.9 km/h
2768 09-01-2015 21:20:00 10.2 C 9.14 g/m*3 7.86 C 17.7 km/h
2769 09-01-2015 21:25:00 10.3 C 9.1 g/m*3 7.82 C 19.3 km/h
2770 09-01-2015 21:30:00 10.5 C 9.21 g/m*3 8.8 C 12.9 km/h
2771 09-01-2015 21:35:00 10.6 C 9.27 g/m*3 8.53 C 16.1 km/h
2772 09-01-2015 21:40:00 10.7 C 9.33 g/m*3 8.84 C 14.5 km/h
2773 09-01-2015 21:45:00 10.9 C 9.35 g/m*3 9.08 C 14.5 km/h
2774 09-01-2015 21:50:00 10.9 C 9.35 g/m*3 9.08 C 14.5 km/h
2775 09-01-2015 21:55:00 11 C 9.41 g/m*3 8.7 C 19.3 km/h
Sensor: Nr:Datum:Temp:Abs-Feuchte:Windchill:Wind:
Aussen-T/F 2776 09-01-2015 22:00:00 11.1 C 9.47 g/m*3 11.1 C 12.9 km/h
2777 09-01-2015 22:05:00 11.2 C 9.53 g/m*3 11.2 C 22.5 km/h
2778 09-01-2015 22:10:00 11.3 C 9.59 g/m*3 11.3 C 16.1 km/h
2779 09-01-2015 22:15:00 11.5 C 9.61 g/m*3 11.5 C 20.9 km/h
2780 09-01-2015 22:20:00 11.7 C 9.73 g/m*3 11.7 C 17.7 km/h
2781 09-01-2015 22:25:00 11.7 C 9.73 g/m*3 11.7 C 16.1 km/h
2782 09-01-2015 22:30:00 11.7 C 9.73 g/m*3 11.7 C 19.3 km/h
2783 09-01-2015 22:35:00 11.8 C 9.79 g/m*3 11.8 C 16.1 km/h
2784 09-01-2015 22:40:00 11.8 C 9.79 g/m*3 11.8 C 19.3 km/h
2785 09-01-2015 22:45:00 11.8 C 9.79 g/m*3 11.8 C 14.5 km/h
2786 09-01-2015 22:50:00 11.9 C 9.85 g/m*3 11.9 C 25.7 km/h
2787 09-01-2015 22:55:00 11.9 C 9.85 g/m*3 11.9 C 20.9 km/h
2788 09-01-2015 23:00:00 12 C 9.91 g/m*3 12 C 24.1 km/h
2789 09-01-2015 23:05:00 12.1 C 9.97 g/m*3 12.1 C 25.7 km/h
2790 09-01-2015 23:10:00 12.2 C 9.93 g/m*3 12.2 C 17.7 km/h
2791 09-01-2015 23:15:00 12.3 C 9.99 g/m*3 12.3 C 25.7 km/h
2792 09-01-2015 23:20:00 12.4 C 9.94 g/m*3 12.4 C 29 km/h
2793 09-01-2015 23:25:00 12.6 C 10.07 g/m*3 12.6 C 16.1 km/h
2794 09-01-2015 23:30:00 12.6 C 10.07 g/m*3 12.6 C 17.7 km/h
2795 09-01-2015 23:35:00 12.8 C 10.08 g/m*3 12.8 C 33.8 km/h
2796 09-01-2015 23:40:00 12.9 C 10.14 g/m*3 12.9 C 25.7 km/h
2797 09-01-2015 23:45:00 12.9 C 10.14 g/m*3 12.9 C 27.4 km/h
2798 09-01-2015 23:50:00 13 C 10.21 g/m*3 13 C 29 km/h
2799 09-01-2015 23:55:00 13.1 C 10.27 g/m*3 13.1 C 38.6 km/h
2800 10-01-2015 00:00:00 13 C 10.21 g/m*3 13 C 22.5 km/h
Sensor: Nr:Datum:Temp:Abs-Feuchte:Windchill:Wind:
Aussen-T/F 2801 10-01-2015 00:05:00 13 C 10.21 g/m*3 13 C 22.5 km/h
2802 10-01-2015 00:10:00 12.9 C 10.26 g/m*3 12.9 C 20.9 km/h
2803 10-01-2015 00:15:00 12.9 C 10.26 g/m*3 12.9 C 25.7 km/h
2804 10-01-2015 00:20:00 12.9 C 10.26 g/m*3 12.9 C 25.7 km/h
2805 10-01-2015 00:25:00 12.9 C 10.26 g/m*3 12.9 C 20.9 km/h
2806 10-01-2015 00:30:00 12.9 C 10.26 g/m*3 12.9 C 19.3 km/h
2807 10-01-2015 00:35:00 12.9 C 10.26 g/m*3 12.9 C 25.7 km/h
2808 10-01-2015 00:40:00 12.9 C 10.26 g/m*3 12.9 C 20.9 km/h
2809 10-01-2015 00:45:00 12.9 C 10.26 g/m*3 12.9 C 11.3 km/h
2810 10-01-2015 00:50:00 12.9 C 10.26 g/m*3 12.9 C 12.9 km/h
2811 10-01-2015 00:55:00 12.9 C 10.26 g/m*3 12.9 C 14.5 km/h
2812 10-01-2015 01:00:00 13.2 C 10.33 g/m*3 13.2 C 16.1 km/h
2813 10-01-2015 01:05:00 13.2 C 10.33 g/m*3 13.2 C 14.5 km/h
2814 10-01-2015 01:10:00 13.3 C 10.4 g/m*3 13.3 C 17.7 km/h
2815 10-01-2015 01:15:00 13.3 C 10.4 g/m*3 13.3 C 17.7 km/h
2816 10-01-2015 01:20:00 13.3 C 10.4 g/m*3 13.3 C 20.9 km/h
2817 10-01-2015 01:25:00 13.4 C 10.46 g/m*3 13.4 C 19.3 km/h
2818 10-01-2015 01:30:00 13.4 C 10.46 g/m*3 13.4 C 14.5 km/h
2819 10-01-2015 02:40:00 14 C 12.06 g/m*3 14 C 17.7 km/h
2820 10-01-2015 02:45:00 14 C 12.06 g/m*3 14 C 8.1 km/h
2821 10-01-2015 04:15:00 15.2 C 10.9 g/m*3 15.2 C 16.1 km/h
2822 10-01-2015 04:20:00 15.2 C 10.9 g/m*3 15.2 C 17.7 km/h
2823 10-01-2015 04:25:00 15.2 C 10.9 g/m*3 15.2 C 19.3 km/h
2824 10-01-2015 04:30:00 15.3 C 10.97 g/m*3 15.3 C 16.1 km/h
2825 10-01-2015 04:35:00 15.3 C 10.97 g/m*3 15.3 C 20.9 km/h
Sensor: Nr:Datum:Temp:Abs-Feuchte:Windchill:Wind:
Aussen-T/F 2826 10-01-2015 04:40:00 15.3 C 10.97 g/m*3 15.3 C 22.5 km/h
2827 10-01-2015 04:45:00 15.3 C 10.97 g/m*3 15.3 C 17.7 km/h
2828 10-01-2015 04:50:00 15.3 C 10.71 g/m*3 15.3 C 22.5 km/h
2829 10-01-2015 04:55:00 15.4 C 10.77 g/m*3 15.4 C 14.5 km/h
2830 10-01-2015 05:00:00 15.4 C 10.77 g/m*3 15.4 C 29 km/h
2831 10-01-2015 05:05:00 15.4 C 10.77 g/m*3 15.4 C 22.5 km/h
2832 10-01-2015 05:10:00 15.4 C 10.77 g/m*3 15.4 C 14.5 km/h
2833 10-01-2015 05:15:00 15.3 C 10.84 g/m*3 15.3 C 20.9 km/h
2834 10-01-2015 05:20:00 15.3 C 10.84 g/m*3 15.3 C 22.5 km/h
2835 10-01-2015 05:25:00 15.3 C 10.84 g/m*3 15.3 C 17.7 km/h
2836 10-01-2015 05:30:00 15.3 C 10.84 g/m*3 15.3 C 22.5 km/h
2837 10-01-2015 05:35:00 15.3 C 10.97 g/m*3 15.3 C 22.5 km/h
2838 10-01-2015 05:40:00 15.2 C 10.9 g/m*3 15.2 C 24.1 km/h
2839 10-01-2015 05:45:00 15.1 C 10.97 g/m*3 15.1 C 32.2 km/h
2840 10-01-2015 05:50:00 15 C 11.03 g/m*3 15 C 20.9 km/h
2841 10-01-2015 05:55:00 14.9 C 10.96 g/m*3 14.9 C 14.5 km/h
2842 10-01-2015 06:00:00 14.8 C 11.02 g/m*3 14.8 C 27.4 km/h
2843 10-01-2015 06:05:00 14.8 C 11.02 g/m*3 14.8 C 14.5 km/h
2844 10-01-2015 06:35:00 14.7 C 12.59 g/m*3 14.7 C 22.5 km/h
2845 10-01-2015 06:40:00 14.7 C 10.95 g/m*3 14.7 C 25.7 km/h
2846 10-01-2015 06:45:00 14.8 C 11.02 g/m*3 14.8 C 24.1 km/h
2847 10-01-2015 06:50:00 14.8 C 10.89 g/m*3 14.8 C 22.5 km/h
2848 10-01-2015 06:55:00 14.9 C 10.83 g/m*3 14.9 C 30.6 km/h
2849 10-01-2015 07:00:00 15 C 10.64 g/m*3 15 C 30.6 km/h
2850 10-01-2015 07:05:00 15.1 C 10.45 g/m*3 15.1 C 32.2 km/h
Sensor: Nr:Datum:Temp:Abs-Feuchte:Windchill:Wind:
Aussen-T/F 2851 10-01-2015 07:10:00 15.1 C 10.32 g/m*3 15.1 C 32.2 km/h
2852 10-01-2015 07:15:00 15.1 C 10.32 g/m*3 15.1 C 17.7 km/h
2853 10-01-2015 07:20:00 15.1 C 10.32 g/m*3 15.1 C 19.3 km/h
2854 10-01-2015 07:25:00 14.7 C 10.45 g/m*3 14.7 C 12.9 km/h
2855 10-01-2015 07:30:00 14.7 C 10.45 g/m*3 14.7 C 20.9 km/h
2856 10-01-2015 07:35:00 14.7 C 10.58 g/m*3 14.7 C 16.1 km/h
2857 10-01-2015 07:40:00 14.6 C 10.51 g/m*3 14.6 C 22.5 km/h
2858 10-01-2015 07:45:00 14.6 C 10.51 g/m*3 14.6 C 20.9 km/h
2859 10-01-2015 07:50:00 14.6 C 10.39 g/m*3 14.6 C 16.1 km/h
2860 10-01-2015 07:55:00 14.6 C 10.39 g/m*3 14.6 C 22.5 km/h
2861 10-01-2015 08:00:00 14.6 C 10.39 g/m*3 14.6 C 19.3 km/h
2862 10-01-2015 08:05:00 14.6 C 10.39 g/m*3 14.6 C 20.9 km/h
2863 10-01-2015 08:10:00 14.5 C 10.2 g/m*3 14.5 C 22.5 km/h
2864 10-01-2015 08:15:00 14.4 C 10.26 g/m*3 14.4 C 19.3 km/h
2865 10-01-2015 08:20:00 14.5 C 10.2 g/m*3 14.5 C 30.6 km/h
2866 10-01-2015 08:25:00 14.4 C 10.14 g/m*3 14.4 C 19.3 km/h
2867 10-01-2015 08:30:00 14.4 C 10.14 g/m*3 14.4 C 22.5 km/h
2868 10-01-2015 08:35:00 14.5 C 10.2 g/m*3 14.5 C 33.8 km/h
2869 10-01-2015 08:40:00 14.5 C 10.07 g/m*3 14.5 C 27.4 km/h
2870 10-01-2015 08:45:00 14.5 C 10.07 g/m*3 14.5 C 22.5 km/h
2871 10-01-2015 08:50:00 14.4 C 10.01 g/m*3 14.4 C 22.5 km/h
2872 10-01-2015 08:55:00 14.5 C 10.07 g/m*3 14.5 C 24.1 km/h
2873 10-01-2015 09:00:00 14.5 C 10.07 g/m*3 14.5 C 16.1 km/h
2874 10-01-2015 09:05:00 14.6 C 10.14 g/m*3 14.6 C 29 km/h
2875 10-01-2015 09:10:00 14.7 C 10.07 g/m*3 14.7 C 24.1 km/h
Sensor: Nr:Datum:Temp:Abs-Feuchte:Windchill:Wind:
Aussen-T/F 2876 10-01-2015 09:15:00 14.7 C 10.07 g/m*3 14.7 C 27.4 km/h
2877 10-01-2015 09:20:00 14.7 C 9.95 g/m*3 14.7 C 33.8 km/h
2878 10-01-2015 09:25:00 14.7 C 9.95 g/m*3 14.7 C 33.8 km/h
2879 10-01-2015 09:30:00 14.7 C 9.95 g/m*3 14.7 C 24.1 km/h
2880 10-01-2015 09:35:00 14.7 C 9.95 g/m*3 14.7 C 32.2 km/h
2881 10-01-2015 09:40:00 14.7 C 9.95 g/m*3 14.7 C 24.1 km/h
2882 10-01-2015 09:45:00 14.7 C 9.95 g/m*3 14.7 C 19.3 km/h
2883 10-01-2015 09:50:00 14.7 C 9.95 g/m*3 14.7 C 32.2 km/h
2884 10-01-2015 09:55:00 14.7 C 9.95 g/m*3 14.7 C 25.7 km/h
2885 10-01-2015 10:00:00 14.7 C 9.82 g/m*3 14.7 C 19.3 km/h
2886 10-01-2015 10:05:00 14.7 C 9.82 g/m*3 14.7 C 27.4 km/h
2887 10-01-2015 10:10:00 14.7 C 9.82 g/m*3 14.7 C 20.9 km/h
2888 10-01-2015 10:15:00 14.6 C 9.76 g/m*3 14.6 C 20.9 km/h
2889 10-01-2015 10:20:00 14.6 C 9.76 g/m*3 14.6 C 17.7 km/h
2890 10-01-2015 10:25:00 14.6 C 9.76 g/m*3 14.6 C 20.9 km/h
2891 10-01-2015 10:30:00 14.6 C 9.76 g/m*3 14.6 C 22.5 km/h
2892 10-01-2015 10:35:00 14.6 C 9.76 g/m*3 14.6 C 22.5 km/h
2893 10-01-2015 10:40:00 14.6 C 9.76 g/m*3 14.6 C 24.1 km/h
2894 10-01-2015 10:45:00 14.4 C 9.64 g/m*3 14.4 C 22.5 km/h
2895 10-01-2015 10:50:00 14.4 C 9.52 g/m*3 14.4 C 20.9 km/h
2896 10-01-2015 10:55:00 14.5 C 9.58 g/m*3 14.5 C 25.7 km/h
2897 10-01-2015 11:00:00 14.4 C 9.52 g/m*3 14.4 C 24.1 km/h
2898 10-01-2015 11:05:00 14.4 C 9.52 g/m*3 14.4 C 19.3 km/h
2899 10-01-2015 11:10:00 14.4 C 9.52 g/m*3 14.4 C 22.5 km/h
2900 10-01-2015 11:15:00 14.3 C 9.46 g/m*3 14.3 C 17.7 km/h
Sensor: Nr:Datum:Temp:Abs-Feuchte:Windchill:Wind:
Aussen-T/F 2901 10-01-2015 11:20:00 14.3 C 9.46 g/m*3 14.3 C 20.9 km/h
2902 10-01-2015 11:25:00 14.3 C 9.46 g/m*3 14.3 C 17.7 km/h
2903 10-01-2015 11:30:00 14.2 C 9.52 g/m*3 14.2 C 17.7 km/h
2904 10-01-2015 11:35:00 14.2 C 9.52 g/m*3 14.2 C 11.3 km/h
2905 10-01-2015 11:40:00 14.2 C 9.52 g/m*3 14.2 C 17.7 km/h
2906 10-01-2015 11:45:00 14.2 C 9.52 g/m*3 14.2 C 24.1 km/h
2907 10-01-2015 11:50:00 14.2 C 9.52 g/m*3 14.2 C 17.7 km/h
2908 10-01-2015 11:55:00 14.2 C 9.52 g/m*3 14.2 C 14.5 km/h
2909 10-01-2015 12:00:00 14.2 C 9.52 g/m*3 14.2 C 12.9 km/h
2910 10-01-2015 12:05:00 14.2 C 9.52 g/m*3 14.2 C 19.3 km/h
2911 10-01-2015 12:10:00 14.2 C 9.52 g/m*3 14.2 C 19.3 km/h
2912 10-01-2015 12:15:00 14.2 C 9.52 g/m*3 14.2 C 22.5 km/h
2913 10-01-2015 12:20:00 14.3 C 9.46 g/m*3 14.3 C 29 km/h
2914 10-01-2015 12:25:00 14.3 C 9.46 g/m*3 14.3 C 19.3 km/h
2915 10-01-2015 12:30:00 14.4 C 9.52 g/m*3 14.4 C 22.5 km/h
2916 10-01-2015 12:35:00 14.4 C 9.39 g/m*3 14.4 C 29 km/h
2917 10-01-2015 12:40:00 14.4 C 9.39 g/m*3 14.4 C 20.9 km/h
2918 10-01-2015 12:45:00 14.4 C 9.39 g/m*3 14.4 C 22.5 km/h
2919 10-01-2015 12:50:00 14.4 C 9.39 g/m*3 14.4 C 19.3 km/h
2920 10-01-2015 12:55:00 14.2 C 9.4 g/m*3 14.2 C 14.5 km/h
2921 10-01-2015 13:00:00 14.2 C 9.52 g/m*3 14.2 C 16.1 km/h
2922 10-01-2015 13:05:00 14.1 C 9.47 g/m*3 14.1 C 19.3 km/h
2923 10-01-2015 13:10:00 14 C 9.41 g/m*3 14 C 20.9 km/h
2924 10-01-2015 13:15:00 14 C 9.41 g/m*3 14 C 20.9 km/h
2925 10-01-2015 13:20:00 13.9 C 9.35 g/m*3 13.9 C 20.9 km/h
Sensor: Nr:Datum:Temp:Abs-Feuchte:Windchill:Wind:
Aussen-T/F 2926 10-01-2015 13:25:00 13.9 C 9.35 g/m*3 13.9 C 14.5 km/h
2927 10-01-2015 13:30:00 13.9 C 9.35 g/m*3 13.9 C 17.7 km/h
2928 10-01-2015 13:35:00 13.9 C 9.35 g/m*3 13.9 C 16.1 km/h
2929 10-01-2015 13:40:00 13.9 C 9.35 g/m*3 13.9 C 16.1 km/h
2930 10-01-2015 13:45:00 13.9 C 9.35 g/m*3 13.9 C 11.3 km/h
2931 10-01-2015 13:50:00 13.9 C 9.23 g/m*3 13.9 C 22.5 km/h
2932 10-01-2015 13:55:00 14 C 9.29 g/m*3 14 C 20.9 km/h
2933 10-01-2015 14:00:00 14.1 C 9.34 g/m*3 14.1 C 25.7 km/h
2934 10-01-2015 14:05:00 14.1 C 9.34 g/m*3 14.1 C 30.6 km/h
2935 10-01-2015 14:10:00 14 C 9.29 g/m*3 14 C 22.5 km/h
2936 10-01-2015 14:15:00 14 C 9.29 g/m*3 14 C 17.7 km/h
2937 10-01-2015 14:20:00 14 C 9.29 g/m*3 14 C 17.7 km/h
2938 10-01-2015 14:25:00 13.9 C 9.23 g/m*3 13.9 C 12.9 km/h
2939 10-01-2015 14:30:00 13.9 C 9.23 g/m*3 13.9 C 17.7 km/h
2940 10-01-2015 14:35:00 13.9 C 9.35 g/m*3 13.9 C 12.9 km/h
2941 10-01-2015 14:40:00 13.8 C 9.41 g/m*3 13.8 C 14.5 km/h
2942 10-01-2015 14:45:00 13.7 C 9.35 g/m*3 13.7 C 20.9 km/h
2943 10-01-2015 14:50:00 13.7 C 9.35 g/m*3 13.7 C 16.1 km/h
2944 10-01-2015 14:55:00 13.7 C 9.47 g/m*3 13.7 C 11.3 km/h
2945 10-01-2015 15:00:00 13.6 C 9.42 g/m*3 13.6 C 11.3 km/h
2946 10-01-2015 15:05:00 13.6 C 9.42 g/m*3 13.6 C 16.1 km/h
2947 10-01-2015 15:10:00 13.6 C 9.42 g/m*3 13.6 C 19.3 km/h
2948 10-01-2015 15:15:00 13.6 C 9.42 g/m*3 13.6 C 16.1 km/h
2949 10-01-2015 15:55:00 13.2 C 9.53 g/m*3 13.2 C 14.5 km/h
2950 10-01-2015 16:00:00 13.2 C 9.53 g/m*3 13.2 C 17.7 km/h
Sensor: Nr:Datum:Temp:Abs-Feuchte:Windchill:Wind:
Aussen-T/F 2951 10-01-2015 16:05:00 13.1 C 9.47 g/m*3 13.1 C 14.5 km/h
2952 10-01-2015 16:10:00 13.1 C 9.59 g/m*3 13.1 C 16.1 km/h
2953 10-01-2015 16:15:00 13 C 9.53 g/m*3 13 C 17.7 km/h
2954 10-01-2015 16:20:00 12.9 C 9.58 g/m*3 12.9 C 19.3 km/h
2955 10-01-2015 16:25:00 12.9 C 9.58 g/m*3 12.9 C 17.7 km/h
2956 10-01-2015 16:30:00 12.9 C 9.58 g/m*3 12.9 C 16.1 km/h
2957 10-01-2015 16:35:00 12.8 C 9.52 g/m*3 12.8 C 17.7 km/h
2958 10-01-2015 16:40:00 12.7 C 9.46 g/m*3 12.7 C 11.3 km/h
2959 10-01-2015 16:45:00 12.7 C 9.68 g/m*3 12.7 C 17.7 km/h
2960 10-01-2015 16:50:00 12.6 C 9.62 g/m*3 12.6 C 22.5 km/h
2961 10-01-2015 16:55:00 12.6 C 9.62 g/m*3 12.6 C 14.5 km/h
2962 10-01-2015 17:00:00 12.4 C 9.62 g/m*3 12.4 C 20.9 km/h
2963 10-01-2015 17:05:00 12.3 C 9.66 g/m*3 12.3 C 14.5 km/h
2964 10-01-2015 17:10:00 12.3 C 9.66 g/m*3 12.3 C 12.9 km/h
2965 10-01-2015 17:15:00 12.1 C 9.54 g/m*3 12.1 C 14.5 km/h
2966 10-01-2015 17:20:00 12 C 9.7 g/m*3 12 C 16.1 km/h
2967 10-01-2015 17:25:00 11.9 C 9.74 g/m*3 11.9 C 12.9 km/h
2968 10-01-2015 17:30:00 11.8 C 9.58 g/m*3 11.8 C 20.9 km/h
2969 10-01-2015 17:35:00 11.9 C 9.64 g/m*3 11.9 C 12.9 km/h
2970 10-01-2015 17:40:00 12 C 9.59 g/m*3 12 C 14.5 km/h
2971 10-01-2015 17:45:00 12.1 C 9.65 g/m*3 12.1 C 16.1 km/h
2972 10-01-2015 17:50:00 12.1 C 9.65 g/m*3 12.1 C 9.7 km/h
2973 10-01-2015 17:55:00 12.2 C 9.5 g/m*3 12.2 C 20.9 km/h
2974 10-01-2015 18:00:00 12.6 C 9.29 g/m*3 12.6 C 20.9 km/h
2975 10-01-2015 18:05:00 11.8 C 8.42 g/m*3 11.8 C 33.8 km/h
Sensor: Nr:Datum:Temp:Abs-Feuchte:Windchill:Wind:
Aussen-T/F 2976 10-01-2015 18:10:00 10.9 C 8.16 g/m*3 8.58 C 19.3 km/h
2977 10-01-2015 18:15:00 10.4 C 8.19 g/m*3 7.8 C 20.9 km/h
2978 10-01-2015 18:20:00 9.9 C 8.03 g/m*3 6.4 C 30.6 km/h
2979 10-01-2015 18:25:00 9.6 C 8.06 g/m*3 7.11 C 17.7 km/h
2980 10-01-2015 18:30:00 9.6 C 7.97 g/m*3 6.5 C 24.1 km/h
2981 10-01-2015 18:35:00 9.6 C 7.97 g/m*3 7.11 C 17.7 km/h
2982 10-01-2015 18:40:00 9.1 C 7.45 g/m*3 6 C 22.5 km/h
2983 10-01-2015 18:45:00 8.9 C 7.27 g/m*3 5.33 C 27.4 km/h
2984 10-01-2015 18:50:00 8.8 C 7.31 g/m*3 5.08 C 29 km/h
2985 10-01-2015 18:55:00 8.8 C 7.31 g/m*3 6.3 C 16.1 km/h
2986 10-01-2015 19:00:00 8.7 C 7.26 g/m*3 5.98 C 17.7 km/h
2987 10-01-2015 19:05:00 8.7 C 7.26 g/m*3 6.17 C 16.1 km/h
2988 10-01-2015 19:10:00 8.7 C 7.26 g/m*3 5.81 C 19.3 km/h
2989 10-01-2015 19:15:00 8.7 C 7.09 g/m*3 5.98 C 17.7 km/h
2990 10-01-2015 19:20:00 8.7 C 7.01 g/m*3 5.49 C 22.5 km/h
2991 10-01-2015 19:25:00 8.7 C 7.01 g/m*3 6.17 C 16.1 km/h
2992 10-01-2015 20:05:00 8.8 C 8.7 g/m*3 5.62 C 22.5 km/h
2993 10-01-2015 20:10:00 8.8 C 8.7 g/m*3 6.11 C 17.7 km/h
2994 10-01-2015 20:15:00 8.8 C 8.7 g/m*3 6.97 C 11.3 km/h
2995 11-01-2015 01:45:00 5.1 C 6.84 g/m*3 3.71 C 6.4 km/h
2996 11-01-2015 01:50:00 5.1 C 5.27 g/m*3 3.71 C 6.4 km/h
2997 11-01-2015 01:55:00 5 C 5.23 g/m*3 2.72 C 9.7 km/h
2998 11-01-2015 02:00:00 5 C 5.23 g/m*3 3.11 C 8.1 km/h
2999 11-01-2015 02:05:00 5 C 5.23 g/m*3 3.11 C 8.1 km/h
3000 11-01-2015 02:25:00 4.8 C 5.23 g/m*3 4.8 C 4.8 km/h
Sensor: Nr:Datum:Temp:Abs-Feuchte:Windchill:Wind:
Aussen-T/F 3001 11-01-2015 02:30:00 4.7 C 5.13 g/m*3 4.7 C 3.2 km/h
3002 11-01-2015 02:35:00 4.5 C 5.13 g/m*3 4.5 C 4.8 km/h
3003 11-01-2015 02:40:00 4.4 C 5.09 g/m*3 4.4 C 4.8 km/h
3004 11-01-2015 02:45:00 4.4 C 5.09 g/m*3 4.4 C 3.2 km/h
3005 11-01-2015 02:50:00 4.4 C 5.09 g/m*3 4.4 C 4.8 km/h
3006 11-01-2015 02:55:00 4.4 C 5.09 g/m*3 4.4 C 4.8 km/h
3007 11-01-2015 03:00:00 4.3 C 5.06 g/m*3 4.3 C 4.8 km/h
3008 11-01-2015 03:05:00 4.2 C 5.03 g/m*3 4.2 C 4.8 km/h
3009 11-01-2015 03:10:00 4.2 C 5.15 g/m*3 4.2 C 4.8 km/h
3010 11-01-2015 03:15:00 3.8 C 5.14 g/m*3 3.8 C 4.8 km/h
3011 11-01-2015 03:20:00 3.9 C 5.18 g/m*3 3.9 C 3.2 km/h
3012 11-01-2015 03:25:00 3.9 C 5.18 g/m*3 3.9 C 4.8 km/h
3013 11-01-2015 05:45:00 3.4 C 6.11 g/m*3 1.23 C 8.1 km/h
3014 11-01-2015 05:50:00 3.4 C 6.11 g/m*3 1.75 C 6.4 km/h
3015 11-01-2015 08:30:00 3.8 C 6.27 g/m*3 0.35 C 14.5 km/h
3016 11-01-2015 08:35:00 3.8 C 4.83 g/m*3 -1.57 C 30.6 km/h
3017 11-01-2015 08:40:00 3.8 C 4.83 g/m*3 -1.57 C 30.6 km/h
3018 11-01-2015 08:45:00 3.8 C 4.83 g/m*3 0.94 C 11.3 km/h
3019 11-01-2015 08:50:00 4.1 C 4.86 g/m*3 0.72 C 14.5 km/h
3020 11-01-2015 08:55:00 4.2 C 4.9 g/m*3 1.43 C 11.3 km/h
3021 11-01-2015 09:00:00 4.2 C 4.9 g/m*3 1.43 C 11.3 km/h
3022 11-01-2015 09:05:00 4.2 C 4.9 g/m*3 1.77 C 9.7 km/h
3023 11-01-2015 11:15:00 4.9 C 5.47 g/m*3 1.97 C 12.9 km/h
3024 11-01-2015 11:20:00 5 C 5.44 g/m*3 1.15 C 19.3 km/h
3025 11-01-2015 11:25:00 5.1 C 5.4 g/m*3 1.95 C 14.5 km/h
Sensor: Nr:Datum:Temp:Abs-Feuchte:Windchill:Wind:
Aussen-T/F 3026 11-01-2015 11:30:00 5.1 C 5.4 g/m*3 1.71 C 16.1 km/h
3027 11-01-2015 11:35:00 5.2 C 5.44 g/m*3 1.83 C 16.1 km/h
3028 11-01-2015 11:40:00 5.2 C 5.44 g/m*3 2.34 C 12.9 km/h
3029 11-01-2015 11:45:00 5.2 C 5.44 g/m*3 1.83 C 16.1 km/h
3030 11-01-2015 11:50:00 5.2 C 5.37 g/m*3 2.07 C 14.5 km/h
3031 11-01-2015 11:55:00 5.2 C 5.37 g/m*3 1.83 C 16.1 km/h
3032 11-01-2015 12:00:00 5.2 C 5.37 g/m*3 2.07 C 14.5 km/h
3033 11-01-2015 12:05:00 5.2 C 5.37 g/m*3 1.4 C 19.3 km/h
3034 11-01-2015 12:10:00 5.2 C 5.37 g/m*3 2.07 C 14.5 km/h
3035 11-01-2015 12:15:00 5.3 C 5.41 g/m*3 1.96 C 16.1 km/h
3036 11-01-2015 12:20:00 5.5 C 5.41 g/m*3 1.59 C 20.9 km/h
3037 11-01-2015 12:25:00 5.6 C 5.23 g/m*3 1.54 C 22.5 km/h
3038 11-01-2015 12:30:00 5.6 C 5.16 g/m*3 2.57 C 14.5 km/h
3039 11-01-2015 12:35:00 5.6 C 5.16 g/m*3 1.91 C 19.3 km/h
3040 11-01-2015 12:40:00 5.6 C 5.16 g/m*3 1.91 C 19.3 km/h
3041 11-01-2015 12:45:00 5.7 C 5.19 g/m*3 2.24 C 17.7 km/h
3042 11-01-2015 12:50:00 5.7 C 5.19 g/m*3 1.35 C 25.7 km/h
3043 11-01-2015 12:55:00 5.8 C 5.16 g/m*3 1.32 C 27.4 km/h
3044 11-01-2015 13:00:00 5.9 C 5.12 g/m*3 2.29 C 19.3 km/h
3045 11-01-2015 13:05:00 6.1 C 5.19 g/m*3 2.18 C 22.5 km/h
3046 11-01-2015 13:10:00 6 C 5.15 g/m*3 1.44 C 29 km/h
3047 11-01-2015 13:15:00 6 C 5.08 g/m*3 2.41 C 19.3 km/h
3048 11-01-2015 13:20:00 6 C 5.15 g/m*3 2.41 C 19.3 km/h
3049 11-01-2015 13:25:00 6 C 5.08 g/m*3 1.31 C 30.6 km/h
3050 11-01-2015 13:30:00 6.1 C 5.11 g/m*3 2.02 C 24.1 km/h
Sensor: Nr:Datum:Temp:Abs-Feuchte:Windchill:Wind:
Aussen-T/F 3051 11-01-2015 13:35:00 6.1 C 5.04 g/m*3 1.86 C 25.7 km/h
3052 11-01-2015 13:40:00 6.1 C 5.04 g/m*3 1.71 C 27.4 km/h
3053 11-01-2015 13:45:00 6.1 C 5.11 g/m*3 2.18 C 22.5 km/h
3054 11-01-2015 13:50:00 6 C 5.08 g/m*3 2.61 C 17.7 km/h
3055 11-01-2015 13:55:00 6 C 5.15 g/m*3 2.41 C 19.3 km/h
3056 11-01-2015 14:00:00 6.1 C 5.19 g/m*3 2.35 C 20.9 km/h
3057 11-01-2015 14:05:00 6.1 C 5.04 g/m*3 2.35 C 20.9 km/h
3058 11-01-2015 14:10:00 6.2 C 5.07 g/m*3 2.48 C 20.9 km/h
3059 11-01-2015 14:15:00 6.2 C 5.07 g/m*3 2.48 C 20.9 km/h
3060 11-01-2015 14:20:00 6.2 C 5.07 g/m*3 1.7 C 29 km/h
3061 11-01-2015 14:25:00 6.2 C 5.15 g/m*3 2.66 C 19.3 km/h
3062 11-01-2015 14:30:00 6.1 C 5.11 g/m*3 2.95 C 16.1 km/h
3063 11-01-2015 14:35:00 6.1 C 5.11 g/m*3 2.73 C 17.7 km/h
3064 11-01-2015 14:40:00 6.1 C 5.11 g/m*3 2.35 C 20.9 km/h
3065 11-01-2015 15:00:00 6.1 C 5.11 g/m*3 2.35 C 20.9 km/h
3066 11-01-2015 15:05:00 6.2 C 5.07 g/m*3 2.66 C 19.3 km/h
3067 11-01-2015 15:10:00 6.2 C 5.15 g/m*3 2.86 C 17.7 km/h
3068 11-01-2015 15:15:00 6.1 C 5.11 g/m*3 1.44 C 30.6 km/h
3069 11-01-2015 15:20:00 6.1 C 5.11 g/m*3 2.54 C 19.3 km/h
3070 11-01-2015 15:25:00 6.1 C 5.04 g/m*3 2.02 C 24.1 km/h
3071 11-01-2015 15:30:00 6.1 C 5.04 g/m*3 1.31 C 32.2 km/h
3072 11-01-2015 15:35:00 6.1 C 5.04 g/m*3 1.31 C 32.2 km/h
3073 11-01-2015 15:40:00 6 C 5.08 g/m*3 2.23 C 20.9 km/h
3074 11-01-2015 15:45:00 5.9 C 5.12 g/m*3 2.48 C 17.7 km/h
3075 11-01-2015 15:50:00 5.8 C 5.16 g/m*3 2.58 C 16.1 km/h
Sensor: Nr:Datum:Temp:Abs-Feuchte:Windchill:Wind:
Aussen-T/F 3076 11-01-2015 15:55:00 5.8 C 5.16 g/m*3 2.36 C 17.7 km/h
3077 11-01-2015 16:00:00 5.8 C 5.16 g/m*3 2.36 C 17.7 km/h
3078 11-01-2015 16:05:00 5.7 C 5.12 g/m*3 2.45 C 16.1 km/h
3079 11-01-2015 16:10:00 5.7 C 5.12 g/m*3 2.45 C 16.1 km/h
3080 11-01-2015 16:15:00 5.7 C 5.05 g/m*3 2.24 C 17.7 km/h
3081 11-01-2015 16:20:00 5.7 C 5.12 g/m*3 2.45 C 16.1 km/h
3082 11-01-2015 16:25:00 5.7 C 5.12 g/m*3 2.45 C 16.1 km/h
3083 11-01-2015 16:30:00 5.7 C 5.12 g/m*3 2.69 C 14.5 km/h
3084 11-01-2015 16:35:00 5.6 C 5.09 g/m*3 3.44 C 9.7 km/h
3085 11-01-2015 16:40:00 5.6 C 5.09 g/m*3 3.11 C 11.3 km/h
3086 11-01-2015 16:45:00 5.6 C 5.09 g/m*3 1.91 C 19.3 km/h
3087 11-01-2015 17:05:00 5.5 C 7.02 g/m*3 2.7 C 12.9 km/h
3088 11-01-2015 17:10:00 5.5 C 7.02 g/m*3 1.78 C 19.3 km/h
3089 11-01-2015 17:15:00 5.5 C 7.02 g/m*3 2.7 C 12.9 km/h
3090 11-01-2015 17:20:00 5.5 C 7.02 g/m*3 2.7 C 12.9 km/h
3091 11-01-2015 17:25:00 5.4 C 6.98 g/m*3 2.32 C 14.5 km/h
3092 11-01-2015 17:30:00 5.5 C 7.02 g/m*3 2.7 C 12.9 km/h
3093 11-01-2015 17:35:00 5.5 C 7.02 g/m*3 2.44 C 14.5 km/h
3094 11-01-2015 18:15:00 5.6 C 7.07 g/m*3 2.33 C 16.1 km/h
3095 11-01-2015 18:20:00 5.6 C 7.07 g/m*3 3.11 C 11.3 km/h
3096 11-01-2015 18:25:00 5.6 C 5.02 g/m*3 3.44 C 9.7 km/h
3097 11-01-2015 18:30:00 5.6 C 5.02 g/m*3 3.11 C 11.3 km/h
3098 11-01-2015 18:35:00 5.5 C 5.06 g/m*3 4.17 C 6.4 km/h
3099 11-01-2015 18:40:00 5.4 C 5.02 g/m*3 2.58 C 12.9 km/h
3100 11-01-2015 18:45:00 5.5 C 5.06 g/m*3 3.32 C 9.7 km/h
Sensor: Nr:Datum:Temp:Abs-Feuchte:Windchill:Wind:
Aussen-T/F 3101 11-01-2015 18:50:00 5.4 C 5.09 g/m*3 3.58 C 8.1 km/h
3102 11-01-2015 18:55:00 5.4 C 5.09 g/m*3 2.87 C 11.3 km/h
3103 11-01-2015 19:00:00 5.5 C 5.13 g/m*3 1.78 C 19.3 km/h
3104 11-01-2015 19:05:00 5.6 C 5.16 g/m*3 3.11 C 11.3 km/h
3105 11-01-2015 19:10:00 5.5 C 5.13 g/m*3 2.99 C 11.3 km/h
3106 11-01-2015 19:15:00 5.5 C 5.13 g/m*3 1.99 C 17.7 km/h
3107 11-01-2015 19:20:00 5.6 C 5.16 g/m*3 3.44 C 9.7 km/h
3108 11-01-2015 19:25:00 5.6 C 5.16 g/m*3 2.57 C 14.5 km/h
3109 11-01-2015 19:30:00 5.6 C 5.16 g/m*3 2.57 C 14.5 km/h
3110 11-01-2015 19:35:00 5.6 C 5.16 g/m*3 3.81 C 8.1 km/h
3111 11-01-2015 19:40:00 5.7 C 5.19 g/m*3 2.69 C 14.5 km/h
3112 11-01-2015 19:45:00 5.7 C 5.19 g/m*3 2.45 C 16.1 km/h
3113 11-01-2015 19:50:00 5.8 C 5.23 g/m*3 1.8 C 22.5 km/h
3114 11-01-2015 19:55:00 5.8 C 5.23 g/m*3 3.07 C 12.9 km/h
3115 11-01-2015 20:00:00 5.8 C 5.23 g/m*3 2.81 C 14.5 km/h
3116 11-01-2015 20:05:00 5.8 C 5.23 g/m*3 3.07 C 12.9 km/h
3117 11-01-2015 20:10:00 5.8 C 5.23 g/m*3 2.81 C 14.5 km/h
3118 11-01-2015 20:15:00 5.8 C 5.23 g/m*3 3.07 C 12.9 km/h
3119 11-01-2015 20:20:00 5.8 C 5.23 g/m*3 3.68 C 9.7 km/h
3120 11-01-2015 20:25:00 5.7 C 5.19 g/m*3 3.23 C 11.3 km/h
3121 11-01-2015 20:30:00 5.7 C 5.19 g/m*3 2.24 C 17.7 km/h
3122 11-01-2015 20:35:00 5.7 C 5.27 g/m*3 3.56 C 9.7 km/h
3123 11-01-2015 20:40:00 5.7 C 5.27 g/m*3 3.56 C 9.7 km/h
3124 11-01-2015 20:45:00 5.7 C 5.27 g/m*3 3.23 C 11.3 km/h
3125 11-01-2015 20:50:00 5.7 C 5.27 g/m*3 2.69 C 14.5 km/h
Sensor: Nr:Datum:Temp:Abs-Feuchte:Windchill:Wind:
Aussen-T/F 3126 11-01-2015 20:55:00 5.8 C 5.3 g/m*3 3.07 C 12.9 km/h
3127 11-01-2015 21:00:00 5.8 C 5.3 g/m*3 3.36 C 11.3 km/h
3128 11-01-2015 21:05:00 5.9 C 5.34 g/m*3 4.17 C 8.1 km/h
3129 11-01-2015 21:10:00 5.9 C 5.34 g/m*3 2.7 C 16.1 km/h
3130 11-01-2015 21:15:00 5.9 C 5.34 g/m*3 3.48 C 11.3 km/h
3131 11-01-2015 21:20:00 5.9 C 5.41 g/m*3 3.19 C 12.9 km/h
3132 11-01-2015 21:25:00 5.9 C 5.48 g/m*3 2.1 C 20.9 km/h
3133 11-01-2015 21:30:00 5.8 C 5.44 g/m*3 3.36 C 11.3 km/h
3134 11-01-2015 21:35:00 5.8 C 5.44 g/m*3 3.07 C 12.9 km/h
3135 11-01-2015 21:40:00 5.8 C 5.44 g/m*3 3.36 C 11.3 km/h
3136 11-01-2015 21:45:00 5.8 C 5.44 g/m*3 2.58 C 16.1 km/h
3137 11-01-2015 21:50:00 5.8 C 5.44 g/m*3 3.07 C 12.9 km/h
3138 11-01-2015 21:55:00 5.8 C 5.44 g/m*3 3.36 C 11.3 km/h
3139 11-01-2015 22:00:00 5.8 C 5.52 g/m*3 3.36 C 11.3 km/h
3140 11-01-2015 22:05:00 5.8 C 5.52 g/m*3 3.68 C 9.7 km/h
3141 11-01-2015 22:10:00 5.8 C 5.52 g/m*3 3.07 C 12.9 km/h
3142 11-01-2015 22:15:00 5.8 C 5.52 g/m*3 3.36 C 11.3 km/h
3143 12-01-2015 00:10:00 5.8 C 5.95 g/m*3 2.16 C 19.3 km/h
3144 12-01-2015 00:15:00 5.8 C 5.95 g/m*3 3.07 C 12.9 km/h
3145 12-01-2015 00:20:00 5.6 C 5.87 g/m*3 2.57 C 14.5 km/h
3146 12-01-2015 00:25:00 5.6 C 5.87 g/m*3 1.54 C 22.5 km/h
3147 12-01-2015 00:30:00 5.6 C 5.94 g/m*3 1.54 C 22.5 km/h
3148 12-01-2015 00:35:00 5.6 C 5.94 g/m*3 2.83 C 12.9 km/h
3149 12-01-2015 00:40:00 5.6 C 6.01 g/m*3 1.54 C 22.5 km/h
3150 12-01-2015 00:45:00 5.6 C 6.08 g/m*3 1.72 C 20.9 km/h
Sensor: Nr:Datum:Temp:Abs-Feuchte:Windchill:Wind:
Aussen-T/F 3151 12-01-2015 00:50:00 5.6 C 6.08 g/m*3 1.38 C 24.1 km/h
3152 12-01-2015 00:55:00 5.6 C 6.08 g/m*3 1.38 C 24.1 km/h
3153 12-01-2015 01:00:00 5.5 C 6.11 g/m*3 2.7 C 12.9 km/h
3154 12-01-2015 01:05:00 5.5 C 6.11 g/m*3 2.7 C 12.9 km/h
3155 12-01-2015 01:10:00 5.4 C 6.07 g/m*3 2.32 C 14.5 km/h
3156 12-01-2015 01:15:00 5.3 C 6.03 g/m*3 1.74 C 17.7 km/h
3157 12-01-2015 01:20:00 5.3 C 6.17 g/m*3 2.46 C 12.9 km/h
3158 12-01-2015 01:25:00 5.3 C 6.17 g/m*3 1.53 C 19.3 km/h
3159 12-01-2015 01:30:00 5.2 C 6.2 g/m*3 1.83 C 16.1 km/h
3160 12-01-2015 01:35:00 5.2 C 6.2 g/m*3 1.83 C 16.1 km/h
3161 12-01-2015 01:40:00 5.1 C 6.16 g/m*3 1.28 C 19.3 km/h
3162 12-01-2015 01:45:00 5.2 C 6.2 g/m*3 1.61 C 17.7 km/h
3163 12-01-2015 01:50:00 5.2 C 6.2 g/m*3 1.83 C 16.1 km/h
3164 12-01-2015 01:55:00 5.2 C 6.2 g/m*3 1.61 C 17.7 km/h
3165 12-01-2015 02:00:00 5.3 C 6.24 g/m*3 1.96 C 16.1 km/h
3166 12-01-2015 02:05:00 5.3 C 6.24 g/m*3 1.74 C 17.7 km/h
3167 12-01-2015 02:10:00 5.3 C 6.17 g/m*3 2.46 C 12.9 km/h
3168 12-01-2015 02:15:00 5.4 C 6.21 g/m*3 1.86 C 17.7 km/h
3169 12-01-2015 02:20:00 5.4 C 6.21 g/m*3 2.32 C 14.5 km/h
3170 12-01-2015 02:25:00 5.4 C 6.21 g/m*3 2.08 C 16.1 km/h
3171 12-01-2015 02:30:00 5.4 C 6.21 g/m*3 2.87 C 11.3 km/h
3172 12-01-2015 02:35:00 5.7 C 6.26 g/m*3 2.95 C 12.9 km/h
3173 12-01-2015 02:40:00 5.7 C 6.26 g/m*3 2.69 C 14.5 km/h
3174 12-01-2015 02:45:00 5.8 C 6.3 g/m*3 2.81 C 14.5 km/h
3175 12-01-2015 02:50:00 5.8 C 6.3 g/m*3 3.07 C 12.9 km/h
Sensor: Nr:Datum:Temp:Abs-Feuchte:Windchill:Wind:
Aussen-T/F 3176 12-01-2015 02:55:00 5.8 C 6.3 g/m*3 2.81 C 14.5 km/h
3177 12-01-2015 03:00:00 5.8 C 6.3 g/m*3 3.36 C 11.3 km/h
3178 12-01-2015 03:05:00 5.8 C 6.3 g/m*3 3.36 C 11.3 km/h
3179 12-01-2015 03:10:00 5.9 C 6.35 g/m*3 3.8 C 9.7 km/h
3180 12-01-2015 03:15:00 5.9 C 6.35 g/m*3 2.48 C 17.7 km/h
3181 12-01-2015 03:20:00 6 C 6.31 g/m*3 3.6 C 11.3 km/h
3182 12-01-2015 03:25:00 6 C 6.31 g/m*3 3.92 C 9.7 km/h
3183 12-01-2015 03:30:00 6.1 C 6.36 g/m*3 2.54 C 19.3 km/h
3184 12-01-2015 03:35:00 6.1 C 6.36 g/m*3 3.43 C 12.9 km/h
3185 12-01-2015 03:40:00 6.1 C 6.36 g/m*3 3.72 C 11.3 km/h
3186 12-01-2015 03:45:00 6.1 C 6.43 g/m*3 3.72 C 11.3 km/h
3187 12-01-2015 03:50:00 6.1 C 6.43 g/m*3 3.72 C 11.3 km/h
3188 12-01-2015 03:55:00 6.1 C 6.43 g/m*3 2.73 C 17.7 km/h
3189 12-01-2015 04:00:00 6.1 C 6.43 g/m*3 3.18 C 14.5 km/h
3190 12-01-2015 04:05:00 6.1 C 6.43 g/m*3 2.73 C 17.7 km/h
3191 12-01-2015 04:10:00 6.1 C 6.43 g/m*3 3.72 C 11.3 km/h
3192 12-01-2015 04:15:00 6.1 C 6.5 g/m*3 3.18 C 14.5 km/h
3193 12-01-2015 04:20:00 6 C 6.46 g/m*3 3.31 C 12.9 km/h
3194 12-01-2015 04:25:00 6 C 6.46 g/m*3 3.92 C 9.7 km/h
3195 12-01-2015 04:30:00 6 C 6.46 g/m*3 3.31 C 12.9 km/h
3196 12-01-2015 04:35:00 6 C 6.46 g/m*3 3.92 C 9.7 km/h
3197 12-01-2015 04:40:00 6.1 C 6.5 g/m*3 2.73 C 17.7 km/h
3198 12-01-2015 04:45:00 6.1 C 6.5 g/m*3 2.95 C 16.1 km/h
3199 12-01-2015 04:50:00 6.1 C 6.5 g/m*3 3.43 C 12.9 km/h
3200 12-01-2015 04:55:00 6.2 C 6.55 g/m*3 4.52 C 8.1 km/h
Sensor: Nr:Datum:Temp:Abs-Feuchte:Windchill:Wind:
Aussen-T/F 3201 12-01-2015 05:00:00 6.2 C 6.47 g/m*3 4.52 C 8.1 km/h
3202 12-01-2015 05:05:00 6.2 C 6.55 g/m*3 6.2 C 4.8 km/h
3203 12-01-2015 05:10:00 6.2 C 6.55 g/m*3 4.98 C 6.4 km/h
3204 12-01-2015 05:15:00 6.2 C 6.55 g/m*3 3.56 C 12.9 km/h
3205 12-01-2015 05:20:00 6.2 C 6.55 g/m*3 4.52 C 8.1 km/h
3206 12-01-2015 05:25:00 6.2 C 6.55 g/m*3 3.84 C 11.3 km/h
3207 12-01-2015 05:30:00 6.2 C 6.55 g/m*3 4.15 C 9.7 km/h
3208 12-01-2015 05:35:00 6.2 C 6.55 g/m*3 3.56 C 12.9 km/h
3209 12-01-2015 05:40:00 6.2 C 6.47 g/m*3 3.56 C 12.9 km/h
3210 12-01-2015 05:45:00 6.3 C 6.44 g/m*3 3.43 C 14.5 km/h
3211 12-01-2015 05:50:00 6.3 C 6.44 g/m*3 3.43 C 14.5 km/h
3212 12-01-2015 05:55:00 6.3 C 6.44 g/m*3 3.43 C 14.5 km/h
3213 12-01-2015 06:00:00 6.3 C 6.44 g/m*3 3.68 C 12.9 km/h
3214 12-01-2015 06:05:00 6.4 C 6.41 g/m*3 2.91 C 19.3 km/h
3215 12-01-2015 06:10:00 6.4 C 6.41 g/m*3 3.8 C 12.9 km/h
3216 12-01-2015 06:15:00 6.4 C 6.41 g/m*3 4.08 C 11.3 km/h
3217 12-01-2015 06:20:00 6.5 C 6.45 g/m*3 3.23 C 17.7 km/h
3218 12-01-2015 06:25:00 6.6 C 6.42 g/m*3 2.82 C 22.5 km/h
3219 12-01-2015 06:30:00 6.6 C 6.42 g/m*3 3.17 C <